Aviation Digital Data Service (ADDS)

Output produced by METARs form (0517 UTC 28 April 2015)
found at http://aviationweather.gov/adds/metars/
 
K04V 280517Z AUTO 06008KT 10SM CLR 02/M03 A3031 RMK AO2
K04W 280513Z AUTO 00000KT 10SM CLR 03/M01 A3013 RMK AO2
K05U 280500Z AUTO 18004KT 10SM CLR 04/M09 A3027 RMK AO1
K08D 280515Z AUTO 28004KT 10SM CLR 03/03 A3031 RMK AO2
K0A9 280515Z AUTO 00000KT 10SM CLR 02/01 A2997 RMK
K0CO 280515Z AUTO 10013G19KT M1/4SM HZ OVC001 M07/M12 A3042 RMK AO2
K0E0 280455Z AUTO 10005KT 10SM BKN065 OVC085 06/M01 A3027 RMK AO2 T00621014
K0F2 280455Z AUTO 04006KT 10SM SCT070 OVC090 10/09 A2996 RMK AO2 T01030085
K0J4 280458Z AUTO 03003KT 10SM CLR 17/16 A2985 RMK AO2 SLP106 T01720156 402060167 PNO $
K0V4 280455Z AUTO 30005KT 10SM CLR 05/03 A2994 RMK AO1 T00490028 401920011
K0VG 280455Z AUTO 00000KT 10SM CLR 04/03 A3000 RMK AO2
K11R 280455Z AUTO 00000KT 10SM CLR 21/19 A2980 RMK AO2 T02050192
K12N 280454Z AUTO 35007KT 09/03 A2976 RMK AO1 SLP079 T00890028 401390067
K14Y 280517Z AUTO 00000KT 10SM CLR 06/00 A3016 RMK AO2
K18A 280455Z AUTO 09006KT 10SM 13/08 A2991 RMK AO2 T01320075
K19A 280455Z AUTO 00000KT 10SM CLR 11/06 A2990 RMK AO2
K1A5 280455Z AUTO 00000KT 10SM 05/04 A2998 RMK AO2 T00460039
K1A6 280455Z AUTO 00000KT 10SM CLR 05/04 A3000 RMK AO2 T00520040
K1A9 280455Z AUTO 00000KT 10SM CLR 15/09 A2988 RMK AO2 T01510086
K1F0 280455Z AUTO 06010G14KT 10SM SCT070 11/08 A2998 RMK AO2
K1H2 280455Z AUTO 00000KT 10SM CLR 08/01 A3011 RMK AO2 T00830010
K1II 280455Z AUTO 04004KT 10SM CLR 07/03 A3008 RMK AO2
K1J0 280458Z AUTO 03003KT 10SM SCT028 18/17 A2983 RMK AO2 SLP060 T01830167 402110183 $
K1K1 280455Z AUTO 02003KT 10SM CLR 11/02 A3012 RMK AO2 T01100021
K1L0 280455Z AUTO 09003KT 10SM CLR A2974 RMK AO2 LTG DSNT SE
K1M4 280456Z AUTO 10SM 12/04 A2995 RMK AO2 T01220044 401830072 SLP153
K1P1 280515Z AUTO 29005KT 10SM SCT046 OVC070 08/04 A2968 RMK AO2 T00770043
K1QW 280456Z AUTO 06009KT 10SM CLR 14/03 A3013 RMK AO2 SLPNO T01350027
K1R7 280455Z AUTO 03004KT OVC032 15/13 A2986 RMK AO2
K1S5 280515Z AUTO 09005KT 10SM CLR 15/02 A3008 RMK AO2 T01500020
K1V4 280454Z AUTO 07/02 A2972 RMK AO1 SLP066 T00720017 401000044
K1V6 280515Z AUTO 29003KT 10SM OVC049 07/05 A3034 RMK AO2
K1YT 280456Z AUTO 11004KT 10SM CLR 14/03 A3010 RMK AO2 SLPNO T01370030
K20U 280455Z AUTO 00000KT 10SM SCT041 02/02 A3034 RMK AO2
K20V 280515Z AUTO 10004KT 10SM SCT044 SCT050 OVC060 03/01 A3030 RMK AO2
K21D 280510Z AUTO 00000KT 10SM CLR 05/00 A3015 RMK AO2
K24J 280515Z AUTO 00000KT 8SM BKN030 21/21 A2984 RMK AO1
K28J 280455Z AUTO 12007KT 8SM SCT009 OVC016 19/19 A2986 RMK AO2
K2C8 280515Z AUTO 28003KT M1/4SM FG BKN001 03/03 A3027 RMK AO2
K2D5 280455Z AUTO 34012KT 10SM 09/08 A3026 RMK AO2
K2DP 280456Z AUTO 30001KT 10SM CLR 06/06 A2988 RMK AO2 SLPNO T00640056 402020029 $
K2G4 280510Z AUTO 30005KT 10SM OVC007 00/ A2997 RMK AO1
K2G9 280455Z AUTO 34005KT 10SM BKN010 BKN041 01/00 A2997 RMK AO2
K2I0 280455Z AUTO 04008KT 10SM CLR 12/06 A3004 RMK AO2 T01150055
K2J9 280455Z AUTO 07005KT 10SM BKN060 18/18 A2983 RMK AO1
K2V5 280515Z AUTO 28006KT 10SM BKN075 06/03 A3027 RMK AO2 T00600030
K2W6 280513Z AUTO 29005KT 10SM CLR 09/02 A2990 RMK AO1
K2WX 280456Z AUTO 00000KT 07/03 A3027 RMK AO1 SLP266 T00670028
K33V 280516Z AUTO 32007KT 10SM BKN075 01/M01 A3031 RMK AO2
K36U 280455Z AUTO 00000KT 10SM BKN075 10/02 A3025 RMK AO2
K3AU 280455Z AUTO 04003KT 10SM CLR 10/03 A3011 RMK AO2
K3D2 280455Z AUTO 02005KT 10SM CLR 04/01 A3014 RMK AO2 T00420008
K3I2 280455Z AUTO 00000KT 10SM CLR 07/01 A3008 RMK AO2
K3J7 280455Z AUTO 00000KT 10SM CLR 13/10 A2987 RMK AO2
K3K3 280455Z AUTO 02005KT 10SM CLR 04/02 A3023 RMK AO2
K3LF 280455Z AUTO 07005KT 10SM CLR 08/02 A3011 RMK AO2 T00840019
K3N8 280455Z AUTO 35012KT 10SM OVC090 10/05 A3021 RMK AO2 T01010052
K3R7 280455Z AUTO 03008KT 10SM OVC006 17/17 A2977 RMK AO2 T01710165
K3T5 280455Z AUTO 00000KT 10SM SCT038 SCT045 SCT055 22/21 A2978 RMK AO2 T02220206
K40B 280516Z AUTO 00000KT 03/02 A2977 RMK AO1 SLP093 T00260019 400940012 51009 P0000
K40J 280455Z AUTO 36006KT 5SM BR CLR 20/20 A2981 RMK AO2 T01990195
K42J 280515Z AUTO 10006KT 5SM BKN005 OVC009 19/19 A2985 RMK AO1 TSNO
K46D 280455Z AUTO 30006KT 10SM CLR 05/05 A3028 RMK AO2
K49A 280455Z AUTO 01006KT 10SM CLR A2994 RMK AO2
K4A6 280455Z AUTO 04004KT 10SM CLR 09/07 A2995 RMK AO2
K4A9 280455Z AUTO 03004KT 10SM CLR 08/06 A2992 RMK AO2
K4BM 280517Z AUTO 07005KT 5SM BR SCT001 OVC005 M05/M06 A3041 RMK AO2
K4I3 280516Z AUTO 35005KT 10SM CLR 04/01 A3006 RMK AO2
K4I7 280515Z AUTO 03004KT 10SM CLR 05/00 A3008 RMK AO2
K4M9 280455Z AUTO 05007KT 10SM 10/07 A3003 RMK AO2
K4MR 280456Z AUTO 01016KT 10SM BKN060 BKN085 04/01 A3020 RMK AO2 SLPNO T00370014 $
K4O4 280455Z AUTO 32008KT 10SM BKN060 12/08 A2999 RMK AO2
K54J 280455Z AUTO 05006KT 10SM CLR 18/17 A2983 RMK AO2 T01780165 402100175
K5A6 280455Z AUTO 00000KT 10SM CLR 12/08 A2992 RMK AO2 T01240081
K5C1 280455Z AUTO 36011G15KT 10SM CLR 18/12 A2987 RMK AO1
K5M9 280455Z AUTO 03006KT 10SM CLR 10/04 A3004 RMK AO2 T00970040
K5R8 280455Z AUTO 04003KT 10SM SCT015 BKN020 OVC030 18/17 A2979 RMK AO2 T01760174
K5SM 280512Z AUTO 04006KT 5SM BR SCT001 OVC006 01/00 A3038 RMK AO2
K5T9 280455Z AUTO 33014G21KT 10SM CLR 21/08 A2990 RMK A01
K65S 280450Z AUTO 00000KT 10SM CLR 12/02 A3020 RMK AO2
K66R 280455Z AUTO 04003KT 10SM CLR 20/19 A2978 RMK AO2 T01950190
K6A2 280455Z AUTO 00000KT 10SM CLR 12/09 A2988 RMK AO2
K6B0 280455Z AUTO 03004KT 10SM SCT044 06/06 A2976 RMK AO2 T00580058 400800053
K6I2 280450Z AUTO 36003KT 10SM CLR 08/04 A3003 RMK AO2
K6L4 280515Z AUTO 32008KT 290V360 10SM FEW046 SCT080 08/02 A2998 RMK AO2
K6R3 280455Z AUTO 00000KT 10SM OVC022 20/18 A2980 RMK AO2 T02000181
K6R6 280453Z AUTO 33020G34KT 14/02 A3000 RMK AO1 PK WND 34040/0417 SLP132 T01390022
K79J 280456Z AUTO 03004KT 10SM CLR 19/15 A2986 RMK AO2 SLP106 T01890150 402280183
K7BM 280515Z AUTO 13005KT 10SM SCT006 OVC010 00/00 A3037 RMK AO2
K7L2 280455Z AUTO 30003KT 7SM OVC031 07/07 A3030 RMK AO2
K7N0 280515Z AUTO 12007KT 030V170 BKN009 BKN120 A2973 RMK AO1
K7W4 280455Z AUTO 00000KT 10SM CLR 09/01 A2994 RMK AO1 T00920014 401620046
K82C 280455Z AUTO 00000KT 10SM CLR 07/01 A3011 RMK AO2 T00660012
K82V 280455Z AUTO 33006KT 10SM BKN029 OVC033 06/05 A3035 RMK AO2
K8A0 280455Z AUTO 03007KT 10SM SCT120 11/08 A2991 RMK AO2
K8D3 280456Z AUTO 35015KT 11/06 A3022 RMK AO1 SLP227 T01110056
K8S0 280440Z 26004KT
K8W2 280455Z AUTO 00000KT 10SM BKN043 07/00 A2998 RMK AO1 T00711002
K96D 280515Z AUTO 00000KT 1 1/2SM BR CLR 02/02 A3027 RMK AO2
K9A5 280455Z AUTO 04004KT 10SM CLR 10/05 A2995 RMK AO2 T01000051
K9D7 280455Z AUTO 25005KT 1/4SM FG VV002 00/00 A3028 RMK AO2
K9L2 280455Z AUTO 21004KT 10SM CLR 14/M14 A3002 RMK AO2 SLP158 T01391139 TSNO $
K9MN 280513Z AUTO 00000KT 10SM CLR 13/M02 A3014 RMK AO1 T01251018
K9V9 280455Z AUTO 34013G18KT 10SM OVC090 10/06 A3028 RMK AO2 T00960055
KA08 280455Z AUTO 29005KT 10SM CLR 14/10 A2988 RMK AO2 T01410099 PWINO
KAAA 280455Z AUTO 00000KT 10SM CLR 07/03 A3012 RMK AO2 T00720030
KAAF 280513Z AUTO 16008KT 6SM BR FEW013 BKN110 22/20 A2977 RMK AO2 PRESFR T02170200
KAAO 280454Z AUTO 02007KT 10SM CLR 11/02 A3011 RMK AO2 SLP197 T01060022
KAAT 280455Z AUTO 00000KT 10SM CLR 12/02 A3015 RMK AO2 SLP190 T01220022
KABE 280451Z 32006KT 10SM FEW032 BKN075 OVC100 09/03 A2980 RMK AO2 SLP093 T00940028 401440044
KABH 280456Z AUTO 36010KT 10SM OVC048 A3033 RMK AO2 SLPNO $
KABI 280452Z 35012KT 10SM OVC009 14/12 A2992 RMK AO2 CIG 006V010 SLP117 T01440117
KABQ 280452Z 12011KT 10SM FEW048 BKN060 BKN100 08/02 A3022 RMK AO2 SLP200 MTN TOPS OBSC NE T00830022
KABR 280453Z AUTO 35013KT 10SM OVC100 10/06 A3028 RMK AO2 SLP255 T01000061
KABY 280453Z AUTO 02003KT 10SM CLR 18/16 A2986 RMK AO2 SLP110 T01780161 402330172
KACB 280514Z AUTO 00000KT 10SM OVC041 07/02 A3013 RMK AO2 T00720015
KACJ 280450Z AUTO 05004KT 10SM CLR 15/10 A2988 RMK AO2
KACK 280453Z AUTO 35006KT 10SM SCT055 BKN070 OVC090 07/03 A2958 RMK AO2 SLP016 T00670033 401390056
KACP 280455Z AUTO 06004KT 10SM OVC019 17/15 A2979 RMK AO2 T01650147 402140165
KACQ 280439Z AUTO 00000KT 10SM CLR 06/00 A3017 RMK AO2
KACT 280451Z 36011KT 10SM OVC012 16/14 A2986 RMK AO2 SLP106 T01610144
KACV 280453Z AUTO 00000KT 6SM BR OVC003 11/11 A3010 RMK AO2 SLP198 T01060106
KACY 280454Z 32012KT 10SM OVC090 11/01 A2976 RMK AO2 SLP076 T01060006 401670033
KADC 280514Z AUTO 30003KT 10SM CLR 08/M02 A3016 RMK AO2
KADF 280456Z AUTO VRB04KT 10SM -RA FEW110 14/08 A2994 RMK AO2 T01380077 401940122 RAB55 P0000 SLP152
KADG 280453Z AUTO 00000KT 10SM CLR 02/00 A3010 RMK AO2 SLP200 T00220000 401060022 TSNO
KADH 280455Z AUTO 04005KT 10SM SCT060 SCT070 BKN095 10/08 A3001 RMK AO2
KADM 280455Z AUTO 05014G22KT 10SM SCT050 BKN080 OVC090 12/09 A2998 RMK AO2 T01170093
KADS 280455Z AUTO 05008G16KT 10SM SCT014 14/14 A2991 RMK AO2 T01370137
KADU 280455Z AUTO 00000KT 10SM CLR 06/03 A3018 RMK AO2
KADW 280458Z AUTO 30011G19KT 10SM CLR 09/02 A2989 RMK AO2 SLP129 T00910024 401530038
KAEG 280515Z AUTO 15010KT 10SM SCT041 OVC048 06/03 A3024 RMK AO2 T00620033
KAEJ 280515Z AUTO 00000KT 10SM SCT032 OVC048 03/M01 A3035 RMK AO2 T00301014
KAEL 280514Z AUTO 00000KT 10SM CLR 08/00 A3016 RMK AO2
KAEX 280453Z 06004KT 10SM OVC037 A2980 RMK AO2 SLPNO $
KAFF 280458Z AUTO 33004KT 10SM OVC046 04/01 A3035 RMK AO2 SLPNO T00440011
KAFJ 280515Z AUTO 00000KT 10SM BKN018 BKN050 03/00 A3005 RMK AO1
KAFK 280455Z AUTO 36003KT 10SM CLR 13/M03 A3016 RMK AO2 T01271031
KAFN 280452Z AUTO 02003KT 10SM SCT075 06/01 A2966 RMK AO2 SLP054 T00560011 401170044
KAFO 280455Z AUTO 00000KT 10SM CLR 03/00 A3029 RMK AO2
KAFP 280455Z AUTO 00000KT 10SM SCT085 07/05 A2993 RMK AO2 T00680053
KAFW 280453Z 02011KT 10SM OVC013 12/11 A2992 RMK AO2 SLP126 T01220111
KAGC 280511Z AUTO 33006KT 10SM SCT015 BKN060 04/01 A3001 RMK AO2 T00440006 TSNO
KAGS 280453Z AUTO 00000KT 10SM CLR 12/12 A2988 RMK AO2 SLP118 T01220117 402330106
KAHN 280451Z AUTO 08003KT 10SM CLR 11/09 A2990 RMK AO2 SLP121 T01110089 402330111
KAHQ 280455Z AUTO 34004KT 10SM CLR 09/00 A3019 RMK AO2 T00920000
KAIA 280453Z AUTO 36008KT 10SM FEW075 06/04 A3033 RMK AO2 SLP267 T00560039
KAIB 280455Z AUTO 11008KT 10SM SCT065 OVC090 10/02 A3023 RMK AO2
KAIG 280450Z AUTO 13006KT 10SM CLR 04/01 A3016 RMK AO2 T00420005
KAIK 280515Z AUTO 00000KT 10SM CLR 11/10 A2993 RMK AO2
KAIO 280455Z AUTO 01005KT 10SM FEW045 FEW055 06/03 A3017 RMK AO2
KAIT 280513Z AUTO 00000KT 10SM CLR 03/M01 A3012 RMK AO2
KAIZ 280515Z AUTO 05003KT 10SM CLR 10/01 A3009 RMK AO1
KAJG 280455Z AUTO 00000KT 10SM CLR 10/02 A3008 RMK AO2
KAJO 280456Z AUTO 00000KT 10SM CLR 19/01 A2997 RMK AO2 T01880005 SLP143 $
KAJZ 280515Z AUTO 10SM SCT110 13/05 A3019 RMK AO2 T01260051 PWINO
KAKH 280454Z AUTO 00000KT 10SM CLR 08/04 A2994 RMK AO2 SLP135 T00830039 402220044
KAKO 280453Z AUTO 30007KT 10SM OVC065 08/03 A3030 RMK AO2 SLP253 T00780033
KAKQ 280454Z AUTO 33003KT 10SM CLR 08/03 A2991 RMK AO2 SLP129 T00780028 401940028 TSNO $
KAKR 280454Z AUTO 33006KT 10SM OVC055 06/02 A3004 RMK AO2 SLP179 T00610017 400720033
KALB 280451Z 31005KT 10SM SCT030 BKN050 08/04 A2975 RMK AO2 SLP076 T00780044 401500067
KALI 280453Z AUTO 13003KT 10SM CLR 20/17 A2973 RMK AO2 SLP064 T02000167
KALK 280456Z AUTO 14003KT 10SM CLR 14/M01 A3010 RMK AO2 SLP118 T01441011
KALM 280455Z AUTO 35010KT 10SM CLR 13/M02 A3015 RMK AO2
KALN 280455Z AUTO 00000KT 10SM CLR 10/03 A3010 RMK AO2 T00960028
KALO 280454Z AUTO 00000KT 10SM CLR 07/02 A3014 RMK AO2 SLP209 T00670022 $
KALS 280452Z AUTO 30005KT 10SM CLR 01/M03 A3030 RMK AO2 SLP231 T00111033
KALW 280453Z AUTO 11005KT 10SM CLR 14/04 A3008 RMK AO2 SLP182 T01440039 $
KALX 280455Z AUTO 00000KT 10SM CLR 14/09 A2990 RMK AO2 T01370086 402350130
KAMA 280509Z AUTO 01015KT 10SM BKN010 OVC014 04/03 A3019 RMK AO2 CIG 007V012 T00390033
KAMG 280453Z AUTO 00000KT 8SM CLR 17/16 A2987 RMK AO2 SLP112 T01670156 402280167
KAMN 280512Z AUTO 09003KT 10SM CLR 05/02 A3012 RMK AO2 T00500015
KAMW 280453Z AUTO 35004KT 10SM CLR 09/02 A3015 RMK AO2 SLP210 T00940017
KANB 280453Z AUTO 08005KT 10SM CLR 12/09 A2988 RMK AO2 SLP119 T01220089
KAND 280456Z AUTO 07008KT 10SM CLR 13/03 A2991 RMK AO2 SLP124 T01330033 402220122
KANE 280514Z AUTO 00000KT 10SM CLR 09/M02 A3013 RMK AO2
KANJ 280455Z AUTO 02003KT 10SM OVC032 06/01 A3013 RMK AO2 SLP206 T00610006 401000044
KANK 280515Z AUTO 10005KT 10SM OVC048 04/01 A3042 RMK AO1 T00400012
KANQ 280555Z AUTO 00000KT 10SM CLR 01/00 A3009 RMK
KANW 280455Z AUTO 34014G20KT 10SM CLR 09/06 A3030 RMK AO2 T00910055
KAOH 280453Z AUTO 00000KT 10SM CLR 04/01 A3008 RMK AO2 SLP190 T00390006 401110022
KAOO 280453Z AUTO 31008KT 10SM FEW024 OVC040 06/01 A2994 RMK AO2 SLP146 T00560011 401060039
KAPA 280453Z 00000KT 10SM OVC055 06/03 A3035 RMK AO2 SLP281 T00560033
KAPC 280454Z AUTO 21006KT 10SM CLR 11/10 A2998 RMK AO2 SLP143 T01110100
KAPF 280453Z AUTO 07006KT 10SM CLR 25/21 A2984 RMK AO2 SLP104 T02500206 403220250
KAPG 272353Z 29010KT 7SM SCT070 13/01 A2981 RMK LAST
KAPN 280454Z AUTO 36006KT 10SM OVC040 07/02 A3012 RMK AO2 SLP204 T00720017 401220039
KAPY 280455Z AUTO 00000KT 10SM CLR 16/12 A2977 RMK AO2 T01680129
KAQO 280455Z AUTO 30004KT 10SM FEW070 16/14 A2992 RMK AO2
KAQP 280515Z AUTO 27006KT 10SM CLR 06/02 A3017 RMK AO2
KAQR 280455Z AUTO 02007KT 10SM -DZ BKN060 OVC090 11/10 A3000 RMK AO2
KAQV 280456Z AUTO VRB05G16KT 10SM OVC033 18/12 A2980 RMK AO2 SLP090 T01780117
KAQW 280452Z AUTO 26005KT 10SM FEW027 SCT036 BKN046 08/04 A2972 RMK AO2 SLP065 T00780044 401330056
KAQX 280515Z AUTO 00000KT 10SM CLR 14/13 A2988 RMK AO2
KARA 280453Z AUTO 02009KT 9SM BKN005 OVC020 19/18 A2977 RMK AO2 SLP079 T01890178 $
KARB 280453Z AUTO 00000KT 10SM CLR M01/M02 A3009 RMK AO2 SLP196 T10061022 401111022
KARG 280515Z AUTO 04006KT 10SM CLR 11/05 A3002 RMK AO1
KARM 280455Z AUTO 04003KT 10SM CLR 20/19 A2977 RMK AO2 T01970186
KARR 280452Z AUTO 00000KT 10SM CLR 04/00 A3012 RMK AO2 SLP202 T00440000
KART 280456Z AUTO 24003KT 10SM SCT050 OVC060 06/04 A2987 RMK AO2 RAB23E50 SLP117 P0000 T00560044 401000028
KARV 280455Z AUTO 00000KT 10SM CLR 03/M02 A3015 RMK AO2 T00281017
KARW 280515Z AUTO 00000KT 7SM CLR 16/15 A2988 RMK AO2
KASD 280502Z AUTO 05006KT 10SM SCT004 OVC010 17/17 A2977 RMK AO2 CIG 007V012 T01720172 PNO $
KASE 280453Z 20003KT 10SM OVC075 04/01 A3026 RMK AO2 SLP188 T00390006
KASG 280148Z 07011KT 10SM SCT048 OVC090 15/03 A3001 RMK LAST
KASH 280451Z AUTO 34008KT 10SM -RA SCT047 09/03 A2965 RMK AO2 T00880027 RAB46 P0000 SLP289 $
KASJ 280455Z AUTO 00000KT 10SM CLR 07/04 A2991 RMK AO2 T00670039
KASL 280455Z AUTO 00000KT 3/4SM BKN018 BKN023 OVC041 16/12 A2990 RMK AO1 P0011 T01600120
KASN 280455Z AUTO 00000KT 10SM CLR 13/10 A2990 RMK AO2 T01280096
KAST 280455Z AUTO 25003KT 10SM CLR 13/12 A2992 RMK AO2 SLP133 T01280117
KASW 280455Z AUTO 00000KT 10SM CLR 03/01 A3010 RMK AO2
KASX 280453Z AUTO 00000KT 10SM CLR 02/M02 A3016 RMK AO2 SLP219 T00221017
KATL 280452Z 35004KT 10SM OVC250 14/04 A2988 RMK AO2 SLP115 T01390039 402170106
KATP 280455Z AUTO 13013KT 7SM SCT016 BKN023 OVC038 27/24 A2973 RMK A01
KATS 280515Z AUTO 35012G18KT 10SM FEW036 OVC060 08/01 A3025 RMK AO2
KATT 280451Z AUTO VRB06KT 10SM CLR 20/13 A2982 RMK AO2 SLP089 T02000133
KATW 280455Z AUTO 00000KT 10SM CLR 05/00 A3016 RMK AO2
KATY 280453Z AUTO 36010KT 10SM CLR 09/02 A3021 RMK AO2 SLP233 T00890022 TSNO
KAUG 280453Z AUTO 01009G20KT 10SM BKN037 OVC044 05/01 A2968 RMK AO2 RAE21 SLP051 P0000 T00500006 401280044
KAUH 280455Z AUTO 01005KT 10SM CLR 07/02 A3020 RMK AO2 T00690015
KAUM 280516Z AUTO 00000KT 10SM CLR 07/01 A3015 RMK AO2
KAUN 280455Z AUTO 00000KT 10SM CLR 20/11 A2999 RMK AO1
KAUO 280515Z AUTO 02006KT 10SM CLR 14/04 A2989 RMK AO1
KAUS 280453Z 03010KT 10SM CLR 19/14 A2980 RMK AO2 SLP086 T01940139
KAUW 280454Z AUTO 11006KT 10SM CLR 08/M01 A3014 RMK AO2 SLP212 T00831011
KAVC 280456Z AUTO 00000KT 10SM CLR 06/01 A2998 RMK AO2 T00640012 401820026
KAVK 280455Z AUTO 24005KT 10SM FEW044 BKN050 OVC110 08/08 A3012 RMK AO2
KAVL 280454Z AUTO 35006KT 10SM CLR 09/01 A2995 RMK AO2 SLP132 T00890011 401780078
KAVP 280512Z AUTO 00000KT 9SM -RA OVC014 07/04 A2982 RMK AO2 P0000 T00720044 $
KAVQ 280455Z AUTO 35004KT 10SM CLR 20/06 A2995 RMK AO2 T02030057
KAVX 280451Z AUTO 25010KT 10SM CLR 19/01 A3001 RMK AO2 SLP139 T01890011
KAWG 280455Z AUTO 29003KT 10SM CLR 07/06 A3013 RMK AO2
KAWM 280453Z AUTO 05010KT 10SM CLR 13/06 A2996 RMK AO2 SLP146 T01280056
KAWO 280515Z AUTO 00000KT 10SM CLR 14/11 A2994 RMK AO1
KAXA 280455Z AUTO 00000KT 10SM CLR 11/M01 A3017 RMK AO2
KAXH 280455Z AUTO 35004KT 10SM OVC018 23/21 A2979 RMK AO2 T02270212
KAXN 280453Z AUTO 25003KT 10SM CLR 09/M01 A3016 RMK AO2 SLP218 T00941011
KAXS 280455Z AUTO 03014G20KT 10SM BKN016 10/08 A3007 RMK AO2 T00980080
KAXV 280512Z AUTO 00000KT 10SM CLR 02/02 A3009 RMK AO2
KAXX 280455Z AUTO 02010KT 10SM OVC037 01/M03 A3031 RMK AO2 T00051031
KAYS 280455Z AUTO 00000KT 10SM SCT060 19/18 A2987 RMK AO2 T01850181 402460185
KAZC 280455Z AUTO 01006KT 10SM CLR 14/02 A3016 RMK AO2 T01370023
KAZE 280455Z AUTO 09004KT 10SM CLR 18/16 A2986 RMK AO2 T01810160
KAZO 280453Z AUTO 00000KT 10SM CLR 04/01 A3010 RMK AO2 SLP197 T00440006 401220022
KBAB 280458Z 12006KT 10SM CLR 21/13 A2990 RMK AO2A SLPNO T02070126 $
KBAC 280515Z AUTO 33011KT 7SM -RA BKN042 OVC050 07/07 A3025 RMK AO2
KBAD 280458Z AUTO 08010G18KT 10SM BKN049 OVC130 17/08 A2983 RMK AO2 SLP103 T01650079
KBAF 280453Z AUTO 34010KT 10SM CLR 09/02 A2967 RMK AO2 SLP050 T00940022 401670061
KBAK 280150Z 36008KT 10SM OVC050 10/02 A3005
KBAN 280452Z AUTO VRB04KT 10SM CLR 07/M04 A3025 RMK AO2 SLP207 T00671039
KBAX 280514Z AUTO 00000KT 10SM CLR 00/M01 A3011 RMK AO2 T00001013
KBAZ 280451Z AUTO 03016G26KT 10SM CLR 21/14 A2980 RMK AO2 PK WND 02026/0446 SLP082 T02060144
KBBB 280514Z AUTO 00000KT 10SM CLR 06/00 A3016 RMK AO2
KBBD 280455Z AUTO 29009KT 10SM CLR 14/13 A2991 RMK
KBBF 280455Z AUTO 06023KT 5SM BR CLR 23/21 A2970 RMK A01
KBBG 280455Z AUTO 00000KT 10SM CLR 12/02 A3005 RMK AO2
KBBP 280515Z AUTO 00000KT 10SM CLR 10/M02 A2993 RMK AO2
KBBW 280453Z AUTO 35011KT 10SM CLR 09/M01 A3024 RMK AO2 SLP236 T00891006
KBCB 280455Z AUTO 32005KT 10SM SCT047 SCT065 06/00 A2999 RMK AO2 T00610000 401210005
KBCE 280453Z AUTO 03008KT 10SM BKN070 06/00 A3028 RMK AO2 SLP182 T00610000 TSNO
KBCK 280455Z AUTO 00000KT 10SM CLR 03/M02 A3013 RMK AO2 T00301016
KBCT 280247Z 07005KT 10SM CLR 24/22 A2988 RMK LAST
KBDE 280453Z AUTO 34011KT 10SM BKN085 OVC100 08/04 A3021 RMK AO2 SLP233 T00830044 TSNO
KBDG 280455Z AUTO 33006KT 10SM CLR 08/01 A3023 RMK AO1 T00820013
KBDH 280515Z AUTO 00000KT 10SM CLR 09/M01 A3017 RMK AO2
KBDL 280451Z 34007KT 10SM FEW065 FEW160 09/03 A2967 RMK AO2 SLP046 T00940033 401720072
KBDN 280515Z AUTO 00000KT 10SM CLR 14/04 A3010 RMK AO2
KBDR 280452Z AUTO 33009KT 10SM -RA SCT033 BKN045 OVC055 10/06 A2969 RMK AO2 RAB07 SLP053 P0000 T01000056 401720100
KBDU 280518Z AUTO 24003KT 10SM OVC044 06/05 A3035 RMK AO2
KBEA 280455Z AUTO 06004KT 10SM CLR 20/18 A2975 RMK AO2 T02040183
KBED 280456Z AUTO 34008KT 10SM OVC047 09/03 A2962 RMK AO2 RAE0359 SLP044 P0000 T00890028 401440061 TSNO
KBEH 280453Z AUTO 00000KT 10SM CLR 01/00 A3011 RMK AO2 SLP201 T00060000 400780000
KBFD 280453Z AUTO 30008KT 10SM SCT009 OVC034 03/02 A2995 RMK AO2 SLP152 T00330017 400670028
KBFF 280453Z AUTO 33006KT 10SM FEW050 OVC070 08/05 A3034 RMK AO2 SLP269 T00830050
KBFI 280453Z 31004KT 10SM CLR 18/11 A2992 RMK AO2 SLP131 T01780111
KBFL 280454Z 02006KT 10SM CLR 24/03 A2995 RMK AO2 SLP135 T02440033
KBFM 280503Z AUTO 35008KT 10SM -RA SCT011 BKN017 OVC120 18/16 A2986 RMK AO2 P0001 T01780161
KBFW 280514Z AUTO 00000KT 10SM CLR 01/M03 A3014 RMK AO2
KBGD 280513Z AUTO 01006KT -RA BKN030 OVC043 06/04 A3019 RMK AO2 P0000 T00610044 $
KBGE 280455Z AUTO 03005KT 10SM CLR 20/18 A2983 RMK AO2
KBGF 280455Z AUTO 00000KT 10SM CLR 08/06 A2998 RMK
KBGM 280512Z AUTO 33009KT 10SM BKN028 BKN039 OVC048 06/04 A2982 RMK AO2 T00610039
KBGR 280508Z 02015G25KT 10SM BKN028 OVC035 05/M01 A2968 RMK AO2 T00501006
KBHB 280515Z 01018G23KT 10SM OVC021 04/02 A2963 RMK AO1
KBHC 280455Z AUTO 00000KT 10SM CLR 18/17 A2987 RMK AO2
KBHK 280451Z AUTO 00000KT 10SM CLR 03/01 A3034 RMK AO2 SLP292 T00280006
KBHM 280453Z 04003KT 10SM BKN250 14/06 A2992 RMK AO2 SLP128 T01440061
KBID 280515Z AUTO 05012G17KT 10SM FEW016 SCT022 BKN027 08/03 A2964 RMK AO1
KBIE 280455Z AUTO 04004KT 10SM CLR 08/02 A3017 RMK AO2 T00750022
KBIF 280458Z AUTO 06010KT 10SM BKN180 OVC200 11/02 A3016 RMK AO2 SLPNO T01120017
KBIH 280456Z AUTO 02011KT 10SM CLR 19/M08 A3010 RMK AO2 SLP153 T01891083
KBIJ 280455Z AUTO 00000KT 10SM CLR 18/18 A2984 RMK AO2
KBIL 280453Z 17007KT 10SM CLR 09/01 A3028 RMK AO2 SLP259 T00940011
KBIS 280452Z AUTO 00000KT 10SM CLR 06/03 A3031 RMK AO2 SLP275 T00560033
KBIV 280453Z AUTO 25003KT 10SM CLR 04/01 A3010 RMK AO2 SLP199 T00390011 401280039
KBIX 280503Z AUTO 06009KT 10SM -RA OVC007 17/17 A2978 RMK AO2 PRESFR
KBJC 280516Z AUTO 28006KT 10SM BKN036 OVC044 06/05 A3036 RMK AO2
KBJI 280514Z AUTO 33007KT 10SM CLR 12/06 A3018 RMK AO2 T01190058
KBJJ 280456Z AUTO 36006KT 10SM OVC055 04/02 A3006 RMK AO2 SLP187 T00390017 400720006 TSNO
KBKB 280454Z AUTO VRB03KT 10SM OVC028 19/13 A2978 RMK AO2 SLP111 T01890133
KBKD 280455Z AUTO 06009G16KT 7SM OVC006 15/14 A2993 RMK AO2 T01450138
KBKE 280453Z AUTO 13003KT 10SM CLR 07/00 A3019 RMK AO2 SLP225 T00670000 TSNO
KBKF 280458Z 00000KT 10SM BKN060 05/05 A3035 RMK AO2A SLP270 T00500049
KBKL 280453Z 03007KT 10SM SCT039 SCT045 BKN060 06/01 A3007 RMK AO2 SLP185 T00610011 400780044
KBKS 280455Z AUTO 10003KT 10SM OVC004 22/18 A2975 RMK AO1 T02160184
KBKT 280455Z AUTO 32004KT 10SM CLR 05/02 A2994 RMK AO1 T00490017 401790029
KBKV 280453Z AUTO 15008KT 10SM SCT090 BKN120 20/19 A2980 RMK AO2 RAE52 SLP088 P0001 T02000189 402830200
KBKW 280451Z AUTO 35008KT 10SM FEW047 SCT060 06/00 A2999 RMK AO2 SLP160 T00560000 401170000
KBKX 280515Z AUTO 00000KT 10SM CLR 08/M01 A3020 RMK AO1
KBLF 280452Z AUTO 34003KT 10SM OVC037 08/M01 A2998 RMK AO2 SLP144 T00781006 401280028
KBLH 280452Z AUTO 00000KT 10SM CLR 24/M02 A2989 RMK AO2 SLP117 T02391017 $
KBLI 280453Z 00000KT 10SM CLR 15/11 A2991 RMK AO2 SLP136 T01500111
KBLM 280515Z AUTO 30009KT 10SM BKN120 10/00 A2974 RMK AO1
KBLU 280452Z AUTO 04007KT 360V070 10SM CLR 14/M04 A3017 RMK AO2 SLP155 T01441039
KBLV 280458Z AUTO 03001KT 10SM CLR 09/06 A3008 RMK AO2 SLP189 T00850058
KBMC 280455Z AUTO 32007KT 10SM CLR 12/02 A3022 RMK AO1 T01220019
KBMG 280453Z AUTO 36004KT 10SM CLR 06/02 A3007 RMK AO2 SLP181 T00560022 401720028
KBMI 280456Z AUTO 07005KT 10SM CLR 07/01 A3013 RMK AO2 T00660011 SLP205
KBML 280452Z AUTO VRB06KT 10SM FEW029 SCT036 OVC065 05/02 A2970 RMK AO2 RAB02E38 SLP066 P0003 T00500017 401000028
KBMQ 280453Z AUTO 01007KT 10SM FEW030 16/14 A2989 RMK AO2 RAB24E41 SLP107 P0000 T01610144
KBMT 280455Z AUTO 06007KT 5SM DZ OVC012 19/17 A2979 RMK AO2 T01850173
KBNA 280453Z 00000KT 10SM CLR 11/03 A3001 RMK AO2 PRESRR SLP160 T01110033
KBNL 280515Z AUTO 00000KT 10SM CLR 13/12 A2989 RMK AO2
KBNO 280453Z AUTO 04009KT 10SM CLR 06/M06 A3020 RMK AO2 SLP224 T00611056
KBNW 280455Z AUTO 36005KT 10SM CLR 10/02 A3015 RMK AO2
KBOI 280453Z 14007KT 10SM CLR 12/M02 A3020 RMK AO2 SLP220 T01221017
KBOK 280505Z AUTO 00000KT 7SM OVC004 12/12 A3011 RMK AO2 CIG 001V007
KBOS 280454Z 36005KT 10SM SCT031 OVC044 08/06 A2964 RMK AO2 RAE37 SLP036 P0000 T00780056 401390072
KBOW 280515Z AUTO 00000KT 10SM CLR 21/19 A2986 RMK AO2
KBPC 280455Z AUTO 32003KT 10SM -RA OVC037 06/05 A3018 RMK AO2 P0002
KBPG 280455Z AUTO 32015G20KT 10SM SCT016 BKN024 OVC034 09/05 A3008 RMK AO2 T00860052
KBPI 280453Z AUTO 16009KT 10SM FEW065 05/01 A3033 RMK AO2 SLP233 T00500006
KBPK 280453Z AUTO 06004KT 10SM CLR 11/02 A3003 RMK AO2 SLP167 T01110022
KBPT 280453Z AUTO 02006KT 10SM OVC009 19/18 A2978 RMK AO2 CIG 007V012 SLP084 T01940178
KBQK 280455Z AUTO 00000KT 10SM CLR 18/16 A2989 RMK AO1
KBQP 280455Z AUTO 00000KT 10SM SCT050 15/09 A2989 RMK AO2 T01490090
KBQX 280455Z AUTO 04011KT 7SM SCT042 BKN050 23/22 A2975 RMK A01
KBRD 280453Z AUTO 00000KT 10SM CLR 06/01 A3014 RMK AO2 SLP210 T00610006
KBRL 280453Z AUTO 00000KT 10SM CLR 07/03 A3011 RMK AO2 SLP198 T00720033
KBRO 280512Z AUTO 02007KT 7SM OVC008 24/23 A2974 RMK AO2 CIG 008V013 T02440228
KBTA 280455Z AUTO 05004KT 10SM CLR 13/M02 A3018 RMK AO2 T01321016
KBTL 280453Z 23003KT 10SM CLR 04/01 A3010 RMK AO2 SLPNO T00440011 401170039
KBTM 280453Z AUTO 13005KT 10SM CLR 03/00 A3031 RMK AO2 SLP268 T00330000
KBTP 280515Z AUTO 34007KT 10SM SCT039 BKN045 OVC060 05/02 A3002 RMK AO1
KBTR 280453Z 02005KT 9SM OVC005 17/16 A2978 RMK AO2 SLP084 T01670156
KBTV 280454Z 36009KT 10SM CLR 08/03 A2979 RMK AO2 SLP089 T00780028 401000056
KBUF 280454Z 00000KT 10SM FEW050 SCT085 04/02 A2998 RMK AO2 SLP157 T00440017 400890039
KBUR 280453Z 10003KT 10SM CLR 20/02 A2995 RMK AO2 SLP131 T02000022 $
KBUU 280455Z AUTO 31003KT 10SM CLR 01/M01 A3013 RMK AO2 T00131011
KBUY 280454Z AUTO 34003KT 10SM CLR 06/03 A2993 RMK AO2 SLP134 T00610028 402000039
KBVE 280451Z AUTO 10011KT 5SM RA BR BKN100 BKN120 21/20 A2980 RMK AO2 PRESFR SLP090 P0019 T02110200
KBVI 280047Z 29003KT 10SM OVC023 06/01 A3000 RMK LAST
KBVN 280455Z AUTO 00000KT 10SM CLR 07/00 A3020 RMK AO2 T00660002
KBVO 280453Z AUTO 21006KT 10SM OVC110 11/08 A3009 RMK AO2 SLP182 T01110083 $
KBVS 280455Z AUTO 00000KT 10SM CLR 13/12 A2992 RMK A01
KBVU 280515Z AUTO 02014KT 10SM CLR 23/M01 A3001 RMK AO2
KBVX 280515Z AUTO 03004KT 10SM CLR 13/04 A3002 RMK AO1
KBVY 280503Z AUTO 04011KT 6SM -RA FEW015 BKN020 OVC041 07/04 A2964 RMK AO2 P0001 T00670039
KBWD 280455Z AUTO 03004KT 10SM FEW012 SCT060 BKN065 15/15 A2990 RMK AO2 P0001
KBWG 280453Z AUTO 02005KT 10SM CLR 12/04 A3002 RMK AO2 SLP165 T01170039
KBWI 280454Z 30008KT 10SM SCT060 09/03 A2988 RMK AO2 SLP118 T00890028 401500033
KBWP 280450Z AUTO 35014KT 10SM SCT100 12/03 A3021 RMK AO1
KBXA 280455Z AUTO 10008KT 10SM 16/14 A2979 RMK AO2 LTG DSNT SE T01620140
KBXK 280455Z AUTO 30007KT 10SM CLR 22/02 A2990 RMK AO1
KBYG 280453Z AUTO 25005KT 10SM CLR 04/00 A3033 RMK AO2 SLP275 T00390000
KBYI 280453Z AUTO 00000KT 10SM CLR 06/02 A3023 RMK AO2 SLP229 T00610017
KBYS 280455Z AUTO 28002KT 10SM CLR 22/M11 A3002 RMK AO2 SLP142 T02151108 $
KBYY 280455Z AUTO 03005KT 10SM SCT015 21/20 A2976 RMK AO2 T02070206
KBZN 280456Z AUTO 17009KT 10SM CLR 06/01 A3029 RMK AO2 SLP265 T00560011
KC09 280455Z AUTO 00000KT 10SM CLR 05/01 A3010 RMK AO2 T00500013
KC29 280455Z AUTO 11008KT 10SM CLR 09/02 A3013 RMK AO1 T00930023
KC35 280455Z AUTO 00000KT 10SM CLR 07/03 A3010 RMK AO2 T00660030
KC75 280455Z AUTO 00000KT 10SM CLR 05/02 A3013 RMK AO2 T00500016
KCAD 280514Z AUTO 00000KT 10SM CLR 01/00 A3009 RMK AO2 T00111005
KCAE 280456Z 06010G15KT 10SM FEW240 17/02 A2991 RMK AO2 SLP126 T01670022 402280117
KCAG 280453Z AUTO 07005KT 10SM CLR 07/03 A3026 RMK AO2 SLP224 T00670028
KCAK 280451Z 36007KT 10SM OVC055 06/02 A3004 RMK AO2 SLP180 T00560017 400780011
KCAO 280455Z AUTO 01012KT 10SM OVC085 06/02 A3023 RMK AO2 SLP232 T00610017
KCAR 280454Z AUTO 04012G20KT 10SM FEW042 SCT095 03/M01 A2977 RMK AO2 PK WND 03028/0420 SLP089 T00331011 401170028
KCAV 280455Z AUTO 00000KT 10SM CLR 09/01 A3016 RMK AO2
KCBE 280514Z AUTO 33003KT 10SM BKN060 07/01 A3003 RMK AO1
KCBF 280455Z AUTO 01005KT 10SM CLR 12/02 A3018 RMK AO2
KCBG 280515Z AUTO 00000KT 10SM CLR 08/M01 A3012 RMK AO2
KCBK 280455Z AUTO 36003KT 10SM CLR 06/02 A3025 RMK AO2
KCBM 280458Z AUTO 01002KT 10SM CLR 13/08 A2992 RMK AO2 SLP134 T01280076 $
KCCA 280455Z AUTO 00000KT 10SM CLR 10/08 A3003 RMK AO2
KCCO 280455Z AUTO 03004KT 10SM CLR 12/10 A2988 RMK AO2 T01150095
KCCR 280453Z AUTO 29011KT 10SM CLR 19/08 A2996 RMK AO2 SLP133 T01940083
KCCU 280516Z AUTO 00000KT CLR M02/M06 A3038 RMK AO2 PWINO
KCCY 280455Z AUTO 31004KT 10SM CLR 09/02 A3015 RMK AO2
KCDA 280455Z AUTO 32015G21KT 10SM BKN030 06/00 A2974 RMK AO2 T00560003 400860027
KCDC 280453Z AUTO 35007KT 10SM CLR 06/02 A3021 RMK AO2 SLP203 T00610017
KCDD 280512Z AUTO 00000KT 10SM CLR 01/M01 A3016 RMK AO2
KCDH 280455Z AUTO 00000KT 10SM CLR 14/05 A2992 RMK AO2
KCDJ 280452Z AUTO 33003KT 08/05 A3014 RMK AO1 SLP206 T00830050
KCDN 280515Z AUTO 00000KT 10SM CLR 12/05 A2993 RMK AO2 TSNO
KCDR 280453Z AUTO 05003KT 10SM BKN027 OVC037 07/05 A3036 RMK AO2 SLP292 T00720050
KCDS 280453Z AUTO 01016KT 4SM RA BR BKN009 OVC013 08/07 A3007 RMK AO2 CIG 005V010 SLP178 P0012 T00830072
KCDW 280453Z AUTO 33007KT 300V360 10SM CLR 10/02 A2974 RMK AO2 SLP076 T01000022 401560056 TSNO
KCEC 280504Z AUTO 00000KT 10SM OVC005 12/12 A3011 RMK AO2 CIG 004V011 T01220117
KCEF 280458Z AUTO 36010KT 340V060 10SM CLR 09/03 A2966 RMK AO2 SLP050 T00850025 401430068
KCEU 280454Z AUTO 00000KT 10SM CLR 14/02 A2993 RMK AO2 SLP129 T01440022 402280122
KCEW 280453Z AUTO VRB03KT 10SM SCT030 BKN047 18/17 A2986 RMK AO2 SLP107 T01780167
KCEY 280455Z AUTO 03006KT 10SM CLR 10/05 A3003 RMK AO1
KCEZ 280453Z AUTO 00000KT 10SM CLR 10/04 A3017 RMK AO2 SLP171 T01000044
KCFD 280455Z AUTO 31004KT 10SM OVC049 19/19 A2983 RMK AO2 P0043 T01900186
KCFE 280515Z AUTO 00000KT 10SM CLR 07/00 A3015 RMK AO2 T00740002
KCFS 280514Z AUTO 00000KT 10SM CLR 00/M01 A3011 RMK AO2 T10021012
KCFV 280452Z AUTO 02007KT 10SM CLR 12/04 A3006 RMK AO2 SLP179 T01220044
KCGC 280515Z AUTO 00000KT 10SM CLR 20/18 A2979 RMK AO2
KCGE 280512Z AUTO 31014G20KT 10SM CLR 11/03 A2985 RMK AO1
KCGF 280245Z 35006KT 10SM OVC035 07/04 A3006
KCGI 280453Z AUTO 04012KT 10SM CLR 13/04 A3004 RMK AO2 SLP172 T01280044 TSNO
KCGS 280510Z AUTO 30006KT 10SM SCT060 09/02 A2990 RMK AO1
KCGZ 280515Z AUTO 00000KT 10SM CLR 21/01 A2991 RMK AO1
KCHA 280453Z 02004KT 10SM CLR 13/03 A2996 RMK AO2 SLP141 T01330033 402000078
KCHD 280347Z 24008KT 15SM FEW100 24/03 A2988 RMK LAST
KCHK 280455Z AUTO 02011G15KT 10SM SCT044 BKN085 09/08 A3004 RMK AO2
KCHO 280453Z AUTO 35003KT 10SM CLR 08/00 A2995 RMK AO2 SLP141 T00780000 401610033
KCHS 280456Z 00000KT 10SM BKN250 16/13 A2988 RMK AO2 SLP116 T01610128 402280111
KCIC 280515Z AUTO 00000KT 10SM CLR 23/08 A2991 RMK AO1
KCID 280452Z AUTO 28004KT 10SM CLR 07/02 A3012 RMK AO2 SLPNO T00720022
KCIN 280455Z AUTO 00000KT 10SM SCT047 07/02 A3017 RMK AO2
KCIR 280455Z AUTO 02007KT 10SM CLR 12/05 A3005 RMK AO2 T01230050
KCIU 280515Z AUTO 35004KT 10SM OVC033 03/02 A3014 RMK AO1
KCJR 280455Z AUTO 33004KT 10SM CLR 09/02 A2995 RMK AO2
KCKB 280453Z AUTO 00000KT 10SM SCT038 OVC047 06/M01 A3003 RMK AO2 SLP167 T00611006 401060017
KCKC 280514Z AUTO 00000KT 10SM CLR 01/M04 A3015 RMK AO2
KCKF 280455Z AUTO 36005KT 10SM CLR 17/16 A2987 RMK AO2 T01680156
KCKI 280515Z AUTO 00000KT 10SM CLR 16/10 A2991 RMK AO2
KCKM 280455Z AUTO 02006KT CLR 12/07 A2995 RMK AO1
KCKN 280514Z AUTO 35009KT 10SM DZ OVC060 07/07 A3025 RMK AO2
KCKP 280455Z AUTO 00000KT 10SM CLR 07/01 A3018 RMK AO2 T00650014
KCKV 280452Z AUTO 02010KT 10SM CLR 11/06 A3000 RMK AO2 SLP159 T01060056
KCLE 280451Z 04005KT 10SM BKN035 06/01 A3010 RMK AO2 SLP197 T00610011 400720039 $
KCLI 280455Z AUTO 00000KT 10SM CLR 04/00 A3016 RMK AO2
KCLK 280455Z AUTO 02012KT 10SM OVC043 08/06 A3010 RMK AO2
KCLL 280453Z AUTO 23003KT 10SM FEW018 SCT024 BKN055 21/18 A2981 RMK AO2 SLP091 T02110178
KCLM 280453Z AUTO 17003KT 10SM CLR 12/10 A2993 RMK AO2 SLP136 T01170100
KCLS 280515Z AUTO 00000KT 8SM CLR 15/14 A2991 RMK AO2
KCLT 280452Z 05004KT 10SM FEW080 SCT250 12/M01 A2994 RMK AO2 SLP134 T01171006 402170039
KCLW 280455Z AUTO 13004KT 10SM -DZ SCT120 22/19 A2982 RMK AO2
KCMA 280455Z 00000KT 10SM CLR 17/09 A2995 RMK AO2 SLP151 T01670089
KCMD 280455Z AUTO 02005KT 10SM CLR 11/05 A2994 RMK AO2 T01070050
KCMH 280451Z 00000KT 10SM CLR 06/01 A3007 RMK AO2 SLP184 T00560011 401220028
KCMI 280453Z AUTO 05008KT 10SM CLR 06/01 A3009 RMK AO2 SLP191 T00610006
KCMR 280515Z AUTO 16006KT 10SM CLR 05/01 A3026 RMK AO2
KCMX 280453Z AUTO 31005KT 10SM CLR 00/M02 A3014 RMK AO2 SLP217 T00001022 401221006
KCMY 280455Z AUTO 00000KT 10SM CLR 03/M01 A3014 RMK AO2 T00341006
KCNB 280514Z AUTO 25005KT 10SM CLR 06/00 A3019 RMK AO2 T00601005
KCNC 280455Z AUTO 28005KT 10SM SCT050 09/03 A3014 RMK AO2
KCNK 280455Z AUTO 32005KT 10SM CLR 08/02 A3016 RMK AO2 SLP214 T00830022
KCNM 280453Z AUTO 35016G30KT 10SM OVC039 09/01 A3022 RMK AO2 PK WND 36031/0441 SLP204 T00890006
KCNO 280453Z 26006KT 10SM CLR 18/01 A2998 RMK AO2 SLP148 T01780011
KCNU 280452Z AUTO 01005KT 10SM CLR 12/04 A3009 RMK AO2 SLP187 T01170044
KCNW 280353Z 33016G23KT 10SM OVC011 17/15 A2984
KCNY 280453Z AUTO 33004KT 10SM CLR 11/04 A3015 RMK AO2 SLP183 T01060039
KCOD 280515Z 17006KT 10SM OVC048 08/03 A3031 RMK AO1
KCOE 280515Z AUTO 11005KT 10SM CLR 09/03 A3020 RMK AO1
KCOF 280458Z AUTO 24003KT 10SM FEW110 24/19 A2985 RMK AO2 SLP112 T02350194 402900234 $
KCOM 280455Z AUTO 32006KT 10SM BKN014 14/13 A2993 RMK AO2 T01430128
KCON 280451Z AUTO 34006KT 10SM BKN048 OVC060 08/02 A2965 RMK AO2 RAB11E21 SLP043 P0000 T00830022 401440067
KCOQ 280517Z AUTO 00000KT 10SM CLR 04/M02 A3014 RMK AO2
KCOS 280454Z 35009KT 10SM OVC050 06/M02 A3035 RMK AO2 SLP273 T00611017
KCOT 280453Z AUTO 32006KT 10SM CLR 19/12 A2977 RMK AO2 SLP073 T01940117 $
KCOU 280454Z AUTO 05006KT 10SM CLR 10/03 A3010 RMK AO2 SLP191 T01000033
KCPC 280455Z AUTO 02003KT 10SM CLR 14/02 A2991 RMK AO2 T01350017
KCPK 280455Z AUTO 32006KT 10SM CLR 11/04 A2988 RMK AO2
KCPR 280453Z AUTO 10004KT 10SM OVC026 06/02 A3035 RMK AO2 SLP280 T00610017
KCPS 280453Z AUTO 11003KT 10SM CLR 09/04 A3009 RMK AO2 SLP190 T00940039
KCPT 280455Z AUTO 02015KT 10SM OVC011 14/14 A2991 RMK AO2
KCQB 280455Z AUTO 05009G16KT 7SM RA BKN060 OVC070 11/11 A3004 RMK AO2
KCQC 280453Z AUTO 09013KT 10SM FEW075 02/M01 A3023 RMK AO2 SLP218 T00221006
KCQF 280455Z AUTO 14007KT 10SM RA OVC110 16/16 A2981 RMK AO2 P0007
KCQM 280515Z AUTO 00000KT 10SM CLR 04/M01 A3014 RMK AO2
KCQT 280447Z AUTO 28003KT 10SM CLR 19/08 A2994 RMK AO2 SLP137 T01940078
KCQW 280515Z AUTO 00000KT 10SM CLR 08/04 A2993 RMK AO2
KCQX 280512Z AUTO 36008KT 320V030 10SM SCT024 SCT042 OVC060 06/03 A2958 RMK AO2 T00610033 $
KCRE 280453Z AUTO 02008KT 10SM CLR 14/04 A2990 RMK AO1 SLP125 T01390044 402220100
KCRG 280453Z AUTO 00000KT 10SM OVC026 20/17 A2987 RMK AO2 SLP115 T02000172 402560189
KCRP 280451Z 09006KT 10SM FEW008 FEW015 FEW250 23/22 A2972 RMK AO2 SLP063 T02330217
KCRQ 280453Z AUTO 00000KT 10SM CLR 21/03 A2996 RMK AO2 SLP141 T02110028
KCRS 280453Z AUTO 02008KT 10SM OVC012 16/14 A2986 RMK AO2 SLP108 T01560139 $
KCRW 280454Z 01006G16KT 10SM BKN035 08/01 A3004 RMK AO2 SLP171 T00780011 401560022
KCRX 280455Z AUTO 03007KT 10SM CLR 12/04 A2996 RMK AO2
KCSG 280451Z AUTO 00000KT 10SM CLR 16/05 A2987 RMK AO2 SLP110 T01610050 402330128
KCSM 280453Z 03016KT 9SM -RA OVC035 08/07 A3009 RMK AO2 RAB10 SLP187 P0001 T00830072
KCSQ 280455Z AUTO 00000KT 10SM CLR 09/02 A3017 RMK AO2
KCSV 280453Z AUTO 00000KT 10SM CLR 07/02 A3001 RMK AO2 SLP158 T00720017
KCTB 280456Z AUTO 25008KT 10SM CLR 08/M02 A3018 RMK AO2 SLP218 T00781017
KCTY 280453Z AUTO 00000KT 21/19 A2981 RMK AO1 SLP093 T02060194 402720206
KCTZ 280455Z AUTO 00000KT 10SM CLR 11/06 A2992 RMK AO2 T01120055
KCUB 280453Z AUTO VRB05KT 10SM CLR 16/04 A2993 RMK AO2 SLP133 T01560044 402280111
KCUH 280455Z AUTO 05004KT 7SM RA BKN009 OVC014 09/09 A3007 RMK AO2 P0007
KCUL 280455Z AUTO 35005KT 10SM CLR 08/03 A3007 RMK AO2 T00820025
KCUT 280453Z AUTO 10004KT 3SM -RA BR OVC003 04/03 A3033 RMK AO2 RAB05 SLP267 P0004 T00390028
KCVB 280455Z AUTO 30007KT 10SM CLR 18/13 A2982 RMK AO2 T01760129
KCVC 280455Z AUTO 00000KT 10SM CLR 11/08 A2988 RMK AO2
KCVG 280452Z 04007KT 10SM FEW040 09/02 A3006 RMK AO2 SLP177 T00890022 401720011
KCVH 280510Z AUTO 20005KT 10SM CLR 13/11 A3002 RMK AO1
KCVN 280515Z AUTO 03021G28KT 10SM FEW014 OVC035 04/02 A3020 RMK AO1
KCVO 280515Z 31008KT 10SM CLR 16/13 A2997 RMK AO1
KCVS 280458Z 02016G22KT 10SM BKN055 OVC085 04/02 A3019 RMK AO2A PK WND 02026/14 SLPNO T00400020 $
KCVW 280455Z AUTO 05010KT 10SM OVC008 19/18 A2979 RMK A01
KCVX 280515Z AUTO 36008KT 10SM OVC041 05/01 A3017 RMK AO2 T00490012
KCWA 280455Z AUTO 09004KT 10SM CLR 07/00 A3015 RMK AO2
KCWC 280455Z AUTO 02011KT 10SM SCT060 BKN120 12/09 A3000 RMK AO2 T01160092
KCWF 280455Z AUTO 04008KT 10SM OVC009 17/16 A2978 RMK AO2 T01750163
KCWI 280515Z AUTO 16005KT 10SM CLR 09/02 A3014 RMK AO1
KCWN 280456Z AUTO 32010KT 10SM BKN032 BKN046 04/M02 A3003 RMK AO2 SLPNO T00381019 $
KCWV 280455Z AUTO 00000KT 10SM CLR 15/15 A2988 RMK AO2
KCXE 280455Z AUTO 00000KT 10SM CLR 06/04 A2994 RMK AO1 T00640040
KCXO 280453Z AUTO 09005KT 10SM OVC022 20/17 A2979 RMK AO2 SLP085 T02000172
KCXP 280515Z AUTO 00000KT 10SM CLR 12/M03 A3020 RMK AO2
KCXY 280456Z AUTO 31008KT 10SM OVC040 10/01 A2988 RMK AO2 SLP119 T01000011 401500039
KCYS 280453Z AUTO 35003KT 8SM OVC043 04/02 A3035 RMK AO2 SLP275 T00440022
KCZT 280455Z AUTO 33011G17KT 10SM CLR 20/10 A2981 RMK AO2
KCZZ 280452Z AUTO 05008KT 10/M02 A3001 RMK AO1 SLP140 T01001022
KD07 280456Z AUTO 30005KT 06/03 A3032 RMK AO1 SLP283 T00610028
KD25 280455Z AUTO 00000KT 10SM CLR 01/00 A3015 RMK AO2 T00100001
KD39 280512Z AUTO 00000KT 10SM CLR 08/M01 A3016 RMK AO2 T00791006
KD50 280455Z AUTO 19007KT 10SM CLR 04/04 A3029 RMK AO2
KD55 280515Z AUTO 00000KT M1/4SM FG OVC001 00/00 A3027 RMK AO2
KD57 280515Z AUTO 29004KT 5SM BR OVC038 M01/M02 A3031 RMK AO2
KD60 280455Z AUTO 00000KT 9SM CLR 03/03 A3033 RMK AO2
KD95 280514Z AUTO 00000KT 10SM CLR 01/00 A3011 RMK AO2 T00061002
KDAA 280458Z AUTO 30009KT 10SM CLR 09/02 A2992 RMK AO2 SLP135 T00910020 401520038
KDAB 280453Z 03006KT 9SM FEW022 BKN110 OVC250 21/20 A2986 RMK AO2 RAE07 SLP110 P0000 T02110200 402830211
KDAG 280450Z AUTO 19004KT 10SM CLR 21/M12 A3001 RMK AO2 SLP142 T02111122
KDAL 280453Z 04008G16KT 10SM FEW010 SCT250 14/11 A2990 RMK AO2 SLP120 T01390111
KDAN 280453Z AUTO 02003KT 10SM CLR 07/01 A2994 RMK AO2 SLP133 T00720006 401940033
KDAW 280458Z AUTO 01010G16KT 8SM -RA FEW013 OVC035 07/04 A2964 RMK AO2 P0000 T00670039
KDAY 280456Z 01004KT 10SM CLR 06/02 A3009 RMK AO2 SLP190 T00610022 401500033
KDBN 280455Z AUTO 00000KT 10SM CLR 15/15 A2989 RMK AO2
KDBQ 280453Z AUTO 00000KT 10SM CLR 07/01 A3011 RMK AO2 SLP198 T00720011
KDCA 280452Z 31009G19KT 10SM FEW140 BKN250 11/02 A2991 RMK AO2 SLP129 T01060022 401670083
KDCM 280515Z AUTO 04003KT 10SM CLR 12/03 A2994 RMK AO2
KDCU 280453Z AUTO 03005KT 10SM CLR 12/05 A2994 RMK AO2 SLP136 T01170050
KDCY 280455Z AUTO 00000KT 10SM CLR 07/02 A3006 RMK AO2 T00700020
KDDC 280452Z AUTO 01005KT 10SM CLR 05/01 A3018 RMK AO2 SLP223 T00500006
KDDH 280454Z AUTO 34006KT 10SM BKN043 08/04 A2972 RMK AO2 SLP065 T00830039 401170061
KDEC 280454Z AUTO 00000KT 10SM CLR 08/02 A3011 RMK AO2 SLP196 T00780022 TSNO
KDED 280455Z AUTO 07003KT 20/20 A2987 RMK AO1
KDEH 280455Z AUTO 00000KT 10SM CLR 10/00 A3012 RMK AO2
KDEN 280453Z 00000KT 10SM OVC050 07/04 A3034 RMK AO2 SLP261 T00670044
KDEQ 280453Z AUTO 01004KT 9SM -RA FEW070 OVC085 13/08 A2993 RMK AO2 LTG DSNT NE SLP133 P0000 T01330078
KDET 280453Z 00000KT 10SM CLR 04/01 A3010 RMK AO2 SLP198 T00440006 401110033
KDEW 280453Z AUTO 00000KT 10SM CLR 07/03 A3018 RMK AO2 SLP226 T00720028
KDFI 280453Z AUTO 00000KT 10SM CLR 03/00 A3010 RMK AO2 SLP196 T00330000 401220022
KDFW 280453Z 02011KT 10SM SCT015 BKN220 13/12 A2989 RMK AO2 SLP118 T01280117
KDGW 280453Z AUTO 00000KT 10SM OVC029 07/03 A3036 RMK AO2 SLP285 T00670033
KDHN 280453Z AUTO 01004KT 10SM CLR 17/16 A2988 RMK AO2 SLP114 T01720161
KDHT 280453Z AUTO 02006KT 10SM OVC075 05/03 A3023 RMK AO2 SLP232 T00500028
KDIJ 280456Z AUTO 00000KT 10SM CLR 04/00 A3032 RMK AO2 T00440000 SLP235
KDIK 280456Z AUTO 27006KT 10SM CLR 03/01 A3030 RMK AO2 SLP279 T00280006
KDKB 280455Z AUTO 06005KT 10SM CLR 04/00 A3013 RMK AO2 T00360000
KDKK 280453Z AUTO 23004KT 10SM OVC055 07/03 A3001 RMK AO2 SLP166 T00670028 400720039
KDLF 280458Z AUTO 34017G25KT 10SM CLR 20/09 A2994 RMK AO2 SLP127 T01990086 $
KDLH 280455Z 09004KT 10SM CLR 08/M03 A3014 RMK AO2 SLP214 T00831028
KDLL 280455Z AUTO 07006KT 10SM CLR 08/02 A3012 RMK AO2 T00800016
KDLN 280453Z AUTO 25003KT 10SM CLR 07/00 A3029 RMK AO2 SLP246 T00720000
KDLP 280455Z AUTO 08018G27KT 4SM BR FEW009 BKN031 OVC120 21/21 A2978 RMK A01
KDLS 280453Z AUTO 26003KT 10SM CLR 16/06 A3004 RMK AO2 SLP171 T01610061
KDLZ 280518Z AUTO 33003KT 10SM CLR 02/00 A3008 RMK AO2
KDMA 280458Z AUTO 34006KT 10SM CLR 21/05 A2997 RMK AO2 SLPNO T02060045 $
KDMH 280454Z AUTO 10/03 A2988 RMK AO1 SLP117 T01000028 401500100
KDMN 280453Z AUTO 06014KT 10SM CLR 12/00 A3015 RMK AO2 SLP168 T01170000
KDMO 280453Z AUTO 00000KT 10SM CLR 11/03 A3012 RMK AO2 SLP198 T01110028 TSNO
KDMW 280510Z AUTO 29006KT 10SM BKN065 07/04 A2988 RMK AO2
KDNL 280453Z AUTO 00000KT 10SM CLR 17/11 A2989 RMK AO2 SLP119 T01720106 402330128
KDNN 280455Z AUTO 32007KT 10SM CLR 10/06 A2993 RMK AO2
KDNS 280455Z AUTO 00000KT 10SM CLR 07/02 A3016 RMK AO2
KDNV 280455Z AUTO 02007KT 10SM CLR 03/01 A3007 RMK AO2 T00300011
KDOV 280458Z AUTO 29012KT 10SM BKN055 10/04 A2977 RMK AO2 SLP084 T01040038 401640040 VISNO RWY19 CHINO RWY19 $
KDPA 280452Z 03004KT 10SM CLR 04/00 A3011 RMK AO2 SLP199 T00390000 $
KDPL 280455Z AUTO 00000KT 10SM CLR 12/01 A2992 RMK AO2 T01160013
KDQH 280455Z AUTO 00000KT 10SM CLR 18/17 A2988 RMK AO2
KDRA 280452Z AUTO 06008KT 10SM CLR 18/M08 A3005 RMK AO2 SLP145 T01831078
KDRI 280455Z AUTO 05004KT 10SM BKN025 OVC032 18/14 A2982 RMK AO2 T01800138
KDRM 280515Z AUTO 00000KT 10SM OVC033 05/02 A3013 RMK AO2 T00510016
KDRO 280453Z AUTO 06003KT 10SM FEW085 06/04 A3021 RMK AO2 SLP203 T00560044
KDRT 280453Z AUTO 32021G27KT 10SM CLR 20/06 A2995 RMK AO2 PK WND 32027/0452 SLP126 T02000061
KDSM 280454Z 32004KT 10SM CLR 12/01 A3016 RMK AO2 SLP210 T01220011
KDSV 280454Z AUTO 29003KT 10SM OVC075 07/04 A2995 RMK AO2 SLP154 T00720039 401000056
KDTA 280455Z AUTO 36004KT 10SM CLR 10/02 A3023 RMK AO1 T00990023
KDTL 280515Z AUTO 35009KT 10SM CLR 11/05 A3021 RMK AO2
KDTN 280453Z AUTO 08009G17KT 10SM OVC047 17/08 A2983 RMK AO2 LTG DSNT SW-NW SLP098 T01670078
KDTO 280453Z AUTO 02008KT 10SM FEW014 12/11 A2993 RMK AO2 SLP132 T01170106
KDTS 280514Z AUTO 02004KT 9SM -RA SCT025 OVC039 19/18 A2984 RMK AO2 RAB0457 P0000 T01940178 TSNO $
KDTW 280453Z 00000KT 8SM FEW065 SCT250 06/01 A3010 RMK AO2 SLP197 T00560006 401110039
KDUA 280455Z AUTO 02010KT 10SM SCT049 SCT065 OVC090 11/10 A2997 RMK AO2
KDUB 280455Z AUTO 00000KT 10SM OVC030 03/00 A3035 RMK AO2
KDUC 280455Z AUTO 04013KT 10SM SCT011 SCT048 OVC060 10/10 A3001 RMK AO2
KDUG 280456Z AUTO 08015KT 10SM CLR 17/01 A3007 RMK AO2 SLP130 T01720006
KDUH 280515Z AUTO 00000KT 10SM CLR 02/00 A3010 RMK AO2
KDUJ 280453Z AUTO 32008KT 10SM FEW012 OVC040 05/02 A2995 RMK AO2 SLP150 T00500017 400890028
KDUX 280455Z AUTO 06008KT 10SM CLR 04/03 A3020 RMK AO2 T00430031
KDVK 280455Z AUTO 05005KT 10SM CLR 07/03 A3005 RMK AO2
KDVL 280515Z AUTO 00000KT M1/4SM BKN002 03/02 A3027 RMK AO1
KDVN 280452Z AUTO 00000KT 10SM CLR 08/02 A3012 RMK AO2 SLP200 T00780017
KDVO 280455Z AUTO 36006KT 10SM CLR 12/10 A3000 RMK AO2
KDVP 280513Z AUTO 00000KT 10SM CLR 07/M04 A3020 RMK AO2 T00691040
KDVT 280453Z AUTO 07003KT 10SM CLR 23/06 A2991 RMK AO2 SLP109 T02280061
KDWH 280515Z 06004KT 10SM SCT020 21/18 A2979 RMK AO2
KDWU 280515Z AUTO 03004KT 10SM CLR 08/01 A3004 RMK AO1
KDWX 280455Z AUTO 10006KT 10SM CLR 05/02 A3030 RMK AO2 T00500016
KDXR 280453Z AUTO 33010G16KT 10SM FEW021 OVC037 09/04 A2971 RMK AO2 SLP061 T00890039 401440078 PWINO
KDXX 280513Z AUTO 30010G14KT 10SM CLR 08/M04 A3018 RMK AO2
KDYA 280515Z AUTO 01003KT 7SM 14/10 A2987 RMK AO2 T01380100
KDYB 280515Z AUTO 00000KT 10SM CLR 13/13 A2988 RMK AO1
KDYL 280454Z AUTO 32010KT 10SM OVC100 09/02 A2978 RMK AO2 SLP085 T00890017 401390044
KDYR 280515Z 03006KT 10SM CLR 11/01 A3002 RMK AO1
KDYS 280458Z AUTO 30010KT 7SM +RA FEW003 OVC010 13/11 A2994 RMK AO2 RAB35 SLP117 P0005 T01290113
KDYT 280514Z AUTO 00000KT 10SM CLR 04/01 A3017 RMK AO2
KDZB 280455Z AUTO 34003KT 10SM CLR 18/14 A2987 RMK AO2 T01830140
KDZJ 280455Z AUTO 00000KT 10SM 06/M03 A2995 RMK AO2 T00631033
KE11 280455Z AUTO 36016G26KT 10SM OVC018 07/03 A3013 RMK AO2 T00670025 401820061
KE16 280455Z AUTO 00000KT 10SM CLR 14/10 A3002 RMK AO2
KE38 280455Z AUTO 35017G23KT 10SM CLR 07/00 A3022 RMK AO2 T00671002
KE80 280515Z AUTO 21005KT 10SM BKN050 OVC070 08/05 A3023 RMK AO2 T00760051
KEAR 280515Z 36003KT 10SM CLR 09/01 A3023 RMK AO1
KEAT 280455Z AUTO 11007KT 10SM CLR 18/05 A3011 RMK AO2 SLP193 T01830050
KEAU 280456Z AUTO 00000KT 10SM CLR 08/M02 A3014 RMK AO2 SLP209 T00781017
KEBA 280455Z AUTO 06003KT 10SM CLR 14/12 A2993 RMK AO2 T01420116
KEBG 280455Z AUTO 36004KT 10SM CLR 22/16 A2974 RMK AO2 T02160163
KEBS 280455Z AUTO 02004KT 10SM CLR 08/01 A3015 RMK AO2
KECG 280454Z AUTO 28006KT 10SM CLR 08/04 A2988 RMK AO2 SLP116 T00830044 402060039
KECP 280505Z AUTO 34005KT 10SM BKN011 19/17 A2982 RMK AO2 PRESRR T01890172
KECS 280455Z AUTO 01004KT 10SM OVC035 07/03 A3034 RMK AO2
KECU 280455Z AUTO 33015G23KT 10SM CLR 15/07 A2997 RMK AO2
KEDC 280515Z AUTO 01006KT 10SM CLR 18/15 A2983 RMK AO2
KEDE 280455Z AUTO 00000KT 10SM CLR 09/05 A2989 RMK AO2 T00920050
KEDJ 280510Z AUTO 00000KT 10SM CLR 02/01 A3009 RMK AO1
KEDN 280455Z AUTO 03004KT 10SM CLR 17/15 A2984 RMK AO2
KEDU 280500Z AUTO 00000KT 10SM CLR 20/09 A2991 RMK AO1
KEDW 280458Z 34002KT 50SM CLR 16/M13 A3001 RMK AO2A SLP150 T01551127
KEED 280456Z AUTO 36008KT 10SM CLR 26/M06 A2991 RMK AO2 SLP103 T02611061
KEEN 280515Z AUTO 01009KT 10SM CLR 07/01 A2968 RMK AO1
KEEO 280453Z AUTO 06005KT 10SM CLR 04/02 A3026 RMK AO2 SLP224 T00390017
KEET 280453Z AUTO 00000KT 10SM CLR 16/07 A2991 RMK AO2 SLP122 T01560072
KEFD 280450Z 01007KT 10SM OVC015 21/20 A2980
KEFK 280455Z AUTO 35010KT 10SM OVC027 05/02 A2978 RMK AO2 T00520020 400760025
KEFT 280455Z AUTO 12008KT 10SM CLR 07/02 A3011 RMK AO2
KEGE 280515Z AUTO 00000KT 10SM OVC048 07/05 A3028 RMK AO1
KEGI 280455Z 34005KT 10SM FEW020 SCT045 OVC100 18/17 A2983 RMK AO2A SLP103 T01790166 $
KEGV 280450Z AUTO 00000KT 10SM CLR 00/M02 A3015 RMK AO2 T00001022
KEHA 280508Z AUTO 34007KT 07/01 RMK AO1 PK WND 08 000 T00670012
KEHC 280455Z AUTO 06020KT 7SM OVC029 23/21 A2970 RMK A01
KEHO 280455Z AUTO 00000KT 10SM CLR 10/02 A2994 RMK AO2 T01030016
KEHR 280515Z AUTO 01007KT 10SM CLR 10/03 A3006 RMK AO1
KEHY 280455Z AUTO 07008KT 10SM CLR 02/00 A3029 RMK AO2
KEIK 280515Z AUTO 30004KT 10SM OVC049 07/06 A3035 RMK AO2 T00690058
KEIR 280455Z AUTO 10010G18KT 10SM SCT006 SCT009 OVC070 22/20 A2975 RMK A01
KEKM 280050Z 34003KT 10SM CLR 09/00 A3010
KEKN 280451Z AUTO 35009G24KT 10SM FEW026 OVC034 04/M01 A3001 RMK AO2 PK WND 33026/0407 SLP176 T00441011 401001017 TSNO
KEKO 280456Z AUTO 07003KT 10SM CLR 09/M03 A3022 RMK AO2 SLP217 T00941033
KEKQ 280456Z AUTO 04005KT 10SM CLR 09/04 A3003 RMK AO2 T00880044 401940011 SLP169
KELA 280455Z AUTO 07003KT 10SM CLR 19/19 A2977 RMK AO2 T01930190
KELD 280453Z AUTO 04011KT 10SM SCT120 15/07 A2989 RMK AO2 SLP120 T01500072
KELK 280455Z AUTO 03013G21KT 5SM BR SCT009 OVC014 07/07 A3013 RMK AO2
KELM 280453Z AUTO 28006KT 10SM OVC041 08/04 A2989 RMK AO2 SLP123 T00830044 401000050
KELN 280453Z AUTO 16003KT 10SM CLR 13/05 A3011 RMK AO2 SLP195 T01330050
KELO 280513Z AUTO 00000KT 10SM CLR 03/M02 A3014 RMK AO2
KELP 280451Z 07005KT 10SM FEW150 SCT200 SCT250 11/02 A3016 RMK AO2 SLP176 T01110022
KELY 280453Z AUTO 01007KT 10SM CLR 06/M07 A3025 RMK AO2 SLP212 T00561072
KELZ 280456Z AUTO 30005KT 10SM FEW012 SCT040 OVC065 03/02 A2994 RMK AO2 SLP151 T00330017 400670000
KEMK 280455Z AUTO 6SM BR FEW009 BKN017 OVC042 25/23 A2969 RMK A01
KEMM 280455Z AUTO 00000KT 10SM CLR 05/00 A3032 RMK AO2
KEMP 280453Z AUTO 33003KT 10SM CLR 09/04 A3011 RMK AO2 SLP199 T00940039
KEMT 280245Z 28005KT 10SM CLR 23/01 A2993
KEMV 280455Z AUTO 31005KT 10SM CLR 06/02 A2993 RMK AO2
KEND 280513Z AUTO 12005KT 10SM OVC013 09/08 A3010 RMK AO2 CIG 013V018
KENL 280455Z AUTO 00000KT 10SM CLR 08/03 A3009 RMK AO2 T00760025
KENV 280515Z AUTO 29005KT 10SM CLR 10/M06 A3023 RMK AO1
KENW 280453Z AUTO 35004KT 10SM CLR 02/M01 A3012 RMK AO2 SLP202 T00221006
KEOE 280515Z AUTO 06007KT 10SM CLR 12/04 A2996 RMK AO2
KEOK 280455Z AUTO 00000KT 10SM CLR 09/03 A3011 RMK AO2
KEPH 280453Z AUTO 04003KT 10SM CLR 13/04 A3012 RMK AO2 SLP199 T01330044
KEQA 280455Z AUTO 05006KT 10SM CLR 10/04 A3011 RMK AO2
KEQY 280453Z AUTO 00000KT 10SM BKN080 09/03 A2993 RMK AO2 SLP143 T00940033 402170061
KERI 280451Z 33005KT 10SM BKN050 OVC060 06/02 A3003 RMK AO2 SLP175 T00610022 400670033 $
KERV 280455Z AUTO 34011KT 10SM CLR 18/12 A2990 RMK AO2 T01760124
KERY 280514Z AUTO 33003KT 10SM SCT038 03/00 A3015 RMK AO2 T00260004
KESC 280515Z AUTO 00000KT 10SM OVC036 04/M01 A3017 RMK AO1
KESF 280453Z AUTO 08006KT 10SM BKN039 OVC048 18/12 A2981 RMK AO2 SLP095 T01780122
KESN 280531Z AUTO 34012G19KT 10SM SCT050 11/05 A2989 RMK AO2 T01060050
KEST 280452Z AUTO 30005KT 10SM CLR 06/M03 A3017 RMK AO2 SLP221 T00561033
KETB 280450Z AUTO 00000KT 10SM CLR 02/00 A3014 RMK AO2
KETC 280455Z AUTO 00000KT 10SM CLR 07/05 A2993 RMK AO2 T00680052 402920034
KETH 280516Z AUTO 33012G18KT 10SM CLR 10/04 A3023 RMK AO2
KEUF 280458Z AUTO VRB03KT 10SM CLR 17/08 A2986 RMK AO2 SLP108 T01720078 $
KEUG 280454Z 23007KT 10SM SCT250 16/14 A2997 RMK AO2 SLP147 T01610139
KEUL 280515Z AUTO 00000KT 10SM CLR 11/M01 A3019 RMK AO1
KEVB 280147Z 00000KT 10SM SCT013 22/20 A2986 RMK LAST
KEVM 280511Z AUTO 00000KT 10SM CLR 02/M01 A3015 RMK AO2
KEVV 280454Z AUTO 02006KT 10SM CLR 10/04 A3007 RMK AO2 SLP182 T01000039 $
KEVW 280453Z AUTO 10006KT 10SM CLR 06/M01 A3030 RMK AO2 SLP233 T00561011
KEWB 280453Z 35006KT 10SM -RA SCT037 BKN045 OVC085 07/05 A2961 RMK AO2 SLP027 P0001 T00670050 401500067 $
KEWK 280515Z AUTO 03006KT 10SM CLR 10/02 A3014 RMK AO1
KEWN 280454Z AUTO 00000KT 10SM CLR 12/04 A2991 RMK AO2 SLP127 T01170044 402220078
KEWR 280451Z 32011KT 10SM FEW055 SCT100 11/03 A2973 RMK AO2 SLP068 T01110028 401780078
KEXX 280455Z AUTO 00000KT 10SM CLR 07/03 A2993 RMK AO2 T00650025
KEYE 280453Z AUTO 04005KT 10SM CLR 08/02 A3008 RMK AO2 SLP186 T00780022 401330028
KEYF 280455Z AUTO 00000KT 10SM CLR 12/03 A2991 RMK AO2 T01170032
KEYW 280453Z AUTO 14010KT 10SM FEW060 28/24 A2985 RMK AO2 SLP106 T02830244 403060272
KEZF 280455Z AUTO 30010G15KT 10SM CLR 10/02 A2993 RMK AO2 T01000016
KEZM 280455Z AUTO 00000KT 10SM CLR 15/15 A2989 RMK AO2 T01540154
KEZS 280455Z AUTO 00000KT 10SM CLR 06/02 A3016 RMK AO2 T00580024
KF05 280455Z AUTO 02011KT 10SM BKN014 OVC022 10/07 A3004 RMK AO1 T01020074
KF17 280455Z AUTO 07008G15KT 10SM OVC041 17/11 A2982 RMK AO2 T01740113
KF44 280455Z AUTO 01006KT 10SM OVC008 15/15 A2985 RMK AO2 P0004
KF46 280455Z AUTO 03014G25KT 10SM CLR 13/11 A2988 RMK AO2 T01270107
KF70 280455Z AUTO 03003KT 10SM CLR 17/01 A3000 RMK AO1
KFAF 280458Z AUTO 34009KT 10SM CLR 11/03 A2988 RMK AO2 SLP121 T01120030 401830060 $
KFAM 280515Z AUTO 06005KT 10SM CLR 09/04 A3011 RMK AO1
KFAR 280453Z 36014KT 10SM FEW060 OVC090 11/05 A3023 RMK AO2 SLP240 T01110050
KFAT 280453Z 33004KT 10SM CLR 22/11 A2995 RMK AO2 SLP140 T02220106
KFAY 280453Z AUTO 35003KT 10SM CLR 12/01 A2991 RMK AO2 SLP124 T01170011 402220078
KFBG 280458Z AUTO 34003KT 10SM SCT085 10/02 A2991 RMK AO2 SLP131 T01030015 402190069 $
KFBL 280514Z AUTO 00000KT 10SM CLR 06/02 A3015 RMK AO2
KFBR 280455Z AUTO 18009KT 10SM CLR 04/01 A3033 RMK AO2 T00390008
KFCI 280455Z AUTO 34005KT 10SM CLR 09/M02 A2994 RMK AO1 40190 0040
KFCM 280453Z AUTO 00000KT 10SM CLR 11/01 A3013 RMK AO2 SLP206 T01110006
KFCS 280458Z AUTO 34006KT 10SM BKN049 OVC055 06/01 A3033 RMK AO2 SLPNO T00620005
KFDK 280510Z AUTO 29004KT 10SM OVC065 08/01 A2994 RMK AO2
KFDR 280453Z AUTO 03016G23KT 8SM FEW023 OVC030 10/08 A3000 RMK AO2 RAE52 SLP153 P0000 T01000078
KFDW 280515Z AUTO 04006KT 10SM CLR 12/04 A2993 RMK AO1
KFDY 280453Z AUTO 00000KT 10SM CLR 05/01 A3008 RMK AO2 SLP185 T00500006 401110017
KFEP 280455Z AUTO 12004KT 10SM CLR 04/01 A3013 RMK AO2 T00400011
KFET 280455Z AUTO 00000KT 10SM CLR 10/03 A3019 RMK AO2 T00970031
KFEW 280456Z AUTO 01003KT 10SM FEW020 OVC043 04/03 A3031 RMK AO2 SLPNO T00410030 $
KFFA 280455Z AUTO 30003KT 10SM CLR 12/06 A2986 RMK AO2 T01200061
KFFC 280453Z AUTO 00000KT 10SM CLR 11/09 A2989 RMK AO2 SLP121 T01060089 402170100
KFFL 280455Z AUTO 00000KT 10SM CLR 09/02 A3013 RMK AO2
KFFM 280514Z AUTO 35012G20KT 10SM BKN100 11/03 A3020 RMK AO2
KFFO 280458Z AUTO 33001KT 10SM CLR 06/02 A3008 RMK AO2 SLP191 T00580020 401430002
KFFT 280453Z AUTO 05007KT 10SM CLR 09/03 A3004 RMK AO2 SLP172 T00890028 401780011
KFFX 280510Z AUTO 03003KT 10SM CLR 06/M01 A3010 RMK AO2 T00581010
KFFZ 280248Z 27006KT 40SM FEW090 25/03 A2986 RMK WIND ESTIMATED
KFGN 280514Z AUTO 33012KT 10SM -DZ SCT046 SCT050 OVC080 07/05 A3021 RMK AO2
KFGX 280455Z AUTO 04006KT 10SM CLR 07/03 A3007 RMK AO2 T00650025
KFHB 280455Z AUTO 11004KT 10SM SCT075 BKN120 22/16 A2985 RMK AO1
KFHR 280453Z AUTO 00000KT 10SM CLR 13/10 A2993 RMK AO2 SLP134 T01330100
KFHU 280458Z AUTO 21002KT 10SM CLR 14/M01 A3008 RMK AO2 SLPNO T01431008
KFIG 280454Z AUTO 30006KT 10SM FEW036 BKN050 OVC065 06/02 A2995 RMK AO2 SLP147 T00560017 401000039
KFIN 280455Z AUTO 10003KT 10SM SCT014 SCT020 20/19 A2986 RMK AO2 T02000193
KFIT 280452Z AUTO 33007KT 10SM SCT047 08/02 A2966 RMK AO2 SLP044 T00830017 401500078
KFKA 280514Z AUTO 33004KT 10SM CLR 10/M01 A3014 RMK AO2 T01001015
KFKL 280515Z AUTO 32004KT 10SM FEW034 OVC055 04/01 A3002 RMK AO1
KFKN 280455Z AUTO 33003KT 10SM CLR 08/02 A2990 RMK AO2 T00790021 401920025
KFKR 280455Z AUTO 34003KT 10SM CLR 05/02 A3011 RMK AO2 T00490021
KFKS 280456Z AUTO 03004KT 10SM CLR 06/00 A3013 RMK AO2 T00601002
KFLD 280453Z AUTO 07003KT 10SM CLR 06/M01 A3014 RMK AO2 SLP212 T00561011
KFLG 280457Z AUTO 00000KT 10SM CLR 04/01 A3020 RMK AO2 SLP181 T00390011 TSNO
KFLL 280453Z COR 09007KT 10SM FEW040 SCT100 BKN250 26/23 A2985 RMK AO2 SLP107 T02560228 403440228 $
KFLO 280453Z AUTO 04007KT 10SM CLR 13/03 A2992 RMK AO2 SLP130 T01280033 402280089
KFLP 280515Z AUTO 05003KT 10SM CLR 11/03 A3002 RMK AO1
KFLY 280515Z AUTO 35005KT 10SM OVC038 04/00 A3036 RMK AO2 T00371001
KFME 280512Z AUTO 28005KT 10SM BKN060 08/02 A2991 RMK AO1
KFMH 280515Z AUTO 33005KT 10SM SCT023 BKN039 OVC055 06/05 A2960 RMK AO2
KFMM 280515Z AUTO 33009KT 10SM OVC070 08/05 A3033 RMK AO2 T00820050
KFMN 280453Z AUTO 10009KT 10SM SCT075 BKN110 10/05 A3015 RMK AO2 SLP185 T01000050
KFMY 280453Z AUTO 09005KT 10SM CLR 25/21 A2984 RMK AO2 SLP107 T02500206 403390250
KFNB 280453Z AUTO 34004KT 10SM CLR 11/02 A3015 RMK AO2 SLP208 T01110017
KFNL 280515Z AUTO 00000KT 10SM FEW060 07/04 A3036 RMK AO1
KFNT 280453Z AUTO 07005KT 10SM OVC050 07/00 A3012 RMK AO2 SLP204 T00720000 401330033
KFOA 280455Z AUTO 00000KT 10SM CLR 08/03 A3010 RMK AO2 T00770027
KFOD 280515Z AUTO 00000KT 10SM CLR 05/01 A3017 RMK AO1
KFOE 280453Z AUTO 35003KT 10SM CLR 08/03 A3012 RMK AO2 SLP200 T00830033
KFOK 280453Z 31008KT 10SM CLR 09/02 A2967 RMK AO2 SLP047 T00890022 401670056
KFOT 280455Z AUTO 30005KT M1/4SM OVC002 10/10 A3011 RMK AO1
KFOZ 280513Z AUTO 00000KT 10SM CLR 06/M01 A3015 RMK AO2
KFPK 280515Z AUTO 00000KT 10SM SCT050 01/00 A3008 RMK AO2 T00091003
KFPR 280453Z AUTO 30003KT 9SM SCT019 BKN028 22/21 A2988 RMK AO2 SLP116 T02220211 403440222 TSNO
KFQD 280455Z AUTO 00000KT 10SM CLR 07/04 A2994 RMK AO2 T00720035
KFRG 280453Z AUTO 34012KT 10SM SCT060 11/04 A2970 RMK AO2 SLP057 T01060039 401670089
KFRI 280458Z AUTO 00000KT 10SM CLR 08/07 A3015 RMK AO2 SLP209 T00820069
KFRM 280515Z AUTO 29004KT 10SM CLR 07/M01 A3017 RMK AO1
KFRR 280455Z AUTO 30008G16KT 10SM CLR 07/00 A2995 RMK AO1
KFSD 280456Z 00000KT 10SM SCT250 08/01 A3019 RMK AO2 SLP226 T00780011
KFSE 280515Z AUTO 34009KT 10SM SCT070 BKN080 08/04 A3022 RMK AO2
KFSI 280458Z AUTO 03013KT 10SM OVC044 10/08 A3001 RMK AO2 SLPNO T01010080
KFSM 280453Z AUTO 01006KT 10SM OVC095 15/08 A2999 RMK AO2 RAE0356 SLP153 P0000 T01500083
KFSO 280455Z AUTO 02005KT 10SM CLR 07/03 A2982 RMK AO2 T00700032 401000045
KFST 280453Z AUTO 33021G27KT 10SM FEW100 08/01 A3016 RMK AO2 PK WND 34033/0415 SLP187 T00830011
KFSW 280455Z AUTO 00000KT 10SM CLR 09/03 A3012 RMK AO2
KFTG 280516Z AUTO 00000KT 10SM OVC050 07/05 A3036 RMK AO2
KFTK 280458Z AUTO 01004KT 10SM CLR 09/03 A3002 RMK AO2 SLP168 T00890031 401800021
KFTN 280455Z AUTO 32012G21KT 10SM CLR 21/09 A2984 RMK A01
KFTW 280453Z 01010KT 10SM OVC013 13/12 A2991 RMK AO2 SLP122 T01330117
KFTY 280453Z 00000KT 10SM CLR 11/07 A2988 RMK AO2 SLP116 T01110067 402110100
KFUL 280453Z 12003KT 10SM CLR 21/01 A2995 RMK AO2 SLP140 T02110011
KFVE 280503Z AUTO 05006KT 10SM OVC029 03/M01 A2979 RMK AO2 T00331006
KFVX 280455Z AUTO 00000KT 10SM CLR 09/01 A2994 RMK AO2 T00900010 401850027
KFWA 280454Z 00000KT 10SM CLR 03/01 A3010 RMK AO2 SLP198 T00330006 401280017
KFWB 280455Z AUTO 05006KT 10SM CLR 13/00 A3006 RMK AO2
KFWC 280455Z AUTO 36003KT 10SM CLR 08/04 A3008 RMK AO1 T00840035
KFWN 280453Z AUTO VRB06KT 10SM OVC065 09/03 A2977 RMK AO2 SLP080 T00940028 401440072
KFWS 280455Z AUTO 03009KT 7SM SCT015 14/12 A2992 RMK AO2 T01350115
KFWZ 280455Z AUTO 33011KT 10SM SCT010 OVC018 01/00 A3029 RMK AO2
KFXE 280453Z 08005KT 10SM FEW070 25/22 A2985 RMK AO2 SLP112 T02500222 403560244
KFXY 280455Z AUTO 00000KT 10SM CLR 05/01 A3016 RMK AO2
KFYG 280455Z AUTO 00000KT 10SM CLR 09/04 A3009 RMK AO2
KFYJ 280455Z AUTO 31004KT 10SM CLR 11/02 A2992 RMK AO2 T01090015
KFYM 280515Z AUTO 03006KT 10SM CLR 09/03 A2996 RMK
KFYV 280453Z AUTO 00000KT 10SM OVC085 11/10 A3002 RMK AO2 RAE06 SLP163 P0000 T01060100
KFZG 280455Z AUTO 00000KT 10SM CLR 18/16 A2989 RMK AO2 T01780164 PWINO
KFZY 280454Z AUTO 34008KT 10SM BKN039 BKN048 OVC060 09/03 A2989 RMK AO2 SLP124 T00940033 401000044
KGAD 280515Z 36005KT 10SM CLR 12/04 A2990 RMK AO1
KGAF 280515Z AUTO 31003KT 3/4SM BR VV005 06/06 A3027 RMK AO2
KGAG 280453Z AUTO 07004KT 9SM -RA OVC049 07/06 A3014 RMK AO2 SLP206 P0003 T00720061
KGAI 280515Z AUTO 30011G17KT 10SM OVC060 07/01 A2994 RMK AO1
KGAO 280455Z AUTO 4SM RA BKN007 BKN020 OVC070 21/20 A2975 RMK AO2 LTG DSNT E THRU W P0022 T02070200
KGBD 280515Z AUTO 36005KT 10SM CLR 07/01 A3017 RMK AO1
KGBG 280455Z AUTO 12004KT 10SM CLR 09/03 A3011 RMK AO2 T00940027
KGCC 280453Z AUTO 00000KT 10SM CLR 04/01 A3032 RMK AO2 SLP283 T00390011
KGCD 280455Z AUTO 12008KT 10SM CLR 16/00 A3016 RMK AO2 T01581004
KGCK 280454Z AUTO 02008KT 10SM CLR 03/M01 A3019 RMK AO2 SLP229 T00281011
KGCM 280430Z AUTO 00000KT 7SM RA CLR 10/08 A3008 RMK AO2 P0003
KGCN 280454Z AUTO 00000KT 10SM CLR 03/00 A3020 RMK AO2 SLP188 T00330000
KGDB 280513Z AUTO 00000KT 7SM CLR 07/M05 A3018 RMK AO2 T00741050
KGDJ 280455Z AUTO 01008KT 10SM 15/12 A2994 RMK AO2 T01450118
KGDP 280451Z AUTO 04028G34KT 10SM OVC110 06/M01 A3017 RMK AO2 PK WND 04038/0403 SLP189 T00561006
KGDV 280515Z AUTO 25006KT 10SM CLR 03/01 A3034 RMK AO1
KGED 280454Z AUTO VRB06KT 10SM FEW060 09/03 A2983 RMK AO2 SLP099 T00940028 401610028
KGEG 280453Z 00000KT 10SM FEW150 BKN200 14/01 A3017 RMK AO2 SLP214 T01440006
KGEU 280247Z 15004KT 20SM FEW090 26/04 A2987 RMK LAST
KGEV 280455Z AUTO 33004KT 10SM CLR 06/M03 A2993 RMK AO2 T00611030
KGEY 280453Z AUTO 10006KT 10SM CLR 07/01 A3030 RMK AO2 SLP270 T00720006
KGEZ 280453Z AUTO 06006KT 10SM SCT043 09/03 A3007 RMK AO2 SLP184 T00890028 401610022
KGFA 280456Z AUTO 18010KT 10SM CLR 07/01 A3021 RMK AO2 SLPNO T00730011 TSNO $
KGFK 280453Z AUTO 35006KT 10SM -RA BKN070 OVC090 08/07 A3026 RMK AO2 SLP250 P0001 T00780067 TSNO
KGFL 280453Z AUTO 36012G22KT 10SM FEW037 BKN046 10/03 A2975 RMK AO2 PK WND 03026/0422 SLP077 T01000033 401330067
KGGE 280515Z AUTO 02009KT 10SM CLR 13/11 A2991 RMK AO2
KGGG 280453Z AUTO 09010KT 10SM -RA SCT048 BKN095 16/12 A2982 RMK AO2 LTG DSNT ALQDS RAB07 SLP095 P0009 T01560122
KGGI 280455Z AUTO 36003KT 10SM CLR 10/02 A3015 RMK AO2 T00960024
KGGP 280455Z AUTO 02004KT 10SM CLR 06/01 A3010 RMK AO2
KGGW 280453Z AUTO 12009KT 10SM CLR 06/01 A3028 RMK AO2 SLP267 T00610006 TSNO
KGHB 280455Z AUTO 08009G15KT 4SM BR BKN011 BKN022 OVC035 25/24 A2971 RMK A01
KGHG 280455Z AUTO 36008G18KT 020V360 5SM -RA FEW020 OVC030 07/06 A2963 RMK AO2 P0002
KGHW 280513Z AUTO 24004KT 10SM CLR 11/M02 A3016 RMK AO2
KGIC 280455Z AUTO 13008KT 10SM CLR 10/00 A3023 RMK AO1 T00990000
KGIF 280453Z AUTO 12003KT 10SM FEW120 22/18 A2986 RMK AO2 SLP109 T02220183 403170222
KGJT 280453Z AUTO VRB05KT 10SM BKN075 OVC090 13/03 A3016 RMK AO2 SLP178 T01330028
KGKJ 280453Z AUTO 31005KT 9SM OVC055 05/02 A3001 RMK AO2 SLP170 T00500022 400610028 TSNO
KGKT 280515Z AUTO 00000KT 10SM CLR 06/04 A2997 RMK
KGKY 280453Z AUTO 01010KT 10SM CLR 14/10 A2989 RMK AO2 SLP117 T01440100
KGLD 280453Z AUTO 28004KT 10SM CLR 05/02 A3025 RMK AO2 SLP243 T00500017
KGLE 280455Z AUTO 03010G17KT 10SM OVC050 10/09 A2997 RMK AO2 T01040088
KGLH 280453Z AUTO 05006KT 10SM CLR 14/08 A2991 RMK AO2 SLP135 T01390083
KGLR 280453Z AUTO 03003KT 10SM OVC036 06/01 A3011 RMK AO2 SLP204 T00610006 401000028
KGLS 280503Z AUTO 02009KT 10SM OVC008 22/21 A2978 RMK AO2 T02170206
KGLW 280450Z AUTO 04004KT 10SM CLR 10/04 A3001 RMK AO2 T01030037
KGLY 280515Z AUTO 03004KT 10SM CLR 09/04 A3011 RMK AO2
KGMJ 280455Z AUTO 04003KT 10SM SCT100 OVC120 15/03 A3005 RMK AO2
KGMU 280453Z AUTO 06009KT 10SM CLR 14/01 A2993 RMK AO2 SLP129 T01390011 402220117
KGNA 280456Z AUTO 00000KT 02/M02 A3016 RMK AO1 SLP223 T00171022
KGNC 280455Z AUTO 36016G23KT 10SM OVC016 07/03 A3014 RMK AO2 T00650028
KGNR 280456Z AUTO 01014KT 03/M01 A2967 RMK AO1 PK WND 01029/0407 SLP057 T00281006 400780006
KGNT 280455Z AUTO 16004KT 10SM BKN065 OVC100 07/05 A3024 RMK AO2 T00720051
KGNV 280453Z AUTO 08005KT 7SM OVC005 19/19 A2983 RMK AO2 SLP100 T01940189 402610194
KGOK 280453Z AUTO 06008KT 10SM OVC060 10/08 A3007 RMK AO2 RAE43 SLP184 P0002 T01000083
KGON 280456Z AUTO 35015G21KT 10SM CLR 10/02 A2963 RMK AO2 SLP032 T01000022 401610089
KGOO 280500Z AUTO 00000KT 10SM CLR 18/07 A3006 RMK AO1
KGOP 280455Z AUTO 01006KT 10SM OVC010 17/15 A2990 RMK AO2
KGOV 280515Z AUTO 00000KT 10SM OVC039 07/00 A3012 RMK AO2 T00670004
KGPH 280515Z AUTO 00000KT 10SM CLR 07/05 A3013 RMK AO2
KGPI 280455Z 00000KT 10SM CLR 04/01 A3021 RMK AO2 SLP241 T00440006
KGPM 280455Z AUTO 01010G15KT 10SM CLR 14/11 A2991 RMK AO2 T01360114
KGPT 280453Z 07010KT 8SM -RA BKN007 BKN110 17/16 A2977 RMK AO2 LTG DSNT SE AND S PRESFR SLP079 P0006 T01720161
KGPZ 280515Z AUTO 15003KT 10SM CLR 08/M03 A3013 RMK AO1
KGRB 280453Z 36003KT 10SM CLR 04/01 A3016 RMK AO2 SLP217 T00390011
KGRD 280456Z AUTO 06006KT 10SM CLR 14/05 A2994 RMK AO2 SLP133 T01390050 402170111
KGRF 280458Z AUTO 15003KT 10SM CLR 16/13 A2992 RMK AO2 SLPNO T01580131 $
KGRI 280453Z AUTO 32004KT 10SM CLR 07/01 A3021 RMK AO2 SLP237 T00670011
KGRK 280458Z AUTO 36016G22KT 10SM BKN009 16/16 A2986 RMK AO2 RAE0358 SLP105 P0000 T01630155
KGRR 280453Z AUTO 25005KT 10SM CLR 06/01 A3009 RMK AO2 SLP194 T00560006 401390039
KGRY 280455Z AUTO 16015KT 4SM HZ OVC065 26/23 A2971 RMK A01
KGSB 280458Z AUTO 00000KT 10SM CLR 13/01 A2990 RMK AO2 SLP128 T01260013 402170064 $
KGSH 280453Z AUTO 00000KT 10SM CLR 03/01 A3010 RMK AO2 SLP196 T00330006 401170017
KGSO 280454Z 01005KT 10SM CLR 08/01 A2992 RMK AO2 SLP127 T00830006 402000050
KGSP 280453Z 03003KT 10SM CLR 12/03 A2992 RMK AO2 SLP124 T01220028 402220094
KGTB 280458Z AUTO 27004KT 10SM OVC070 07/07 A2985 RMK AO2 DZE00RAB00E03DZB03E07RAB07E30 SLP112 P0001 T00650065 400980031
KGTF 280453Z 19010KT 10SM CLR 08/00 A3021 RMK AO2 SLP238 T00780000
KGTR 280515Z AUTO 01003KT 10SM CLR 13/07 A2992 RMK AO1
KGTU 280515Z 29012KT 10SM FEW080 BKN100 18/13 A2988 RMK AO1
KGUC 280515Z 03006KT 10SM CLR 04/M04 A3030 RMK AO1
KGUL 280455Z AUTO 4SM BR BKN010 BKN018 26/25 A2967 RMK A01
KGUP 280453Z AUTO 03003KT 10SM CLR 08/03 A3018 RMK AO2 SLP153 T00830028
KGUR 280455Z AUTO 10SM 11/08 A3036 RMK AO2 T01080075 PWINO
KGUS 280458Z AUTO 36005KT 10SM CLR 05/02 A3009 RMK AO2 SLP195 T00470017 401270025
KGUY 280453Z AUTO 29006KT 10SM OVC120 07/05 A3019 RMK AO2 SLP220 T00670050
KGVE 280455Z AUTO 31003KT 10SM CLR 08/01 A2995 RMK AO1 T00790010 401540026
KGVL 280453Z AUTO 03007KT 10SM CLR 13/03 A2991 RMK AO2 SLP121 T01280033 402170122
KGVT 280455Z AUTO 03011G19KT 10SM OVC120 12/10 A2989 RMK AO2 P0001
KGWB 280455Z AUTO 00000KT 10SM CLR 02/00 A3010 RMK AO2
KGWO 280453Z AUTO 00000KT 10SM CLR 13/08 A2993 RMK AO2 SLP136 T01330078
KGWR 280515Z AUTO 35010KT 09/08 A3026 RMK A01 P000
KGWW 280455Z AUTO 00000KT 10SM CLR 08/04 A2993 RMK AO2 T00810040
KGXA 280455Z AUTO 16006KT 10SM CLR 15/M09 A3005 RMK AO2 SLP162 T01471094 PWINO TSNO $
KGXF 280458Z 26002KT 10SM CLR 22/M01 A2988 RMK AO2A SLP110 T02241010
KGXY 280515Z 00000KT 10SM OVC060 07/03 A3035 RMK AO1
KGYB 280455Z AUTO 02005KT 10SM SCT017 SCT022 BKN045 21/19 A2985 RMK AO2 T02140186
KGYH 280515Z AUTO 07007KT 10SM CLR 11/00 A2993 RMK AO2
KGYI 280455Z AUTO 03011G17KT 10SM SCT090 12/11 A2995 RMK AO2 T01150109
KGYL 280515Z AUTO 00000KT 10SM CLR 09/M01 A3015 RMK AO2 T00851014
KGYR 280347Z 00000KT 10SM FEW100 27/02 A2988 RMK LAST
KGYY 280455Z AUTO 00000KT 10SM CLR 04/01 A3011 RMK AO2 T00370012
KGZH 280453Z AUTO 01003KT 10SM CLR 16/13 A2986 RMK AO2 SLP110 T01610133
KGZL 280455Z AUTO 35006KT 10SM OVC070 12/09 A3002 RMK AO2
KHAE 280455Z AUTO 00000KT 10SM CLR 09/01 A3011 RMK AO2
KHAF 280515Z AUTO 33009KT 1 3/4SM BR OVC003 10/10 A3007 RMK AO2
KHAI 280514Z AUTO 00000KT 10SM CLR 03/00 A3010 RMK AO2 T00250004
KHAO 280453Z AUTO 00000KT 10SM CLR 05/03 A3009 RMK AO2 SLP190 T00500028 401720011
KHBG 280512Z AUTO 33011KT 10SM BKN031 16/13 A2982 RMK AO2 WSHFT 0452 PRESRR T01560133
KHBI 280455Z AUTO 00000KT 10SM CLR 07/02 A2996 RMK AO2 T00720020
KHBR 280453Z AUTO 04018G25KT 10SM -RA OVC033 09/07 A3006 RMK AO2 PK WND 04026/0404 RAB43 SLP176 P0000 T00890072
KHBV 280455Z AUTO 28006KT 10SM 19/13 A2978 RMK AO2 T01890127
KHCD 280512Z AUTO 00000KT 10SM CLR 08/00 A3016 RMK AO2 T00761002
KHCO 280514Z AUTO 33003KT 1 3/4SM BR VV007 05/04 A3026 RMK AO2
KHDC 280455Z AUTO 04005KT OVC007 16/15 A2979 RMK AO2 LTG DSNT SE PWINO
KHDE 280455Z AUTO 00000KT 10SM CLR 07/00 A3022 RMK AO2 T00710001
KHDN 280515Z AUTO 05005KT 10SM FEW080 06/03 A3027 RMK AO1
KHDO 280451Z AUTO 35012KT 10SM CLR 19/10 A2985 RMK AO2 SLP094 T01890100
KHEF 280515Z 31012G19KT 10SM CLR 08/02 A2993 RMK AO1
KHEI 280453Z AUTO 32003KT 10SM CLR 04/02 A3032 RMK AO2 SLP286 T00390017
KHEQ 280515Z AUTO 35009KT 10SM BKN075 11/06 A3028 RMK AO2
KHEY 280453Z AUTO 03006KT 10SM CLR 18/16 A2984 RMK AO2 SLP992 T01780156 402110167
KHEZ 280515Z AUTO 05009KT 10SM OVC030 16/11 A2984 RMK AO1
KHFD 280453Z AUTO 34007KT 10SM BKN060 10/03 A2967 RMK AO2 SLP048 T01000033 401610089
KHFF 280456Z AUTO 00000KT 10SM CLR 07/05 A2996 RMK AO2 SLP147 T00720051 402080063 TSNO $
KHFJ 280455Z AUTO 03005KT 10SM CLR 10/03 A3005 RMK AO2
KHGR 280453Z AUTO 29007KT 10SM BKN060 07/02 A2992 RMK AO2 SLP143 T00720017 401390061
KHHF 280455Z AUTO 01004KT 10SM -RA BKN037 BKN049 08/07 A3016 RMK AO2 T00750065
KHHG 280455Z AUTO 00000KT 10SM CLR 04/01 A3010 RMK AO2 T00410010 401200026
KHHR 280453Z 29005KT 10SM CLR 21/08 A2995 RMK AO2 SLP141 T02060078
KHHV 280455Z AUTO 01007KT 4SM BR CLR 26/26 A2968 RMK A01
KHHW 280455Z AUTO 04007KT 10SM RA OVC090 13/10 A2997 RMK AO2 T01250101
KHIB 280453Z AUTO 00000KT 10SM CLR 04/M03 A3014 RMK AO2 SLP213 T00391028
KHIE 280452Z AUTO 36008G17KT 10SM BKN041 07/02 A2969 RMK AO2 SLP059 T00670017 400890033 TSNO
KHIF 280458Z AUTO 13005KT 10SM CLR 10/03 A3023 RMK AO2 SLPNO T00950033
KHII 280455Z AUTO 32007KT 10SM CLR 27/M03 A2990 RMK AO2
KHIO 280453Z AUTO 11004KT 10SM CLR 19/09 A2992 RMK AO2 SLP128 T01940094
KHJH 280455Z AUTO 00000KT 10SM CLR 08/01 A3018 RMK AO2 T00770007
KHJO 280453Z AUTO 32004KT 10SM CLR 23/10 A2995 RMK AO2 SLP142 T02280100
KHKA 280453Z AUTO 05007KT 10SM CLR 10/07 A3001 RMK AO2 SLP163 T01000067
KHKS 280453Z AUTO 05004KT 10SM CLR 16/09 A2988 RMK AO2 SLP111 T01560094
KHKY 280453Z AUTO 00000KT 10SM CLR 09/01 A2993 RMK AO2 SLP122 T00890006 402000061
KHLC 280453Z AUTO 35006KT 10SM CLR 07/02 A3021 RMK AO2 SLP229 T00670022
KHLG 280453Z AUTO 28004KT 10SM SCT020 OVC055 05/01 A3004 RMK AO2 SLP179 T00500011 400890017
KHLN 280453Z AUTO 28005KT 10SM CLR 08/M01 A3025 RMK AO2 SLP266 T00781006
KHLR 280458Z AUTO 35012KT 10SM OVC008 16/15 A2987 RMK AO2 RAE03 OVC V BKN PRESRR SLP107 P0000 T01630154
KHLX 280455Z AUTO 33006KT 10SM CLR 07/00 A2995 RMK AO2 T00661005 401170038
KHMN 280458Z AUTO 36014KT 10SM FEW180 12/01 A3015 RMK AO2 SLPNO T01150009 $
KHNB 280515Z AUTO 36003KT 10SM CLR 08/01 A3007 RMK AO1
KHND 280456Z 19003KT 10SM CLR 18/02 A3004 RMK AO2 SLP160 T01830022
KHNR 280455Z AUTO 00000KT 10SM CLR 07/06 A3021 RMK AO2
KHNZ 280500Z AUTO 29004KT 10SM CLR 09/M01 A2993 RMK AO2 T00901007
KHOB 280515Z AUTO 35015KT 10SM OVC019 06/03 A3017 RMK AO2
KHOE 280455Z AUTO 00000KT 10SM CLR 18/17 A2987 RMK AO2
KHON 280455Z AUTO 33011KT 10SM CLR 11/06 A3023 RMK AO2 SLP238 T01060056
KHOP 280458Z AUTO 02009KT 9SM CLR 10/06 A3000 RMK AO2 SLP160 T01040059
KHOT 280453Z AUTO 06011KT 10SM OVC110 14/05 A2993 RMK AO2 SLP132 T01440050
KHOU 280453Z 04006KT 10SM OVC013 22/19 A2977 RMK AO2 SLP087 T02170189
KHPN 280456Z 33013KT 10SM -DZ BKN042 09/04 A2970 RMK AO2 SLP057 P0000 T00890039 401500078
KHQI 280455Z AUTO 07013KT 3SM BR FEW035 SCT042 BKN055 25/24 A2970 RMK A01
KHQM 280453Z AUTO 27006KT 7SM CLR 15/13 A2990 RMK AO2 SLP129 T01500128
KHQU 280455Z AUTO 00000KT 7SM CLR 14/14 A2994 RMK AO1 T01380138
KHQZ 280455Z AUTO 01009G16KT 10SM CLR 13/11 A2989 RMK AO1 T01310110
KHRI 280453Z AUTO 11003KT 10SM CLR 13/04 A3006 RMK AO2 SLP176 T01330044 $
KHRJ 280455Z AUTO 00000KT 10SM CLR 10/02 A2992 RMK AO2 T01000019
KHRL 280452Z 04006KT 7SM OVC006 24/23 A2973 RMK AO2 SLP067 T02390228
KHRO 280453Z AUTO 05004KT 10SM CLR 12/02 A3004 RMK AO2 SLP167 T01170022
KHRT 280458Z AUTO 00000KT 10SM -RA BKN020 19/16 A2983 RMK AO2 DZB0358E21DZB31E38RAB38 SLP103 P0000 T01860159 $
KHRX 280455Z AUTO 10SM BKN010 OVC020 05/04 A3019 RMK AO2 T00450043
KHSA 280051Z 05003KTS 7SM SCT040 SCT050 18/15 A2979 RMK LTG DSNT W THRU N
KHSB 280455Z AUTO 01005KT 10SM CLR 09/04 A3009 RMK AO2 T00940040
KHSE 280451Z AUTO 02003KT 10SM CLR 11/03 A2988 RMK AO2 SLP116 T01060033 401830089 TSNO
KHSI 280453Z AUTO 29004KT 10SM CLR 06/02 A3020 RMK AO2 SLP228 T00610022
KHSP 280455Z AUTO 32012G19KT 10SM OVC031 03/M01 A2991 RMK AO2 T00281010 400860004
KHST 280458Z AUTO 05007KT 10SM CLR 26/23 A2984 RMK AO2 SLP108 T02610233 403330228
KHSV 280453Z 04011KT 10SM BKN250 14/04 A2993 RMK AO2 SLP132 LAST T01440039
KHTL 280453Z AUTO 03004KT 10SM CLR 06/00 A3010 RMK AO2 SLP200 T00610000 401220039
KHTS 280451Z 02005KT 10SM CLR 07/02 A3004 RMK AO2 SLP173 T00720022 401670033
KHUA 280458Z AUTO 04009KT 10SM CLR 13/04 A2993 RMK AO2 SLP134 T01310044
KHUF 280453Z 02004KT 10SM CLR 07/02 A3008 RMK AO2 SLP186 T00670017 401560028
KHUL 280453Z AUTO 02012KT 10SM OVC024 04/M01 A2972 RMK AO2 SLP066 T00391006 401060028
KHUM 280455Z AUTO 08013KT 7SM OVC004 20/20 A2973 RMK AO2 LTG DSNT E AND S P0001 T02000197
KHUT 280452Z AUTO 02006KT 10SM CLR 10/03 A3013 RMK AO2 SLP196 T01000028
KHVE 280455Z AUTO 06009KT 10SM CLR 14/02 A3018 RMK AO2
KHVN 280453Z AUTO 32009KT 10SM BKN060 10/04 A2968 RMK AO2 RAE03 SLP049 P0000 T01000044 401610094
KHVR 280453Z AUTO 16009KT 10SM CLR 09/00 A3018 RMK AO2 SLP226 T00890000
KHVS 280515Z AUTO 04007KT 10SM CLR 12/02 A2993 RMK AO2
KHWD 280454Z AUTO 31009KT 10SM BKN006 12/11 A3002 RMK AO2 SLP175 T01220106
KHWO 280453Z AUTO 08005KT 10SM CLR 24/22 A2987 RMK AO2 LTG DSNT SE SLP113 T02440217 403500228 $
KHWV 280456Z AUTO 32011KT 10SM SCT040 SCT055 10/04 A2968 RMK AO2 SLP050 T01000039 401670083 TSNO
KHWY 280455Z AUTO 32010G18KT 10SM CLR 09/02 A2994 RMK AO2 T00860021
KHXD 280515Z AUTO 00000KT 10SM CLR 16/15 A2989 RMK AO2 P0000
KHYA 280512Z AUTO 36009G15KT 10SM -RA FEW019 BKN024 OVC032 07/04 A2957 RMK AO2 RAB01 P0000 T00670044
KHYI 280515Z 01008KT 10SM CLR 19/14 A2982 RMK AO1
KHYR 280453Z AUTO 00000KT 10SM CLR 03/M01 A3015 RMK AO2 SLP218 T00331011
KHYS 280515Z 36008KT 10SM CLR 05/M02 A3019 RMK AO1
KHYW 280515Z AUTO 01006KT 10SM CLR 13/05 A2991 RMK AO2
KHYX 280514Z AUTO 05003KT 10SM SCT050 03/00 A3011 RMK AO2
KHZE 280455Z AUTO 00000KT 10SM BKN041 BKN047 00/00 A3032 RMK AO2
KHZL 280455Z AUTO 31007KT 10SM OVC016 06/03 A2984 RMK AO2
KHZR 280455Z AUTO 02012KT 10SM OVC010 16/15 A2980 RMK AO2 T01580146
KHZX 280514Z AUTO 10004KT 10SM CLR 06/M01 A3014 RMK AO2
KHZY 280453Z AUTO 33004KT 10SM OVC043 06/02 A3005 RMK AO2 SLP181 T00560017 400670028
KI16 280455Z AUTO 10SM OVC070 08/03 A3004 RMK AO2 T00790032
KI35 280455Z AUTO 00000KT 10SM SCT060 06/02 A2998 RMK AO1
KI39 280455Z AUTO 05005KT 10SM CLR 08/03 A3002 RMK AO2
KI67 280515Z AUTO 03003KT 10SM CLR 07/02 A3007 RMK AO1
KI69 280515Z AUTO 07004KT 10SM SCT044 07/02 A3007 RMK AO1
KI75 280455Z AUTO 00000KT 10SM CLR 10/02 A3015 RMK AO2 T00990022
KIAB 280458Z AUTO 06007KT 10SM CLR 13/03 A3011 RMK AO2 SLP196 T01270025
KIAD 280452Z 30007KT 10SM CLR 07/01 A2993 RMK AO2 SLP135 T00720011 401440022
KIAG 280453Z AUTO 32008KT 10SM BKN085 06/01 A2998 RMK AO2 SLP161 T00560011 401000039
KIAH 280453Z 07006KT 10SM OVC024 21/18 A2978 RMK AO2 SLP084 T02060178
KIBM 280455Z AUTO 36006KT 10SM OVC065 07/06 A3032 RMK AO2 T00720058
KICL 280455Z AUTO 36004KT 10SM CLR 08/04 A3018 RMK AO2
KICR 280453Z AUTO 31008KT 10SM CLR 07/03 A3031 RMK AO2 SLP265 T00720033
KICT 280453Z 03007KT 10SM FEW120 SCT150 BKN200 13/02 A3011 RMK AO2 SLP194 T01280022
KIDA 280453Z AUTO 30003KT 10SM CLR 06/M01 A3027 RMK AO2 SLP246 T00561011
KIDI 280515Z AUTO 30004KT 10SM BKN016 BKN026 OVC034 05/03 A3002 RMK A01
KIDP 280455Z AUTO 01006KT 10SM CLR 11/05 A3007 RMK AO2
KIEN 280452Z AUTO 00000KT 10SM OVC024 07/04 A3035 RMK AO2 SLP281 T00720044
KIER 280455Z AUTO 08004KT 10SM OVC043 18/14 A2984 RMK AO2 T01780136
KIFA 280455Z AUTO 30003KT 10SM CLR 08/01 A3017 RMK AO2 T00770011
KIFP 280455Z AUTO 01012KT 10SM CLR 27/M04 A2991 RMK AO2
KIGM 280451Z AUTO 05007KT 10SM CLR 18/M04 A3005 RMK AO2 SLP122 T01781039 TSNO
KIGQ 280455Z AUTO 00000KT 10SM CLR 04/00 A3011 RMK AO2 T00390002
KIGX 280456Z AUTO 30003KT 10SM CLR 07/01 A2993 RMK AO2 SLP134 T00670011 402000056 TSNO
KIIB 280455Z AUTO 00000KT 10SM CLR 07/01 A3014 RMK AO2
KIIY 280455Z AUTO 00000KT 10SM CLR 14/13 A2990 RMK AO2
KIJD 280452Z AUTO 36010KT 10SM FEW055 BKN080 09/02 A2965 RMK AO2 SLP041 T00940017 401560078
KIJX 280455Z AUTO 09007KT 10SM CLR 08/03 A3012 RMK AO2 T00800032
KIKK 280455Z AUTO 00000KT 10SM CLR 04/02 A3011 RMK AO2 T00350016
KIKT 280455Z AUTO 12028KT 3SM BR FEW012 SCT036 OVC065 24/22 A2973 RMK A01
KIKV 280455Z AUTO 00000KT 10SM CLR 07/04 A3016 RMK AO2
KIKW 280513Z AUTO 00000KT 10SM OVC050 05/01 A3011 RMK AO2 T00520014
KILE 280515Z AUTO 36008KT 10SM OVC008 17/13 A2985 RMK AO1
KILG 280451Z 32009KT 10SM OVC100 10/01 A2982 RMK AO2 SLP097 T01000011 401610050
KILM 280453Z AUTO 35008KT 10SM CLR 13/04 A2990 RMK AO2 SLP125 T01330039 402280089
KILN 280454Z AUTO 04004KT 10SM CLR 04/01 A3008 RMK AO2 SLP196 T00440011 401500011
KIML 280453Z AUTO 33004KT 10SM FEW080 07/01 A3025 RMK AO2 SLP247 T00670006 $
KIMM 280515Z AUTO 00000KT 8SM FEW055 A2986 RMK A01 P000
KIMS 280514Z AUTO 03003KT 10SM CLR 07/02 A3008 RMK AO1
KIMT 280454Z AUTO 00000KT 10SM CLR 03/M02 A3015 RMK AO2 SLP218 T00281017 TSNO
KIND 280454Z 05007KT 10SM CLR 07/02 A3006 RMK AO2 SLP181 T00720022 401440017
KINF 280515Z AUTO 04003KT 10SM BKN120 A2981 RMK AO2
KINJ 280455Z AUTO 01010G18KT 10SM OVC015 15/13 A2988 RMK AO2 T01490125
KINK 280453Z AUTO 34013KT 10SM CLR 08/01 A3016 RMK AO2 SLP190 T00830006 $
KINL 280455Z AUTO 34006KT 10SM CLR 11/02 A3015 RMK AO2 SLP214 T01060022
KINS 280458Z AUTO 30002KT 10SM CLR 16/M10 A3006 RMK AO2 SLPNO T01621100
KINT 280454Z AUTO 35005KT 10SM CLR 08/01 A2994 RMK AO2 SLP135 T00780011 401830039
KINW 280456Z AUTO 22007KT 10SM SCT085 11/03 A3011 RMK AO2 SLP161 T01060028
KIOB 280455Z AUTO 05008KT 10SM CLR 07/03 A3006 RMK AO2
KIOW 280452Z AUTO 00000KT 10SM CLR 07/03 A3014 RMK AO2 SLP207 T00720028
KIPJ 280455Z AUTO 00000KT 10SM CLR 05/03 A2993 RMK AO2 T00540033
KIPL 280453Z AUTO 25006KT 10SM CLR 21/00 A2988 RMK AO2 SLP117 T02060000
KIPN 280455Z AUTO 12027KT 10SM FEW035 SCT060 BKN080 25/22 A2973 RMK A01
KIPT 280454Z AUTO 27006KT 10SM BKN031 OVC046 09/03 A2988 RMK AO2 SLP119 T00890028 401390078
KIRK 280455Z AUTO 36004KT 10SM CLR 08/04 A3013 RMK AO2 SLP207 T00780039
KIRS 280515Z AUTO 00000KT 10SM CLR 04/01 A3009 RMK AO2
KISM 280148Z 34006KT 10SM SKC 24/19 A2987 RMK LAST
KISN 280452Z AUTO 21005KT 10SM CLR 07/03 A3030 RMK AO2 SLP276 T00670033
KISO 280455Z AUTO 31003KT 10SM CLR 10/05 A2992 RMK AO2 T00960049
KISP 280456Z AUTO 33013KT 10SM BKN042 OVC050 10/04 A2967 RMK AO2 SLP047 T01000044 401670089
KISQ 280515Z AUTO 35003KT 10SM OVC035 04/00 A3015 RMK AO2 T00400000
KISW 280454Z AUTO 12007KT 10SM CLR 09/01 A3015 RMK AO2 SLP211 T00890011
KITH 280456Z AUTO 33011KT 10SM -RA OVC039 07/04 A2989 RMK AO2 T00660044 OVC V BKN RAE19B38 P0000 SLP126
KITR 280453Z AUTO 33006KT 10SM SCT065 06/01 A3027 RMK AO2 SLP239 T00610006
KIWA 280447Z 15003KT 20SM SKC 20/07 A2993
KIWD 280515Z AUTO 00000KT 10SM CLR 02/01 A3013 RMK AO1
KIWI 280453Z AUTO 03012G21KT 340V070 10SM OVC035 07/M01 A2967 RMK AO2 SLP047 T00671006 401220050
KIXA 280455Z AUTO 31003KT 10SM CLR 07/03 A2992 RMK AO2
KIXD 280453Z AUTO 04005KT 10SM CLR 08/03 A3012 RMK AO2 SLP200 T00780033
KIYA 280455Z AUTO 01006KT 10SM OVC004 18/18 A2976 RMK AO2 T01810177
KIZA 280455Z AUTO 27004KT 10SM CLR 15/07 A3001 RMK AO2
KIZG 280454Z AUTO 03008G15KT 340V060 10SM -RA SCT038 SCT048 OVC075 08/03 A2967 RMK AO2 RAE03B49 SLP050 P0000 T00780028 401280039
KJAC 280515Z AUTO 01006KT 10SM CLR 02/M01 A3031 RMK AO1
KJAN 280454Z AUTO 01004KT 10SM CLR 14/10 A2987 RMK AO2 SLP113 T01440100
KJAX 280456Z 16008KT 9SM SCT034 BKN065 OVC095 19/17 A2986 RMK AO2 SLP111 T01890172 402440183
KJBR 280453Z AUTO 05008KT 10SM CLR 12/06 A3001 RMK AO2 SLP162 T01170056
KJCT 280451Z AUTO 31015G24KT 10SM SCT120 16/08 A2994 RMK AO2 SLP110 T01610083
KJDD 280455Z AUTO 03005KT 5SM -DZ OVC001 13/13 A2992 RMK AO2 P0003
KJDN 280448Z AUTO 00000KT 06/02 A3030 RMK AO1 SLP274 T00610022
KJEF 280453Z AUTO 04006KT 10SM CLR 13/02 A3009 RMK AO2 SLP180 T01330022
KJER 280453Z AUTO 10004KT 10SM CLR 10/M04 A3024 RMK AO2 SLP235 T01001039
KJES 280455Z AUTO 00000KT 10SM CLR 18/17 A2988 RMK AO2
KJFK 280451Z 33013KT 10SM FEW048 SCT120 12/02 A2972 RMK AO2 SLP063 T01170017 401720094
KJFX 280515Z AUTO 00000KT 10SM CLR 13/06 A2992 RMK A02 P-128
KJFZ 280455Z AUTO 34005KT 10SM BKN060 06/M07 A2997 RMK AO2 T00621074
KJGG 280455Z AUTO 34007KT 10SM CLR 11/04 A2991 RMK AO1
KJHN 280515Z AUTO 32007KT 10SM CLR 04/01 A3023 RMK AO2 T00390011
KJHW 280515Z 31011KT 10SM OVC045 05/01 A2998 RMK AO1
KJKA 280455Z AUTO 00000KT 7SM RA BKN014 BKN025 OVC100 17/16 A2984 RMK AO2 LTG DSNT S AND SW P0006 T01680162 402280162
KJKJ 280511Z AUTO 35015KT 10SM SCT080 BKN095 10/04 A3024 RMK AO2
KJKL 280453Z AUTO 00000KT 10SM CLR 08/02 A3002 RMK AO2 SLP162 T00780017 401670056
KJLN 280453Z AUTO 02004KT 10SM CLR 11/04 A3008 RMK AO2 SLP182 T01110039
KJMR 280517Z AUTO 10003KT 10SM CLR 03/00 A3015 RMK AO2
KJMS 280456Z AUTO 32005KT 10SM SCT023 BKN070 07/06 A3026 RMK AO2 RAE28 SLP253 P0001 T00720061
KJNX 280455Z AUTO 35003KT 10SM CLR 11/02 A2992 RMK AO2
KJOT 280455Z AUTO 00000KT 10SM CLR 07/01 A3012 RMK AO2 T00690010
KJQF 280455Z AUTO 00000KT 10SM CLR 06/03 A2997 RMK AO2
KJSO 280455Z AUTO 31009G15KT 10SM +RA SCT017 BKN024 OVC033 17/15 A2988 RMK AO2 LTG DSNT ALQS T01730150
KJST 280454Z AUTO 30011KT 10SM FEW011 BKN018 OVC040 03/01 A2994 RMK AO2 SLP153 T00280011 400890022
KJSV 280455Z AUTO 00000KT 10SM -RA SCT009 SCT015 SCT023 12/10 A3002 RMK AO2
KJTC 280455Z AUTO 23008KT 10SM FEW070 06/00 A3022 RMK AO2
KJVL 280455Z AUTO 08006KT 10SM CLR 03/00 A3013 RMK AO2
KJVW 280515Z AUTO 10SM SCT050 15/12 A2987 RMK AO2
KJWG 280455Z AUTO 01009KT 10SM -RA BKN048 BKN050 OVC080 09/09 A3011 RMK AO2 T00860086
KJWY 280455Z AUTO 00000KT 10SM SCT013 SCT019 13/13 A2990 RMK AO2 T01320131
KJXI 280455Z AUTO 31008KT 7SM +RA OVC042 15/12 A2991 RMK AO2 LTG DSNT SW AND NW P0003 T01460117
KJXN 280456Z 00000KT 10SM CLR 01/M01 A3009 RMK AO2 SLP196 T00111006 401060011
KJYG 280515Z AUTO 20005KT 10SM CLR 08/M04 A3018 RMK AO2
KJYL 280455Z AUTO 00000KT 10SM CLR 14/14 A2989 RMK AO2 T01360136
KJYM 280514Z AUTO 00000KT 10SM CLR 03/01 A3009 RMK AO2 T00250005
KJYO 280455Z AUTO 29005KT 10SM CLR 08/03 A2994 RMK AO2
KJYR 280455Z AUTO 10SM CLR 07/02 A3020 RMK AO2
KJZI 280515Z AUTO 00000KT 10SM CLR 15/13 A2988 RMK A02 P000
KKLS 280515Z 12004KT 10SM CLR 19/09 A2994 RMK AO1
KL18 280455Z AUTO 00000KT 10SM CLR 18/05 A2997 RMK AO2
KL35 280455Z AUTO 00000KT 10SM CLR 03/M11 A3022 RMK AO2
KL38 280455Z AUTO 00000KT 10SM SCT004 BKN012 19/19 A2974 RMK AO2 LTG DSNT SE T01900190
KLAA 280453Z AUTO 00000KT 9SM CLR 06/01 A3025 RMK AO2 SLP233 T00560011 TSNO
KLAF 280454Z AUTO 02004KT 10SM CLR 04/01 A3010 RMK AO2 SLP194 T00440011 401330006 TSNO
KLAL 280455Z AUTO 10004KT 10SM CLR 21/17 A2985 RMK AO2
KLAM 280455Z AUTO 35005KT 10SM BKN075 BKN085 07/M04 A3027 RMK AO2 T00651039
KLAN 280453Z 33003KT 10SM OVC050 06/01 A3011 RMK AO2 SLP200 T00610011 401280022
KLAR 280504Z AUTO 13006KT 10SM BKN025 OVC040 03/M01 A3034 RMK AO2 T00281006
KLAS 280456Z 00000KT 10SM FEW250 23/M03 A2998 RMK AO2 SLP135 T02331033
KLAW 280453Z AUTO 03015G25KT 10SM OVC050 11/07 A3002 RMK AO2 SLP164 T01060072 TSNO
KLAX 280453Z 24009KT 10SM CLR 19/08 A2995 RMK AO2 SLP140 T01890083
KLBB 280453Z 01020G29KT 10SM -RA BKN012 OVC017 06/04 A3009 RMK AO2 PK WND 36029/0445 SLP176 P0005 T00560039 $
KLBE 280515Z AUTO 00000KT 10SM FEW017 BKN031 OVC048 05/03 A3003 RMK AO2
KLBF 280453Z AUTO 01010KT 10SM FEW075 11/04 A3027 RMK AO2 SLP244 T01060039
KLBL 280515Z AUTO 36008KT 10SM CLR 07/03 A3020 RMK AO1
KLBT 280454Z AUTO 36003KT 10SM CLR 09/03 A2992 RMK AO2 SLP129 T00890028 402280067
KLBX 280453Z AUTO 03005KT 10SM OVC018 21/19 A2977 RMK AO2 SLP081 T02110194
KLCG 280455Z AUTO 00000KT 10SM CLR 05/M02 A3021 RMK AO2 T00521021
KLCH 280511Z 04012KT 10SM OVC009 18/16 A2977 RMK AO2 T01780161
KLCI 280515Z AUTO 01003KT 10SM BKN044 BKN050 OVC080 09/01 A2965 RMK AO1
KLCK 280455Z AUTO 00000KT 10SM CLR 05/01 A3007 RMK AO2 T00480006
KLCQ 280455Z AUTO 07003KT 7SM CLR 18/18 A2983 RMK AO2
KLDJ 280515Z AUTO 33007KT 10SM CLR 13/04 A2976 RMK AO2 T01250044
KLDM 280515Z AUTO 00000KT 10SM CLR 03/01 A3012 RMK AO2 T00300006
KLEB 280453Z AUTO 36008G18KT 10SM CLR 08/02 A2970 RMK AO2 SLP058 T00830017 401170067
KLEE 280453Z AUTO 12009KT 10SM BKN120 21/19 A2981 RMK AO2 RAE16 PRESFR SLP092 P0001 T02060189 402610200
KLEW 280515Z AUTO 02010KT 10SM SCT028 BKN034 OVC050 06/01 A2967 RMK AO1
KLEX 280454Z 05010KT 10SM CLR 07/03 A3004 RMK AO2 SLP173 T00720033 401720017
KLFI 280458Z AUTO 32013G19KT 10SM CLR 10/03 A2988 RMK AO2 SLP125 T01020026 401600052 $
KLFK 280453Z AUTO 08010KT 10SM OVC030 21/14 A2980 RMK AO2 SLP088 T02060144 $
KLFT 280453Z 03010KT 8SM OVC005 18/17 A2977 RMK AO2 SLP080 T01830172 $
KLGA 280451Z 32014G19KT 10SM FEW042 11/03 A2972 RMK AO2 SLP063 T01110028 401560094
KLGB 280453Z 32004KT 10SM CLR 22/06 A2995 RMK AO2 SLP142 T02170056
KLGC 280455Z AUTO 00000KT 10SM CLR 14/11 A2988 RMK AO2 T01360112
KLGD 280515Z AUTO 00000KT 10SM CLR 09/M02 A3015 RMK AO1
KLGU 280451Z AUTO 18003KT 10SM CLR 09/05 A3023 RMK AO2 SLP223 T00940050
KLHB 280455Z AUTO 34006KT 10SM CLR 17/16 A2984 RMK AO2 LTG DSNT NE T01730160
KLHM 280455Z AUTO 13006KT 10SM CLR 22/10 A2991 RMK AO1
KLHQ 280453Z AUTO 00000KT 9SM CLR 02/00 A3007 RMK AO2 SLP186 T00170000 401331006
KLHW 280503Z AUTO 00000KT 2 1/2SM R33/4000FT BR CLR 17/15 A2985 RMK AO2 VIS 2 1/2V4
KLHX 280453Z AUTO 35006KT 10SM SCT065 08/02 A3028 RMK AO2 SLP241 T00780022 $
KLHZ 280455Z AUTO 00000KT 10SM CLR 06/02 A2993 RMK AO2
KLIC 280455Z AUTO 32008KT 10SM OVC055 06/04 A3032 RMK AO2 SLP259 T00560039
KLIT 280453Z 05011KT 10SM BKN110 16/04 A2995 RMK AO2 SLP142 T01560044
KLJF 280513Z AUTO 27004KT 10SM CLR 11/02 A3016 RMK AO2
KLKR 280515Z AUTO 05005KT 10SM CLR 09/05 A2993 RMK AO2
KLKU 280455Z AUTO 33004KT 10SM CLR 08/03 A2993 RMK AO2
KLKV 280515Z 34004KT 10SM CLR 09/M03 A3017 RMK AO1
KLLJ 280455Z AUTO 32006KT 10SM CLR 07/00 A3026 RMK AO2 SLP236 T00720000
KLLQ 280453Z AUTO 06006KT 10SM SCT120 13/08 A2991 RMK AO2 SLP126 T01280083
KLMO 280515Z AUTO 00000KT 10SM OVC050 08/06 A3037 RMK AO2 T00800056
KLMT 280453Z 00000KT 10SM CLR 12/02 A3010 RMK AO2 SLP172 T01170022
KLNC 280455Z AUTO 03011G17KT 10SM CLR 13/11 A2989 RMK AO2 T01320106
KLND 280453Z AUTO 25008KT 10SM CLR 04/01 A3032 RMK AO2 SLP268 T00440006
KLNK 280454Z 35005KT 10SM CLR 07/02 A3019 RMK AO2 SLP224 T00670022
KLNL 280455Z AUTO 00000KT 10SM CLR M01/M02 A3016 RMK AO2 T10081017
KLNN 280455Z AUTO 03004KT 10SM 05/01 A3006 RMK AO1 T00490010 400670030
KLNP 280455Z AUTO 01004KT 10SM CLR 07/00 A2998 RMK AO2
KLNR 280456Z AUTO 24003KT 10SM CLR 06/02 A3010 RMK AO2 SLP188 T00610022
KLNS 280453Z 32011KT 10SM OVC039 09/01 A2984 RMK AO2 SLP105 T00940011 401330044
KLOL 280453Z AUTO 04008KT 10SM CLR 13/00 A3016 RMK AO2 SLP196 T01330000
KLOM 280455Z AUTO 32006KT 10SM BKN080 11/02 A2979 RMK AO1
KLOR 280453Z AUTO 03003KT 10SM CLR 18/15 A2983 RMK AO2 SLP100 T01830150 402110167
KLOT 280455Z AUTO 09005KT 10SM CLR 05/00 A3011 RMK AO2 T00480001
KLOU 280453Z AUTO 01003KT 10SM CLR 09/03 A3006 RMK AO2 SLP178 T00940033 401890039
KLOZ 280453Z AUTO 02008KT 10SM CLR 10/02 A3000 RMK AO2 SLP155 T01000017 401830039
KLPC 280515Z AUTO 29006KT 10SM BKN006 13/10 A3003 RMK AO1
KLPR 280453Z AUTO 03004KT 10SM OVC046 04/01 A3008 RMK AO2 SLP191 T00440011 400780011 TSNO
KLQK 280515Z AUTO 07005KT 10SM CLR 13/03 A2992 RMK AO2 T01280029
KLRD 280456Z AUTO 00000KT 10SM CLR 22/13 A2980 RMK AO2 T02160133 SLP080
KLRF 280458Z AUTO 04008KT 10SM SCT130 15/06 A2995 RMK AO2 SLP144 T01450060
KLRJ 280455Z AUTO 00000KT 10SM CLR 07/01 A3020 RMK AO2
KLRO 280455Z AUTO 10SM CLR 14/13 A2988 RMK AO2
KLRU 280455Z AUTO 03008KT 10SM CLR 11/00 A3018 RMK AO2 T01110000
KLSB 280455Z AUTO 12011KT 10SM CLR 13/01 A3012 RMK AO2
KLSE 280453Z AUTO 00000KT 10SM CLR 10/03 A3012 RMK AO2 SLP201 T01000028
KLSF 280458Z AUTO 00000KT 10SM CLR 14/10 A2986 RMK AO2 SLP113 T01410102 402370140
KLSV 280458Z AUTO 07008KT 10SM CLR 20/00 A3000 RMK AO2 SLPNO T02031001
KLTS 280458Z 01015KT 10SM OVC012 10/09 A3005 RMK AO2A SLP174 T00970091 $
KLUA 280455Z AUTO 30005KT 10SM BKN037 OVC043 08/01 A2998 RMK AO2
KLUD 280455Z AUTO 02009G15KT 10SM BKN044 10/10 A2995 RMK AO2 T01030095
KLUF 280458Z AUTO 27001KT 10SM CLR 23/07 A2988 RMK AO2 DZB0358E05DZB38E48 SLPNO P0000 T02280072 $
KLUK 280453Z AUTO 06007KT 10SM FEW034 FEW045 08/03 A3009 RMK AO2 SLP188 T00830033 401720011
KLUM 280455Z AUTO 00000KT 10SM CLR 09/M01 A3015 RMK AO2 T00881008
KLUX 280515Z AUTO 06005KT 10SM CLR 12/07 A2993 RMK AO2
KLVJ 280453Z AUTO 02005KT 10SM OVC017 22/19 A2979 RMK AO2 SLP086 T02220194
KLVK 280453Z AUTO 00000KT 10SM CLR 20/07 A2997 RMK AO2 SLP145 T02000072
KLVL 280455Z AUTO 35006KT 10SM SCT075 09/02 A2991 RMK AO1 T00900021 401840021
KLVM 280453Z AUTO 00000KT 10SM CLR 03/M01 A3029 RMK AO2 SLP264 T00281011
KLVN 280513Z AUTO 00000KT 10SM CLR 04/01 A3015 RMK AO2
KLVS 280453Z AUTO 36013KT 10SM BKN048 OVC075 04/M01 A3027 RMK AO2 SLP222 T00391011
KLWA 280515Z AUTO 00000KT 10SM CLR 02/00 A3010 RMK AO2 T00150000
KLWB 280455Z AUTO 34006KT 10SM CLR 06/00 A2997 RMK AO2 T00580003 401241002
KLWC 280452Z AUTO 35003KT 10SM CLR 07/04 A3013 RMK AO2 SLP201 T00670039
KLWD 280453Z AUTO 35004KT 10SM CLR 11/02 A3015 RMK AO2 SLP208 T01060017
KLWM 280502Z 03012G19KT 6SM RA BKN027 OVC033 08/05 A2966 RMK AO2 P0001 T00780050
KLWS 280456Z 16003KT 10SM CLR 15/01 A3014 RMK AO2 SLP205 T01500006
KLWT 280454Z AUTO 11007KT 10SM CLR 06/00 A3026 RMK AO2 SLP254 T00560000
KLWV 280453Z AUTO 04003KT 10SM CLR 08/03 A3008 RMK AO2 SLP186 T00780033
KLXL 280515Z AUTO 00000KT 10SM CLR 05/M01 A3014 RMK AO2
KLXN 280455Z AUTO 00000KT 10SM CLR 05/01 A3023 RMK AO2 T00480008
KLXT 280453Z AUTO 01004KT 10SM CLR 12/02 A3012 RMK AO2 SLP200 T01170022
KLXV 280453Z AUTO 18007KT 10SM FEW031 M03/M03 A3033 RMK AO2 SLP208 T10281033
KLXY 280455Z AUTO 36006KT 10SM OVC007 16/15 A2984 RMK AO2 LTG DSNT E T01600150
KLYH 280454Z AUTO 00000KT 10SM CLR 05/01 A2996 RMK AO2 SLP145 T00500006 401720017
KLYV 280514Z AUTO 00000KT 10SM CLR 08/M03 A3020 RMK AO2
KLZU 280045Z 27005KT 10SM CLR 16/02 A2987 RMK CLOSING FORECAST OO
KLZZ 280455Z AUTO 01007KT 10SM SCT090 16/15 A2986 RMK AO2 T01580150
KM19 280456Z AUTO 02008KT 10SM CLR 11/07 A3002 RMK AO2 T01050072 401880088 SLP164
KM25 280515Z AUTO 02005KT 10SM CLR 11/05 A3004 RMK AO2
KM30 280455Z AUTO 01004KT 10SM CLR 11/06 A3004 RMK AO2 T01100055
KM63 280456Z AUTO 01023G32KT 10SM BKN160 BKN240 10/02 A3012 RMK AO2 PK WND 01031/24 SLPNO T01010020
KM91 280515Z AUTO 04005KT 10SM CLR 10/06 A3001 RMK
KMAE 280453Z AUTO 00000KT 10SM CLR 21/14 A2995 RMK AO2 SLP139 T02060139
KMAF 280453Z 33015KT 10SM OVC023 08/03 A3010 RMK AO2 SLP168 T00830028
KMAI 280453Z AUTO 05006KT 10SM BKN023 OVC029 19/18 A2982 RMK AO2 SLP096 T01890178 PNO $
KMAN 280455Z AUTO 12003KT 10SM CLR 09/00 A3019 RMK AO1
KMAO 280515Z AUTO 00000KT 10SM CLR 12/04 A2992 RMK AO2
KMBG 280452Z AUTO 36005KT 6SM BR CLR 05/04 A3027 RMK AO2 SLP257 T00500039
KMBL 280515Z AUTO 00000KT 10SM CLR 03/M02 A3013 RMK AO1
KMBS 280453Z 07004KT 10SM BKN050 07/01 A3012 RMK AO2 SLP201 T00720011 401330056 $
KMCB 280453Z AUTO 03006KT 10SM OVC025 15/14 A2982 RMK AO2 SLP096 T01500139
KMCC 280450Z AUTO 14006KT 10SM CLR 22/11 A2993 RMK AO2
KMCD 280456Z AUTO 01007KT 10SM OVC041 05/01 A3013 RMK AO2 T00520007
KMCE 280453Z AUTO 33003KT 10SM CLR 22/11 A2993 RMK AO2 SLP136 T02170111
KMCF 280458Z AUTO 15005KT 10SM CLR 22/21 A2983 RMK AO2 DZB09E33RAB33E34RAB35E36DZB36 SLP104 P0000 T02170209 403140217
KMCI 280453Z 04005KT 10SM FEW250 11/02 A3013 RMK AO2 SLP200 T01060022
KMCJ 280455Z AUTO 00000KT 10SM OVC013 21/18 A2975 RMK AO1
KMCK 280453Z AUTO 02004KT 10SM CLR 08/02 A3023 RMK AO2 SLP235 T00780017
KMCN 280453Z AUTO 00000KT 10SM CLR 14/11 A2987 RMK AO2 SLP113 T01390111 402390133 TSNO
KMCO 280453Z 19005KT 10SM SCT100 BKN120 OVC150 22/18 A2987 RMK AO2 SLP112 T02170183 402830217
KMCW 280453Z AUTO 00000KT 10SM CLR 08/01 A3017 RMK AO2 SLP213 T00780006
KMCX 280455Z AUTO 00000KT 10SM CLR 05/02 A3009 RMK AO2 T00450016 401360015
KMDD 280455Z AUTO 34014G20KT 10SM SCT021 BKN033 BKN049 09/04 A3010 RMK AO2 T00880038
KMDH 280452Z AUTO 05006KT 10SM CLR 10/03 A3008 RMK AO2 SLP184 T01000033
KMDJ 280455Z AUTO 05021KT 2SM BR OVC004 22/21 A2985 RMK A01
KMDQ 280455Z AUTO 00000KT 10SM CLR 09/04 A2995 RMK AO2
KMDS 280510Z AUTO 00000KT 10SM CLR 07/M04 A3020 RMK AO2
KMDT 280456Z 33014KT 10SM BKN040 BKN110 10/01 A2986 RMK AO2 SLP112 T01000011 401560050
KMDW 280453Z 33003KT 10SM CLR 06/01 A3011 RMK AO2 SLP201 T00610006
KMDZ 280455Z AUTO 00000KT 10SM CLR 05/M02 A3014 RMK AO2 T00541017
KMEB 280452Z AUTO 00000KT 10SM CLR 09/05 A2993 RMK AO2 SLP133 T00940050 402170067
KMEH 280456Z AUTO 00000KT 10SM CLR 07/02 A3017 RMK AO2 SLP214 T00720022
KMEI 280458Z AUTO 04008KT 10SM CLR 15/09 A2987 RMK AO2 SLP114 T01500089
KMEM 280454Z 06011KT 10SM FEW250 14/03 A2997 RMK AO2 SLP147 T01440033 $
KMER 280455Z AUTO 00000KT 10SM CLR 18/16 A2995 RMK AO1
KMEV 280455Z AUTO 35004KT 10SM CLR 08/M02 A3020 RMK AO2
KMEZ 280515Z AUTO 00000KT 10SM OVC080 13/08 A2999 RMK AO2 P0002
KMFD 280452Z AUTO 35007KT 10SM CLR 04/01 A3007 RMK AO2 SLP189 T00390011 400720006
KMFE 280453Z AUTO 00000KT 10SM CLR 23/18 A2975 RMK AO2 SLP071 T02330178
KMFR 280453Z AUTO 19004KT 10SM CLR 21/09 A2997 RMK AO2 SLP141 T02110094
KMFV 280455Z AUTO 32012G21KT 10SM CLR 11/M07 A2986 RMK AO2
KMGC 280455Z AUTO 00000KT 10SM CLR 01/01 A3012 RMK AO2
KMGE 280458Z AUTO 34004KT 10SM CLR 13/05 A2989 RMK AO2 SLP119 T01270046 402100096 $
KMGG 280517Z AUTO 00000KT 10SM CLR 07/01 A3015 RMK AO2 T00720008
KMGJ 280454Z AUTO 31011G18KT 10SM OVC042 10/03 A2973 RMK AO2 RAB12E22 SLP067 P0000 T01000033 401560078 TSNO
KMGM 280453Z AUTO 00000KT 10SM CLR 16/09 A2989 RMK AO2 SLP118 T01610094
KMGN 280515Z AUTO 00000KT 10SM OVC042 06/00 A3014 RMK AO2 T00680007
KMGR 280455Z AUTO 00000KT 10SM CLR 18/16 A2984 RMK AO2
KMGW 280453Z AUTO 30003KT 10SM BKN025 BKN030 OVC047 06/M01 A3003 RMK AO2 SLP174 T00611006 401060011 TSNO
KMGY 280453Z AUTO 05006KT 10SM CLR 05/02 A3007 RMK AO2 SLP184 T00500017 401560006
KMHE 280453Z AUTO 33013KT 10SM CLR 12/06 A3022 RMK AO2 SLP235 T01170061
KMHK 280452Z AUTO 00000KT 10SM CLR 06/03 A3014 RMK AO2 SLP209 T00610033 TSNO
KMHL 280515Z AUTO 00000KT 10SM CLR 12/03 A3013 RMK AO2
KMHR 280450Z 15005KT 10SM SKC 19/13 A2993
KMHS 280456Z AUTO 05003KT 10SM CLR 13/04 A3008 RMK AO2 SLP186 T01280044
KMHT 280453Z 33011KT 10SM BKN047 BKN055 09/03 A2964 RMK AO2 RAB32E51 SLP050 P0000 T00890028 401390083
KMHV 280455Z AUTO 31008KT 10SM CLR 15/M12 A3006 RMK AO1
KMIA 280453Z 08005KT 10SM FEW040 SCT070 BKN250 26/23 A2986 RMK AO2 SLP110 T02560228 403440256 $
KMIB 280458Z AUTO 25007KT 10SM CLR 04/04 A3026 RMK AO2 SLP267 T00360036 $
KMIC 280453Z AUTO 00000KT 10SM CLR 08/01 A3013 RMK AO2 SLP204 T00830006
KMIE 280453Z AUTO 07003KT 10SM CLR 05/02 A3009 RMK AO2 SLP189 T00500017 401330017
KMIS 280455Z AUTO 10005G12KT 3SM HZ FEW007 BKN030 OVC075 23/21 A2986 RMK A01
KMIV 280454Z AUTO 30008KT 10SM OVC085 10/01 A2979 RMK AO2 SLP085 T01000011 401610017
KMIW 280453Z AUTO 00000KT 10SM CLR 09/02 A3014 RMK AO2 SLP209 T00890017
KMJQ 280513Z AUTO 00000KT 10SM CLR 09/M05 A3019 RMK AO2
KMJX 280515Z AUTO 31010KT 10SM OVC110 11/01 A2975 RMK AO1
KMKC 280454Z 00000KT 10SM CLR 13/02 A3012 RMK AO2 SLP197 T01280022
KMKE 280452Z 35006KT 10SM CLR 06/M01 A3013 RMK AO2 SLP206 T00561011
KMKG 280455Z AUTO 02005KT 10SM CLR 07/01 A3010 RMK AO2 SLP196 T00720011 401280039
KMKJ 280455Z AUTO 00000KT 10SM SCT060 05/01 A2998 RMK AO2 T00450010 401360033
KMKL 280453Z AUTO 04009KT 10SM CLR 09/05 A2997 RMK AO2 SLP148 T00940050
KMKN 280455Z AUTO 00000KT 10SM RA OVC010 16/16 A2991 RMK AO2 LTG DSNT NW T01550155
KMKO 280453Z AUTO 35007KT 10SM OVC090 11/09 A3004 RMK AO2 RAE09 SLP170 P0000 T01110094 $
KMKS 280515Z AUTO 00000KT 7SM CLR 13/12 A2988 RMK AO2
KMKT 280515Z AUTO 00000KT 10SM CLR 13/M06 A3016 RMK AO1
KMKY 280515Z AUTO 06005KT 10SM CLR 24/19 A2983 RMK AO1
KMLB 280453Z AUTO 25003KT 10SM FEW085 23/18 A2986 RMK AO2 SLP111 T02280178 403060222
KMLC 280453Z AUTO 03008KT 10SM BKN060 OVC075 12/10 A3000 RMK AO2 RAE44 SLP156 P0001 T01170100
KMLE 280455Z AUTO 00000KT 10SM CLR 10/03 A3018 RMK AO2 T01030031
KMLF 280452Z AUTO 35008KT 10SM CLR 08/M01 A3021 RMK AO2 SLP207 T00831011 TSNO
KMLI 280452Z AUTO 00000KT 10SM CLR 06/02 A3011 RMK AO2 SLP196 T00610022
KMLJ 280455Z AUTO 00000KT 10SM CLR 13/12 A2989 RMK AO2
KMLP 280453Z AUTO 12005KT 10SM CLR 07/M03 A3026 RMK AO2 SLP208 T00721033
KMLS 280453Z AUTO 16006KT 10SM CLR 05/02 A3033 RMK AO2 SLP283 T00500022
KMLT 280453Z AUTO 02010G17KT 10SM OVC026 05/01 A2973 RMK AO2 RAE0358B30E40 SLP074 P0000 T00500006 401170039
KMLU 280453Z AUTO 06006KT 10SM CLR 16/09 A2988 RMK AO2 SLP117 T01560094
KMMH 280455Z AUTO 28012KT 10SM CLR 08/M08 A3027 RMK AO1
KMMI 280455Z AUTO 04003KT 10SM CLR 09/03 A2996 RMK
KMMK 280453Z AUTO 33011KT 10SM OVC060 10/04 A2967 RMK AO2 SLP048 T01000039 401610094 TSNO
KMML 280515Z AUTO 25004KT 10SM CLR 07/M03 A3017 RMK AO1
KMMT 280458Z AUTO 05006KT 10SM CLR 14/05 A2992 RMK AO2 SLP134 T01390050 402260092
KMMU 280455Z AUTO 34006KT 10SM SCT050 11/02 A2975 RMK AO2
KMMV 280453Z AUTO 00000KT 10SM CLR 17/14 A2993 RMK AO2 SLP134 T01720139
KMNE 280455Z AUTO 06008G15KT 10SM CLR 16/08 A2985 RMK AO2 LTG DSNT W T01600082
KMNH 280518Z AUTO 03003KT 10SM OVC035 02/00 A3035 RMK AO2
KMNI 280515Z AUTO 04009KT 10SM CLR 14/M13 A2991 RMK AO2
KMNM 280515Z AUTO 34003KT 10SM CLR 03/M01 A3016 RMK AO1
KMNN 280453Z AUTO 02003KT 9SM CLR 02/M01 A3008 RMK AO2 SLP192 T00171006 401060011 TSNO
KMNZ 280455Z AUTO 02009G17KT 10SM OVC009 16/16 A2992 RMK AO2 T01620155
KMOB 280456Z AUTO 04010KT 10SM FEW009 BKN019 OVC110 16/16 A2984 RMK AO2 RAE54 SLP103 P0005 T01610161 $
KMOD 280453Z AUTO 12003KT 10SM CLR 21/11 A2993 RMK AO2 SLP136 T02110106
KMOP 280515Z AUTO 00000KT 10SM CLR 05/01 A3011 RMK AO2 T00450011
KMOR 280455Z AUTO 00000KT 10SM CLR 09/02 A2998 RMK
KMOT 280454Z AUTO 22010KT 10SM CLR 06/03 A3027 RMK AO2 SLP265 T00610033
KMOX 280513Z AUTO 30010KT 10SM CLR 07/M01 A3016 RMK AO2
KMPO 280505Z AUTO 33012G23KT 9SM -RA SCT013 OVC034 05/03 A2977 RMK AO2 P0000 T00500028
KMPV 280451Z AUTO 01009G17KT 10SM OVC028 07/01 A2978 RMK AO2 SLP092 T00670011 400780033
KMPZ 280455Z AUTO 28003KT 10SM CLR 09/03 A3013 RMK AO2 T00860028
KMQB 280455Z AUTO 00000KT 10SM CLR 07/03 A3013 RMK AO2 T00740030
KMQE 280454Z AUTO 01007KT 06/06 A2961 RMK AO1 SLP038 P0002 T00560056 401330050
KMQI 280455Z AUTO 35006KT 10SM CLR 13/04 A2988 RMK AO2 T01290035
KMQJ 280515Z AUTO 08005KT 10SM CLR 04/M00 A3009 RMK AO1
KMQS 280455Z AUTO 33010KT 10SM BKN036 BKN070 09/02 A2983 RMK AO2
KMQY 280456Z AUTO 00000KT 10SM CLR 08/06 A3002 RMK AO2 T00830055 SLP174
KMRB 280453Z AUTO 28006KT 10SM CLR 07/00 A2995 RMK AO2 SLP143 T00720000 401440050 TSNO
KMRC 280455Z AUTO 00000KT 10SM CLR 07/00 A2996 RMK
KMRF 280515Z AUTO 02013KT 10SM CLR 06/M01 A3016 RMK AO1
KMRH 280458Z AUTO 02004KT 10SM CLR 12/08 A2989 RMK AO2 SLP121 T01170078 402060100 TSNO
KMRJ 280450Z AUTO 30003KT 10SM CLR 10/00 A3009 RMK AO2
KMRN 280455Z AUTO 00000KT 10SM CLR 04/03 A2999 RMK AO2 T00370027
KMRT 280514Z AUTO 34003KT 10SM CLR 03/01 A3008 RMK AO2 T00300005
KMRY 280454Z AUTO 22008KT 5SM BR OVC003 11/10 A3005 RMK AO2 SLP187 T01110100
KMSL 280453Z AUTO 02005KT 10SM CLR 13/05 A2995 RMK AO2 SLP140 T01280050
KMSN 280453Z AUTO 11008KT 10SM CLR 07/02 A3013 RMK AO2 SLP207 T00670017
KMSO 280453Z AUTO 00000KT 10SM CLR 07/02 A3025 RMK AO2 SLP253 T00720017
KMSP 280453Z 00000KT 10SM BKN300 13/M01 A3014 RMK AO2 SLP207 T01281011
KMSS 280453Z AUTO 03007KT 10SM BKN080 BKN095 10/04 A2986 RMK AO2 SLP113 T01000039 401440039
KMSV 280515Z AUTO 32013KT 10SM BKN020 OVC026 06/03 A2977 RMK AO1
KMSY 280453Z 13013G24KT 10SM FEW030 SCT100 OVC140 21/18 A2972 RMK AO2 RAE0354 TSE07 SLP068 OCNL LTGIC DSNT SE CB DSNT SE P0000 T02060183
KMTC 272355Z 36005KT 12SM FEW040 SCT047 BKN220 09/03 A3003 RMK SLP183 T00910028 10106 20083 53014
KMTH 280453Z AUTO 14003KT 10SM FEW075 SCT090 29/26 A2984 RMK AO2 SLP105 T02890256 403330272
KMTJ 280453Z AUTO 14008KT 10SM OVC065 10/05 A3021 RMK AO2 SLP190 T01000050
KMTN 280512Z AUTO 27010KT 10SM BKN050 10/03 A2988 RMK AO2
KMTO 280453Z AUTO 36003KT 10SM CLR 06/02 A3008 RMK AO2 SLP188 T00610017
KMTP 280454Z AUTO 33010KT 10/04 A2964 RMK AO1 SLP035 T01000039 401440083
KMTV 280455Z AUTO 00000KT 10SM CLR 02/02 A2997 RMK AO2 T00230023
KMTW 280456Z AUTO 34003KT 10SM CLR 03/01 A3016 RMK AO2 SLP239 T00330006
KMUI 280458Z AUTO 34014G19KT 10SM OVC100 09/02 A2984 RMK AO2 SLP108 T00940024 401380063 $
KMUO 280458Z AUTO 08002KT 10SM CLR 09/M04 A3020 RMK AO2 SLPNO T00871039 $
KMUT 280455Z AUTO 00000KT 10SM CLR 08/03 A3012 RMK AO2
KMVE 280514Z AUTO 29004KT 10SM CLR 12/M05 A3017 RMK AO2
KMVH 280455Z AUTO 25008KT 1SM HZ CLR 04/M01 A3030 RMK A01
KMVL 280454Z AUTO 01010KT 10SM OVC032 07/02 A2979 RMK AO2 SLP092 T00720017 400830044 TSNO
KMVN 280515Z AUTO 00000KT 10SM CLR 06/02 A3010 RMK AO1
KMVY 280453Z AUTO 01006KT 10SM SCT027 OVC080 07/06 A2959 RMK AO2 RAE50 SLP021 P0001 T00670061 401500061
KMWA 280455Z AUTO 03006KT 10SM CLR 09/04 A3008 RMK AO2
KMWC 280455Z AUTO 00000KT 10SM CLR 03/M01 A3014 RMK AO2
KMWH 280452Z AUTO 08003KT 10SM CLR 16/02 A3012 RMK AO2 SLP200 T01610022
KMWK 280455Z AUTO 00000KT CLR 06/02 A2995 RMK AO2 T00550024 PWINO
KMWL 280500Z AUTO 03008KT 10SM BKN014 13/11 A2993 RMK AO2 T01280106
KMWM 280441Z AUTO 16000KT 10SM CLR 09/02 A3018 RMK AO2
KMWN 280453Z 03057G61KT 0SM -SN FZFG BLSN VV000 M06/M06 RMK VRY LGT ICG
KMWO 280455Z AUTO 00000KT 10SM CLR 06/03 A3009 RMK AO2 T00610028
KMWS 280500Z 32002G03KT 12/M12 RMK SNOW DEPTH 3.00
KMWT 280453Z AUTO VRB03KT 10SM FEW085 OVC110 14/06 A2992 RMK AO2 SLP130 T01440056
KMXF 280458Z AUTO 33002KT 10SM CLR 15/10 A2988 RMK AO2 SLP120 T01500098
KMXO 280455Z AUTO 00000KT 10SM CLR 06/04 A3011 RMK AO2
KMYF 280453Z AUTO 36005KT 10SM CLR 21/06 A2998 RMK AO2 SLP147 T02110056 TSNO
KMYL 280451Z AUTO 35004KT 10SM CLR 08/M02 A3022 RMK AO2 SLP227 T00831022
KMYP 280504Z AUTO OVC001 M05/M06 A3044 RMK AO2 PWINO
KMYR 280515Z AUTO 01011KT 10SM CLR 15/04 A2992 RMK AO1
KMYV 280453Z AUTO 16007KT 10SM CLR 22/13 A2991 RMK AO2 SLP130 T02220128
KMYZ 280455Z AUTO 36004KT 10SM CLR 06/03 A3015 RMK AO2
KMZG 280455Z AUTO 03022KT 10SM CLR 23/22 A2970 RMK A01
KMZH 280512Z AUTO 00000KT 10SM CLR 06/M02 A3013 RMK AO2
KMZZ 280455Z AUTO 05003KT 10SM CLR 06/01 A3010 RMK AO2 T00580010
KN03 280515Z AUTO 02003KT 10SM BKN029 OVC035 07/05 A2988 RMK AO2
KN38 280455Z AUTO 32014G20KT 10SM OVC055 06/02 A2989 RMK AO2
KN60 280452Z AUTO 28005KT 03/02 A3029 RMK AO1 SLP276 T00330017
KNAK 280454Z AUTO 30008KT 10SM CLR 11/03 A2987 RMK AO2 SLP116 T01060033 401440078
KNBC 280456Z AUTO 00000KT 10SM CLR 16/14 A2988 RMK AO2 SLP119 T01560139 402330133
KNBG 280455Z AUTO 12015G24KT 10SM -RA FEW010 FEW050 BKN110 20/19 A2973 RMK AO2 TSB10B11E26B31E47 SLP068 T02000189 PNO $
KNBT 280456Z AUTO 35003KT 10SM BKN090 A2988 RMK AO2 SLP124 $
KNCA 280456Z AUTO 34007KT 10SM CLR 13/04 A2990 RMK AO2 SLP126 T01280039 402170089
KNDZ 280456Z 02005KT 10SM -RA OVC022 19/16 A2985 RMK AO2 RAB52 SLP093 P0000 T01890161 $
KNEW 280453Z AUTO 13016G22KT 10SM SCT006 22/19 A2974 RMK AO2 RAE12 SLP062 P0001 T02170189 TSNO
KNFE 280456Z AUTO 32003KT 10SM CLR 11/03 A2987 RMK AO2 SLP116 T01060028 402110056
KNFG 280454Z VRB03KT 7SM CLR 21/01 A2995 RMK AO2 SLP141 T02060006
KNFL 280456Z 33003KT 10SM CLR 12/04 A3015 RMK AO2 SLP175 T01220039
KNFW 280452Z AUTO 35008KT 10SM OVC012 14/12 A2993 RMK AO2 CIG 008 N SLP117 T01390117 $
KNGP 280456Z AUTO 06010KT 10SM CLR 23/22 A2972 RMK AO2 SLP065 T02330217
KNGU 280459Z 33013KT 10SM CLR 13/03 A2989 RMK AO2 SLP123 T01330028 401890083
KNHK 280452Z AUTO 31014KT 10SM CLR 11/03 A2987 RMK AO2 SLP116 T01060033 401610039
KNID 280456Z 20009KT 10SM CLR 18/M12 A3002 RMK AO2 SLP153 T01831117 $
KNIP 280453Z 02009KT 10SM FEW010 OVC020 22/17 A2987 RMK AO2 SLP111 T02170172 402670211
KNJK 280456Z 28006KT 10SM CLR 22/M06 A2990 RMK AO2 SLP140 T02171061
KNJM 280457Z AUTO 36005KT 10SM CLR 13/04 A2990 RMK AO2 SLP127 T01280039 402170089
KNKT 280454Z 01006KT 10SM CLR 13/06 A2990 RMK AO2 SLP121 T01330056 402220089
KNKX 280455Z 35006KT 10SM CLR 21/04 A2997 RMK AO2 SLP143 T02110039
KNLC 280456Z 31005KT 10SM CLR 19/07 A2995 RMK AO2 SLP142 RH/41 T01940067
KNMM 280456Z 03006KT 10SM OVC230 14/08 A2989 RMK AO2 SLP130 T01440083 $
KNPA 280456Z AUTO 35004KT 8SM -RA OVC015 18/17 A2984 RMK AO2 SLP107 P0001 T01780172 $
KNQA 280450Z 03007KT 10SM SKC 13/06 A2997
KNQI 280456Z 09003KT 5SM BR FEW250 22/22 A2973 RMK AO2 SLP065 T02220222 $
KNQX 280453Z AUTO 14009KT 10SM CLR 28/24 A2984 RMK AO2 SLP104 T02830244 403170272 $
KNRB 280452Z AUTO 10006KT 10SM BKN031 BKN039 20/16 A2987 RMK AO2 SLP113 T02000156 402500194
KNRS 280456Z 17003KT 10SM FEW200 15/10 A2998 RMK AO2 SLP150 T01500100 $
KNSE 280456Z AUTO 01003KT 10SM OVC023 18/16 A2985 RMK AO2 SLP093 T01780161 $
KNSI 280457Z AUTO 29011KT 10SM CLR A2997 RMK AO2 SLPNO $
KNTD 280456Z 00000KT 10SM CLR 16/10 A2996 RMK AO2 SLP146 T01560100 CHINO N $
KNTU 280456Z 34013KT 10SM CLR 12/03 A2986 RMK AO2 SLP114 T01220033 401830056
KNUC 280056Z 27009KT 10SM CLR 21/14 A2992 RMK SLP130 LAST T02110139
KNUI 280453Z AUTO 30008G16KT 10SM CLR 11/03 A2987 RMK AO2 SLP115 T01060033 401720044
KNUQ 280456Z 34008KT 10SM CLR 14/11 A3003 RMK AO2 SLP170 T01390106
KNUW 280456Z 00000KT 10SM FEW100 SCT160 BKN250 13/10 A2993 RMK AO2 SLP138 T01280100 VISNO E
KNXF 280456Z AUTO 24013G26KT 160V320 9SM CLR 19/09 A2995 RMK AO2 PK WND 32028/0403 SLP226 T01890089 $
KNXP 280456Z AUTO 27010KT 10SM CLR 19/M07 A3007 RMK AO2 SLP154 T01941072 $
KNY0 280455Z AUTO 26007KT 10SM SCT037 BKN045 04/03 A2978 RMK AO2 T00430026
KNYC 280451Z AUTO VRB06KT 10SM SCT049 11/02 A2975 RMK AO2 SLP065 T01110017 401670094 $
KNYG 280456Z AUTO 33013G24KT 10SM CLR 09/01 A2993 RMK AO2 SLP137 T00940006 401670056
KNYL 280457Z 27007KT 10SM CLR 23/02 A2989 RMK AO2 SLP118 T02330022
KNZY 280452Z 00000KT 10SM CLR 18/12 A2996 RMK AO2 SLP144 T01780117 $
KO22 280455Z AUTO 00000KT 10SM CLR 14/12 A3002 RMK AO1
KO54 280515Z AUTO 03005KT 10SM CLR 14/04 A3003 RMK AO1
KO69 280455Z AUTO 30007KT 270V340 9SM OVC004 10/10 A3004 RMK AO1
KO86 280455Z AUTO 00000KT 10SM CLR 16/04 A3004 RMK AO1
KOAJ 280515Z AUTO 00000KT 10SM CLR 09/03 A2991 RMK AO1
KOAK 280453Z 28016KT 10SM FEW004 BKN008 12/10 A3002 RMK AO2 SLP165 T01170100
KOBE 280455Z AUTO 00000KT 5SM BR BKN070 BKN090 21/21 A2988 RMK AO2
KOCF 280515Z AUTO 03003KT 10SM BKN110 19/18 A2982 RMK AO1
KOCH 280515Z AUTO 08004KT OVC033 17/13 A2984 RMK AO1 LTG DSNT ALQDS
KOCQ 280455Z AUTO 00000KT 10SM CLR 03/01 A3016 RMK AO1 T00260005
KOCW 280455Z AUTO 00000KT 10SM CLR 09/05 A2990 RMK AO2 T00850048
KODO 280453Z AUTO 34016G21KT 10SM OVC023 08/02 A3012 RMK AO2 PK WND 35026/0355 SLP173 T00830022
KODX 280453Z AUTO 00000KT 10SM CLR 06/00 A3021 RMK AO2 SLP234 T00560000
KOEB 280514Z AUTO 00000KT 10SM CLR 02/00 A3010 RMK AO2 T00160000
KOEO 280455Z AUTO 11003KT 10SM CLR 06/01 A3017 RMK AO2 T00550006
KOFF 280508Z 32002KT 10SM CLR 07/03 A3017 RMK AO2A
KOFK 280456Z AUTO 29003KT 10SM CLR 05/01 A3019 RMK AO2 SLP227 T00500006
KOFP 280454Z AUTO 33004KT 10SM CLR 09/02 A2994 RMK AO2 SLP139 T00940017 401720044
KOGA 280455Z AUTO 03013KT 10SM OVC080 11/05 A3028 RMK AO2 T01090053
KOGB 280453Z AUTO 00000KT 10SM CLR 13/11 A2989 RMK AO2 SLP119 T01330106 402280111
KOGD 280453Z 17007KT 10SM CLR 11/04 A3022 RMK AO2 SLP208 T01060039
KOJA 280455Z AUTO 02012KT 10SM SCT046 SCT070 OVC080 08/07 A3008 RMK AO2
KOJC 280453Z AUTO 03003KT 10SM CLR 12/02 A3011 RMK AO2 SLP194 T01220022
KOKB 280452Z AUTO VRB05G18KT 10SM CLR 21/05 A2994 RMK AO2 SLP137 T02060050
KOKC 280452Z 01011KT 10SM BKN018 OVC050 10/08 A3004 RMK AO2 SLP171 T01000078 $
KOKK 280515Z AUTO 08005KT 10SM CLR 04/01 A3009 RMK AO1
KOKM 280455Z AUTO 01012G24KT 10SM -DZ SCT060 OVC085 10/09 A3003 RMK AO2 T01030090
KOKV 280455Z AUTO 29009KT 10SM CLR 07/M01 A2995 RMK AO2
KOKZ 280455Z AUTO 00000KT 10SM CLR 13/13 A2988 RMK AO2 T01330128
KOLE 280455Z AUTO 30008KT 10SM OVC038 02/02 A2993 RMK AO2
KOLF 280453Z AUTO 00000KT 10SM CLR 06/02 A3030 RMK AO2 SLP274 T00560022
KOLG 280455Z AUTO 00000KT 10SM CLR 03/00 A3014 RMK AO1
KOLM 280454Z AUTO 00000KT 10SM CLR 15/12 A2992 RMK AO2 SLP130 T01500117
KOLS 280454Z AUTO 02007KT 10SM CLR 17/M01 A3001 RMK AO2 SLP113 T01671006
KOLU 280515Z AUTO 00000KT 10SM CLR 08/M01 A3021 RMK AO1
KOLV 280515Z AUTO 04006KT 10SM CLR 12/04 A2998 RMK A01 P000
KOLY 280455Z AUTO 00000KT 10SM CLR 05/02 A3009 RMK AO2
KOLZ 280455Z AUTO 32007KT 10SM CLR 09/02 A3014 RMK AO2
KOMA 280452Z 34005KT 10SM BKN250 08/04 A3017 RMK AO2 SLP218 T00780039
KOMH 280455Z AUTO 29004KT 10SM CLR 08/01 A2996 RMK AO2
KOMK 280453Z AUTO 27006KT 10SM CLR 13/04 A3014 RMK AO2 SLP205 T01330044
KONA 280514Z AUTO 00000KT 10SM CLR 08/03 A3014 RMK AO2
KONL 280455Z AUTO 33010KT 10SM CLR 10/05 A3024 RMK AO2 T01020048
KONM 280455Z AUTO 10004KT 10SM OVC060 10/01 A3025 RMK AO2 T00950013
KONO 280453Z AUTO 00000KT 10SM CLR 12/M01 A3018 RMK AO2 SLP222 T01221006
KONP 280455Z AUTO 19011KT 10SM SCT004 13/11 A3004 RMK AO2
KONT 280453Z 28007KT 10SM CLR 20/01 A2997 RMK AO2 SLP134 T02000011
KONX 280450Z AUTO 26003KT 10SM CLR 10/05 A2988 RMK AO2 T00990045 401910055
KONZ 280514Z AUTO 04003KT 10SM CLR 05/02 A3009 RMK AO2
KOOA 280455Z AUTO 03003KT 10SM CLR 10/02 A3014 RMK AO2 T00960022
KOPF 280453Z AUTO 10006KT 10SM CLR 25/23 A2985 RMK AO2 LTG DSNT E AND SE SLP110 T02500228 403440228
KOPL 280455Z AUTO 05006KT 10SM SCT007 OVC011 16/15 A2978 RMK AO2 T01570147 PWINO
KOPN 280455Z AUTO 04003KT 10SM CLR 13/08 A2989 RMK AO2
KOQT 280453Z AUTO 00000KT 10SM CLR 09/04 A3000 RMK AO2 SLP156 T00940039 402000050
KORB 280513Z AUTO 00000KT 10SM CLR 06/M02 A3012 RMK AO2
KORC 280455Z AUTO 00000KT 10SM CLR 10/M03 A3019 RMK AO2
KORD 280451Z 00000KT 10SM CLR 04/00 A3011 RMK AO2 SLP198 T00440000
KORE 280452Z AUTO 34008KT 10SM CLR 08/01 A2967 RMK AO2 SLP048 T00780006 401280056
KORF 280451Z 32009G15KT 10SM CLR 12/02 A2988 RMK AO2 SLP116 T01170017 401670050
KORG 280455Z AUTO 02007KT 10SM BKN009 OVC021 18/17 A2980 RMK AO2 P0001 T01820165
KORH 280454Z AUTO 34011KT 10SM BKN040 07/01 A2964 RMK AO2 SLP040 T00720011 401280067
KORL 280453Z 16004KT 10SM BKN120 22/18 A2986 RMK AO2 SLP115 T02220178 402720222
KORS 280515Z AUTO 00000KT 10SM CLR 12/10 A2990 RMK AO2
KOSA 280455Z AUTO 34007KT 10SM OVC049 A2996 RMK AO1
KOSC 280514Z AUTO 35004KT 10SM OVC040 07/01 A3010 RMK AO2 T00760016
KOSH 280453Z 00000KT 10SM CLR 06/01 A3015 RMK AO2 SLP212 T00610006
KOSU 280453Z AUTO 01005KT 10SM CLR 04/00 A3007 RMK AO2 SLP186 T00390000 401280017
KOTG 280515Z AUTO 29004KT 10SM CLR 07/M06 A3019 RMK AO1
KOTH 280515Z 19003KT 10SM FEW016 13/12 A3009 RMK AO1
KOTM 280453Z AUTO 00000KT 10SM CLR 10/02 A3013 RMK AO2 SLP204 T01000017
KOUN 280455Z AUTO 02011KT 10SM OVC012 08/08 A3005 RMK AO2
KOVE 280453Z AUTO 08004KT 10SM CLR 21/12 A2992 RMK AO2 SLP133 T02110122
KOVL 280514Z AUTO 00000KT 10SM CLR 06/M05 A3016 RMK AO2
KOVS 280453Z AUTO 00000KT 10SM CLR 06/02 A3011 RMK AO2 SLP199 T00610017
KOWA 280515Z AUTO 00000KT 10SM CLR 06/M03 A3016 RMK AO2
KOWB 280456Z AUTO 03005KT 10SM CLR 11/04 A3006 RMK AO2 T01110038 401830055 SLP178
KOWD 280453Z AUTO 08004KT 9SM -RA SCT032 BKN038 OVC045 07/06 A2964 RMK AO2 SLP035 P0001 T00720061 401560039
KOWP 280455Z AUTO 00000KT 10SM -RA OVC075 12/10 A3008 RMK AO2 P0004 T01150095
KOXB 280453Z AUTO 31006KT 10SM CLR 09/03 A2982 RMK AO2 SLP096 T00940028 401610017 TSNO
KOXC 280515Z 32008KT 10SM SCT021 BKN026 OVC033 08/03 A2970 RMK AO1
KOXI 280455Z AUTO 00000KT 10SM CLR 01/M02 A3010 RMK AO1
KOXR 280451Z AUTO 07003KT 10SM CLR 16/11 A2995 RMK AO2 SLP141 T01610106
KOXV 280455Z AUTO 30005KT 10SM CLR 10/02 A3013 RMK AO2
KOZA 280455Z AUTO 32016G23KT 10SM CLR 11/02 A3005 RMK AO2
KOZR 280458Z AUTO 02006KT 10SM CLR 18/15 A2983 RMK AO2 SLP102 T01760147
KOZW 280514Z AUTO 02003KT 10SM BKN050 04/01 A3010 RMK AO2 T00350010
KP08 280455Z AUTO 19006KT 10SM CLR 20/04 A2994 RMK AO2
KP28 280456Z AUTO 35003KT 08/05 A3012 RMK AO1 SLP201 T00830050
KP53 280456Z AUTO 18003KT 01/M02 A3016 RMK AO1 SLP219 T00061017 400560000
KP58 280451Z AUTO 35005KT 07/02 A3008 RMK AO1 SLP193 T00720022 400780033
KP59 280451Z AUTO 24004KT 01/M02 A3015 RMK AO1 SLP218 T00111017 400610011
KP60 280456Z AUTO VRB04KT M02/M05 A3037 RMK AO1 SLP286 T10171050
KP68 280453Z AUTO 18004KT 06/M09 A3025 RMK AO1 SLP213 T00561089
KP69 280452Z AUTO 35003KT 09/05 A3022 RMK AO1 SLP236 T00890050
KP92 280453Z AUTO 12007KT 20/19 A2971 RMK AO1 SLP062 T02000189
KPAE 280453Z AUTO 00000KT 10SM CLR 16/11 A2994 RMK AO2 SLP139 T01610111
KPAH 280453Z AUTO 03010KT 10SM CLR 11/04 A3003 RMK AO2 SLP169 T01110044
KPAM 280458Z AUTO 02006KT 10SM -RA OVC003 20/19 A2980 RMK AO2 RAE28DZB28E55RAB55 SLP094 P0001 T02000194 $
KPAN 280515Z AUTO 02007KT 10SM CLR 13/01 A3012 RMK AO2
KPAO 280247Z 33017KT 10SM SKC 16/13 A2995
KPBF 280453Z AUTO 05008KT 10SM CLR 14/07 A2994 RMK AO2 SLP138 T01440067
KPBG 280453Z AUTO 01011G19KT 10SM OVC075 08/04 A2982 RMK AO2 SLP099 T00830044 401170050
KPBH 280455Z AUTO 00000KT 10SM CLR 02/M01 A3014 RMK AO2 T00221015
KPBI 280453Z 00000KT 10SM FEW065 BKN250 24/23 A2986 RMK AO2 SLP111 T02390228 403390228 $
KPBX 280455Z AUTO 01006KT 10SM OVC060 09/02 A3001 RMK AO2 T00900017 401480046
KPCM 280515Z AUTO 13004KT 10SM CLR 22/19 A2984 RMK AO2
KPCW 280512Z AUTO 02003KT 10SM CLR 06/02 A3008 RMK AO2 $
KPCZ 280455Z AUTO 00000KT 10SM CLR 07/01 A3016 RMK AO2 T00700014 402120010
KPDC 280455Z AUTO 00000KT 10SM CLR 07/02 A3012 RMK AO2 T00720020
KPDK 280453Z AUTO 00000KT 10SM CLR 12/04 A2989 RMK AO2 SLP116 T01170044 402110100
KPDT 280453Z AUTO 14006KT 10SM CLR 13/01 A3008 RMK AO2 SLP178 T01330006
KPDX 280453Z 11009KT 10SM CLR 21/09 A2993 RMK AO2 SLP133 T02060089 $
KPEA 280455Z AUTO 00000KT 10SM CLR 10/05 A3015 RMK AO2 T01000045 402000011
KPEO 280453Z AUTO 31011G19KT 10SM OVC060 08/03 A2989 RMK AO2 SLP127 T00830028 401000056
KPEQ 280455Z AUTO 33019G24KT 10SM BKN048 10/01 A3019 RMK AO2 T00970010
KPEX 280514Z AUTO 21004KT 10SM CLR 04/M01 A3016 RMK AO2 T00371008
KPEZ 280455Z AUTO 35004KT 10SM CLR 22/16 A2978 RMK AO2 T02150162
KPGD 280453Z AUTO 05005KT 10SM FEW075 FEW095 22/18 A2988 RMK AO2 SLP118 T02220183 403330222
KPGV 280455Z AUTO 00000KT 10SM CLR 08/07 A2993 RMK AO2
KPHD 280453Z AUTO 00000KT 10SM OVC055 07/02 A3006 RMK AO2 SLP183 T00670017 400940022
KPHF 280454Z 32009KT 10SM CLR 12/02 A2989 RMK AO2 SLP121 T01170022 401940044
KPHL 280454Z 32012KT 10SM BKN075 OVC100 12/01 A2980 RMK AO2 SLP092 T01170011 401560089
KPHN 280456Z AUTO 32004KT 10SM CLR 03/00 A3010 RMK AO2
KPHP 280455Z AUTO 00000KT 10SM OVC090 07/06 A3034 RMK AO2 SLP275 T00720056
KPHT 280455Z AUTO 02003KT 10SM CLR 07/04 A3002 RMK
KPHX 280451Z 00000KT 10SM FEW085 26/04 A2988 RMK AO2 SLP104 T02610044
KPIA 280454Z 00000KT 10SM CLR 09/02 A3013 RMK AO2 SLP202 T00940022
KPIB 280515Z AUTO 03007KT 10SM OVC036 16/11 A2983 RMK AO1
KPIE 280453Z AUTO 10004KT 10SM FEW100 22/20 A2982 RMK AO2 SLP098 T02220200 403060222
KPIH 280453Z AUTO 00000KT 10SM CLR 06/M04 A3026 RMK AO2 SLP239 T00561044
KPIL 280506Z AUTO 01007KT 5SM BR BKN010 24/22 A2972 RMK AO2 CIG 007V012 T02390217
KPIR 280453Z AUTO 34008KT 10SM OVC100 09/06 A3031 RMK AO2 SLPNO T00890056
KPIT 280451Z 32007KT 10SM BKN060 05/02 A3002 RMK AO2 SLP178 T00500017 400940017
KPKB 280453Z AUTO 36003KT 10SM OVC055 06/00 A3009 RMK AO2 SLP189 T00610000 401330011
KPKD 280453Z AUTO 35008KT 10SM CLR 13/01 A3016 RMK AO2 SLP214 T01330006
KPKV 280500Z AUTO 06010KT 10SM CLR 22/20 A2974 RMK AO2 T02170200
KPLN 280454Z AUTO 34006KT 10SM OVC041 07/01 A3014 RMK AO2 SLP209 T00720011 401220044
KPLU 280455Z AUTO 00000KT 10SM CLR 14/13 A2993 RMK AO2
KPMD 280453Z AUTO 15007KT 10SM CLR 16/M09 A3004 RMK AO2 SLP154 T01561089
KPMP 280453Z AUTO 07003KT 10SM CLR 26/22 A2985 RMK AO2 SLP110 T02560217 403500239
KPMV 280455Z AUTO 01003KT 10SM CLR 13/M01 A3017 RMK AO2 T01271015
KPNA 280455Z AUTO 12003KT 10SM SCT044 BKN065 OVC100 05/01 A3034 RMK AO2
KPNC 280453Z AUTO 25003KT 9SM SCT120 10/09 A3010 RMK AO2 SLP190 T01000094 TSNO
KPNE 280454Z AUTO 32009KT 10SM OVC080 12/01 A2979 RMK AO2 SLP088 T01170006 401670067 TSNO
KPNM 280515Z AUTO 00000KT 10SM CLR 06/00 A3013 RMK AO2
KPNS 280453Z AUTO 01003KT 10SM -RA OVC018 18/17 A2985 RMK AO2 RAE0359B19 SLP108 P0001 T01780167
KPNT 280455Z AUTO 00000KT 10SM CLR 05/02 A3013 RMK AO2 T00460021
KPOB 280458Z AUTO 00000KT 10SM BKN090 09/04 A2991 RMK AO2 SLP131 T00890041 402170066
KPOC 280347Z 29006KT 10SM CLR 20/00 A2999 RMK LAST
KPOE 280458Z AUTO VRB06KT 10SM OVC026 17/13 A2979 RMK AO2 SLPNO T01740134
KPOF 280453Z AUTO 02005KT 10SM CLR 12/05 A3003 RMK AO2 SLP168 T01220050
KPOU 280453Z 31004KT 10SM OVC033 11/04 A2971 RMK AO2 SLP059 T01060044 401560072
KPOV 280515Z AUTO 34003KT 10SM OVC055 04/01 A3005 RMK AO2 T00430013
KPOY 280455Z AUTO 10003KT 10SM CLR 07/M02 A3030 RMK AO2
KPPA 280455Z AUTO 03010KT 10SM BKN021 BKN028 OVC044 05/04 A3017 RMK AO2 T00470040
KPPF 280452Z AUTO 03004KT 10SM CLR 13/05 A3008 RMK AO2 SLP184 T01280050
KPPO 280455Z AUTO 32004KT 10SM SCT110 03/01 A3011 RMK AO2 T00300012
KPPQ 280455Z AUTO 30004KT 10SM CLR 09/04 A3011 RMK AO2 T00870040
KPQI 280515Z AUTO 02014KT 10SM BKN043 BKN100 03/M02 A2977 RMK AO1
KPQL 280512Z AUTO 07007KT 6SM -RA BR BKN009 BKN012 BKN120 17/16 A2981 RMK AO2 CIG 006V012 P0000 T01670161 TSNO
KPQN 280501Z AUTO 05002KT 10SM CLR 11/M04 A3019 RMK AO2
KPRB 280453Z AUTO 00000KT 10SM CLR 19/06 A2999 RMK AO2 SLP151 T01940061 TSNO
KPRC 280453Z 00000KT 10SM CLR 13/02 A3010 RMK AO2 SLP141 T01280022
KPRG 280455Z AUTO 01003KT 10SM CLR 06/02 A3010 RMK AO2 T00610023
KPRN 280456Z AUTO 04005KT 10SM CLR 16/10 A2987 RMK AO2 SLP111 T01560100
KPRO 280455Z AUTO 32003KT 10SM CLR 10/02 A3016 RMK AO2 T01020019
KPRS 280455Z AUTO 34016G22KT 10SM CLR 15/02 A3008 RMK AO2 T01450016
KPRX 280515Z 10SM SCT038 BKN047 12/07 A2995 RMK AO1 P0001
KPSC 280453Z AUTO 33007KT 10SM CLR 10/06 A3008 RMK AO2 SLP185 T01000061
KPSF 280454Z AUTO 33009KT 10SM BKN045 07/04 A2969 RMK AO2 RAB11E24 SLP047 P0000 T00720039 401220039
KPSK 280455Z AUTO 36003KT 10SM SCT046 SCT050 OVC070 08/02 A2998 RMK AO2 T00800015
KPSM 280458Z 01014G19KT 10SM -RA OVC040 07/04 A2963 RMK AO2A SLP036 P0001 T00710043 401430065
KPSN 280455Z AUTO 07008KT 5SM RA SCT032 SCT042 BKN070 A2984 RMK AO2 P0060
KPSO 280515Z AUTO 00000KT 10SM CLR 04/03 A3026 RMK AO2 T00360026
KPSP 280453Z 27003KT 10SM CLR 26/M06 A2994 RMK AO2 SLP137 T02611056
KPSX 280453Z AUTO 04008KT 10SM CLR 21/19 A2974 RMK AO2 SLP072 T02110194
KPTB 280455Z AUTO 33003KT 10SM CLR 08/02 A2993 RMK AO2 T00790019 401900025
KPTK 280453Z AUTO 00000KT 10SM CLR 03/M01 A3009 RMK AO2 SLP197 T00281006 401000022
KPTS 280455Z AUTO 04005KT 10SM CLR 13/06 A3008 RMK AO2 T01330063
KPTT 280455Z AUTO 01007KT 10SM CLR 07/03 A3016 RMK AO2
KPTV 280515Z AUTO 12007KT 10SM CLR 18/08 A2996 RMK AO1
KPTW 280454Z AUTO 32007KT 10SM FEW037 OVC080 09/02 A2982 RMK AO2 SLP096 T00940022 401390033
KPUB 280453Z AUTO 01011KT 10SM OVC065 09/03 A3031 RMK AO2 SLP252 T00890033
KPUC 280453Z AUTO 01008KT 10SM CLR 09/01 A3023 RMK AO2 SLP212 T00890011 TSNO
KPUJ 280455Z AUTO 36008KT 10SM CLR 14/05 A2989 RMK AO2
KPUW 280453Z AUTO 06006KT 10SM CLR 10/00 A3018 RMK AO2 SLP224 T01000000
KPVB 280455Z AUTO 00000KT 10SM CLR 10/01 A3010 RMK AO1 T01040010
KPVC 280515Z 02011G18KT 10SM FEW020 BKN028 OVC034 A2962 RMK AO1
KPVD 280451Z 03013KT 9SM -RA OVC040 07/05 A2964 RMK AO2 RAB01 SLP038 P0003 T00720050 401610072
KPVE 280455Z AUTO 02006KT 10SM CLR 09/03 A2997 RMK
KPVF 280455Z AUTO 12004KT 10SM CLR 17/10 A3005 RMK AO1
KPVG 280515Z AUTO 00000KT 10SM CLR 08/02 A2989 RMK AO1
KPVJ 280455Z AUTO 01006KT 10SM SCT055 SCT075 OVC090 10/09 A3000 RMK AO2 T00960088
KPVU 280515Z AUTO 00000KT 10SM CLR 10/03 A3024 RMK AO1
KPVW 280455Z AUTO 01017G22KT 10SM OVC009 05/04 A3010 RMK AO2 T00500041
KPWA 280453Z AUTO 02009KT 10SM FEW007 BKN050 OVC070 10/08 A3006 RMK AO2 SLP177 T01000083
KPWC 280514Z AUTO 31005KT 10SM CLR 07/02 A3017 RMK AO2
KPWG 280515Z AUTO 01013G19KT 10SM OVC011 17/12 A2989 RMK AO1
KPWK 280452Z AUTO 00000KT 10SM CLR 04/01 A3013 RMK AO2 SLP205 T00390006
KPWM 280451Z AUTO 03020G31KT 10SM FEW035 SCT050 OVC060 08/02 A2965 RMK AO2 PK WND 02031/0446 RAB0358E21 SLP041 P0000 T00830022 401440061
KPWT 280515Z AUTO 00000KT 10SM CLR 16/12 A2995 RMK AO1
KPXE 280455Z AUTO 00000KT 10SM CLR 17/11 A2988 RMK AO2 T01670106
KPYM 280501Z AUTO 36008KT 7SM -RA FEW016 SCT023 OVC029 06/05 A2962 RMK AO2 P0001 T00610050
KPYX 280455Z AUTO 00000KT 10SM OVC080 06/05 A3016 RMK AO2 P0002 T00620051
KPZQ 280515Z AUTO 01004KT 10SM OVC039 05/02 A3013 RMK AO2 T00520020
KQAJ 280455Z AUTO 34008KT 9999 FEW190 29/M06 A2997 RMK AO2 SLP141 T02861057
KQAY 280508Z AUTO 28004KT 6000 HZ FEW005 30/M04 A2996 RMK AO2 SLP142 $
KQBF 280455Z AUTO 00000KT 2SM HZ CLR 28/10 A3002 RMK AO2 SLP144 T02750100 $
KQBL 280456Z AUTO 01001KT 10SM SHRA SCT019 BKN130 19/17 A2985 RMK AO2 LTG DSNT SW PRESRR SLP113 P0001 T01860172 402360176
KQCL 280455Z AUTO VRB02KT 8000 HZ CLR 27/05 A3002 RMK AO2 SLP108 T02660048 $
KQEI 280510Z AUTO 31008G12KT 9999 CLR 26/M04 A2992 RMK A02 TSNO
KQEJ 280510Z AUTO 32002KT 9999 CLR 25/M05 A2988 RMK A02 TSNO
KQEL 280510Z AUTO 22004KT 9999 CLR 26/M05 A2994 RMK A02 TSNO
KQEN 280510Z AUTO 9999 CLR M03/M05 / RMK A02 TSNO
KQEP 280510Z AUTO 20002KT 9999 CLR 25/01 A2985 RMK A02 TSNO
KQEQ 280510Z AUTO 19006KT 9999 CLR 26/M01 A2976 RMK A02 TSNO
KQER 280510Z AUTO 21002KT 8000 /OVC011 25/M04 / RMK A02 TSNO
KQEV 280510Z AUTO 10003KT 9999 CLR 24/05 A2991 RMK A02 TSNO
KQEW 280510Z AUTO 13001KT 9999 CLR 23/10 A2991 RMK A02 TSNO
KQEX 280510Z AUTO 17006G18KT 9999 CLR 24/11 A2995 RMK A02 TSNO
KQEY 280510Z AUTO 06005KT 9999 BKN110 23/07 A2991 RMK A02 TSNO
KQFA 280455Z AUTO VRB01KT 9999 FEW200 26/M04 A2992 RMK AO2 SLP130 T02631037 $
KQFB 280510Z AUTO 13004KT 9999 BKN035 23/11 A2998 RMK A02 TSNO
KQFG 280455Z AUTO VRB02KT 9999 CLR 27/12 A2997 RMK AO2 SLP116 T02720115
KQFQ 280455Z AUTO VRB06KT 10SM FEW200 26/M01 A2988 RMK AO2 SLP117 T02551007 $
KQFT 280510Z AUTO 23006KT 9999 FEW065 26/M00 A2988 RMK A02 TSNO
KQFU 280510Z AUTO 36002KT 2800 // CLR 26/M06 A2992 RMK A02 TSNO
KQFV 280510Z AUTO 16002KT 9999 CLR 24/M04 A2991 RMK A02 TSNO
KQFX 280510Z AUTO 23004KT 9999 FEW065 26/00 A2990 RMK A02 TSNO
KQGV 280455Z 34006KT 9999 SCT080 FEW200 29/M06 A2997 RMK SCT080 DU SLPNO QNH1015 PA +427
KQGX 280458Z AUTO 28009KT 9999 CLR 27/21 A2992 RMK AO2 SLP134 T02710206
KQHN 280455Z VRB03KT 9999 CLR 23/M11 A3009 RMK SLP132 Q1019 DA4833
KQHY 280456Z AUTO 03002KT 10SM -SHRA BKN019 BKN110 19/17 A2986 RMK AO2 SHRAB08E25SHRAB39 CIG 019V110 SLP118 P0001 T01860173 402350177
KQIR 280458Z 31008KT 9999 CLR 28/06 A2993 RMK AO2A SLP136 T02770064 $
KQL5 280455Z 06002KT 8000 HZ FEW100 29/13 A2993 RMK SLP106 T02870133 $
KQND 280455Z AUTO 00000KT CLR 24/M13 A2980 RMK AO2 SLP072 T02361126 PWINO TSNO $
KQQY 280459Z AUTO 09001KT 9999 -SHRA FEW031 BKN110 BKN120 22/21 A2998 RMK AO2 SLP130
KQRH 280456Z AUTO 19003KT 9999 FEW020 30/23 A2994 RMK AO2 SLP132 T02970227
KQSA 280458Z 23006KT 9999 CLR 22/M03 A3007 RMK AO2A SLP097 T02231029 $
KQSF 280455Z AUTO VRB02KT 9999 FEW190 23/M10 A3020 RMK AO2 SLP156 T02291103 $
KQSN 280455Z AUTO VRB02KT 9999 CLR 20/M13 A3014 RMK AO2 SLP142 T02021132 TSNO $
KQTZ 280355Z 28001KT 8000 FU HZ SCT200 23/M01 A2995 RMK SLP141 WND/ALSTG/SLP ESTMD
KQWM 280455Z 34008KT 9999 FEW013 SCT100 29/M06 A2998 RMK FU FEW013 SLP144 QNH1015
KQXT 280455Z 20001KT 9999 CLR 25/M06 A3007 RMK SLP149 WND DATA ESTMD ALSTG/SLP ESTMD Q1018
KRAC 280453Z AUTO 33006KT 10SM CLR 05/M01 A3013 RMK AO2 SLP207 T00501006
KRAL 280453Z AUTO 26004KT 10SM CLR 21/M01 A2998 RMK AO2 SLP136 T02111006
KRAP 280452Z AUTO 33004KT 10SM OVC049 06/03 A3035 RMK AO2 SLP292 T00560033
KRAS 280455Z AUTO 05013KT 10SM CLR 23/21 A2971 RMK AO2 T02280212
KRBD 280453Z 03012G21KT 10SM FEW015 13/11 A2988 RMK AO2 SLP114 T01330111
KRBG 280453Z AUTO 00000KT 10SM CLR 20/13 A2997 RMK AO2 SLP147 T02000128
KRBL 280454Z AUTO 28007KT 10SM CLR 21/09 A2990 RMK AO2 SLP122 T02110094
KRBO 280455Z 7SM CLR 23/23 A2973 RMK AO2 T02310231
KRBW 280515Z AUTO 00000KT 10SM CLR 12/11 A2989 RMK AO2
KRCA 280458Z AUTO 32005KT 10SM BKN039 04/02 A3034 RMK AO2 SLP296 T00430019 $
KRCE 280455Z AUTO 02011KT 10SM 09/09 A3007 RMK AO2
KRCM 280455Z AUTO 00000KT 10SM CLR 11/02 A3011 RMK AO2
KRCR 280455Z AUTO 00000KT 10SM CLR 06/02 A3010 RMK AO2
KRCV 280515Z AUTO 36003KT 10SM CLR 01/M03 A3032 RMK AO2 T00051027
KRCX 280455Z AUTO 00000KT 10SM CLR 06/M01 A3017 RMK AO2 T00611009
KRCZ 280455Z AUTO 00000KT 10SM CLR 10/02 A2993 RMK AO2 T01040021
KRDD 280453Z AUTO 03004KT 10SM CLR 21/11 A2990 RMK AO2 SLP122 T02110111
KRDG 280454Z 33008KT 10SM OVC032 09/03 A2983 RMK AO2 SLP108 T00940028 401390044
KRDK 280455Z AUTO 00000KT 10SM CLR 08/03 A3017 RMK AO2
KRDM 280456Z AUTO 20008KT 10SM CLR 13/03 A3008 RMK AO2 SLP174 T01280033
KRDR 280458Z AUTO 04007KT 10SM BKN007 OVC014 08/08 A3026 RMK AO2 RAE49DZB49E54 BKN V OVC SLP255 P0003 T00820075
KRDU 280451Z 00000KT 10SM FEW250 08/02 A2993 RMK AO2 SLP135 T00780022 402000039
KREO 280452Z AUTO 04006KT 09/M03 A3019 RMK AO2 SLP217 T00941028 PWINO TSNO
KRFD 280454Z 00000KT 10SM CLR 07/01 A3015 RMK AO2 SLP211 T00720011
KRFI 280455Z AUTO 08006G16KT 10SM SCT045 17/12 A2985 RMK AO2 LTG DSNT E AND NW T01650122
KRGK 280511Z AUTO 00000KT 10SM CLR 06/00 A3015 RMK AO2
KRHI 280453Z AUTO 01003KT 10SM CLR 06/M04 A3016 RMK AO2 SLP219 T00611039
KRHP 280455Z AUTO 00000KT 10SM CLR 06/03 A2995 RMK AO2 T00610032
KRHV 280450Z 32008KT 10SM SKC 16/12 A3002 RMK LAST
KRIC 280454Z 35011KT 10SM CLR 10/02 A2992 RMK AO2 SLP137 T01000017 401830056
KRIL 280453Z AUTO 08004KT 10SM OVC085 10/06 A3021 RMK AO2 SLP196 T01000056
KRIV 280458Z AUTO 35003KT 10SM CLR 18/00 A3000 RMK AO2 SLPNO T01761005
KRIW 280453Z AUTO 27006KT 10SM CLR 06/01 A3033 RMK AO2 SLP269 T00560011
KRKD 280515Z AUTO 02011G17KT 10SM BKN030 OVC036 06/00 A2964 RMK AO1
KRKP 280453Z AUTO 05010KT 10SM CLR 24/21 A2972 RMK AO2 SLP066 T02390211
KRKR 280455Z AUTO 36007KT 10SM -RA OVC085 15/04 A2999 RMK AO2 T01450044
KRKS 280454Z AUTO 06012KT 10SM FEW060 03/01 A3032 RMK AO2 SLP257 T00330006
KRME 280453Z AUTO 30004KT 10SM OVC080 04/03 A2986 RMK AO2 SLP113 T00440033 401110033
KRMG 280453Z AUTO 34005KT 10SM CLR 11/06 A2990 RMK AO2 SLP121 T01110061 402060072
KRMN 280455Z AUTO 30008KT 10SM CLR 08/00 A2997 RMK AO2 T00790001
KRMY 280513Z AUTO 19005KT 10SM CLR 01/00 A3009 RMK AO2 T00061003
KRNC 280515Z AUTO 36004KT 10SM CLR 07/05 A2997 RMK
KRND 280458Z AUTO 33007KT 10SM CLR 20/16 A2980 RMK AO2 SLP085 T01980160
KRNH 280455Z AUTO 00000KT 10SM CLR 06/02 A3015 RMK AO2 T00610016
KRNM 280453Z AUTO 00000KT 10SM CLR 13/03 A3000 RMK AO2 SLP146 T01330033
KRNO 280455Z 18005KT 10SM FEW200 15/M04 A3018 RMK AO2 SLP187 T01501039
KRNP 280515Z AUTO 00000KT 10SM OVC050 06/00 A3012 RMK AO2 T00610004
KRNT 280453Z AUTO 00000KT 10SM CLR 17/12 A2992 RMK AO2 SLP135 T01670117
KRNV 280455Z AUTO 02006KT 10SM CLR 13/10 A2993 RMK AO2 T01310098
KROA 280454Z 00000KT 10SM FEW045 08/01 A2998 RMK AO2 SLP150 T00830006 401560039
KROC 280454Z 31006KT 10SM BKN060 OVC080 08/03 A2994 RMK AO2 SLP145 BINOVC T00780028 401170050
KROG 280457Z AUTO 03008KT 10SM CLR 13/03 A3004 RMK AO2 SLP170 T01280028 401720100 TSNO PNO $
KROS 280516Z AUTO 00000KT 10SM SCT110 06/M01 A3013 RMK AO2 T00601010
KROW 280451Z AUTO 35013KT 10SM FEW034 BKN060 OVC070 08/01 A3024 RMK AO2 SLP215 T00780011
KROX 280514Z AUTO 34006KT 10SM -DZ BKN050 OVC085 08/06 A3023 RMK AO2
KRPD 280455Z AUTO 00000KT 10SM CLR 05/02 A3016 RMK AO2 T00460022
KRPH 280455Z AUTO 02007KT 10SM SCT010 BKN015 OVC110 13/11 A2994 RMK AO2 T01250111
KRPJ 280455Z AUTO 00000KT 10SM CLR 05/02 A3013 RMK AO2 T00460015
KRQB 280513Z AUTO 00000KT 10SM CLR 03/00 A3010 RMK AO2 T00320001
KRQE 280453Z AUTO VRB03KT 10SM BKN075 OVC090 09/02 A3019 RMK AO2 SLP156 T00940022 TSNO
KRQO 280515Z AUTO 02013KT OVC048 09/07 A3007 RMK AO2 PWINO
KRRL 280455Z AUTO 00000KT 10SM CLR 03/M01 A3014 RMK AO2 T00261012
KRRT 280514Z AUTO 00000KT 10SM DZ SCT043 BKN050 OVC060 08/06 A3023 RMK AO2
KRSL 280453Z AUTO 33005KT 10SM CLR 08/02 A3016 RMK AO2 SLP216 T00780022
KRSP 280454Z AUTO 10SM SCT039 BKN049 OVC055 05/01 RMK AO2 SLPNO T00500011 401170039 $
KRST 280454Z AUTO 32006KT 10SM CLR 12/M03 A3015 RMK AO2 SLP212 T01221028
KRSV 280455Z AUTO 02008KT 10SM CLR 07/03 A3009 RMK AO2 T00720025
KRSW 280453Z 05007KT 10SM CLR 24/20 A2985 RMK AO2 SLP106 T02440200 403330239
KRTN 280453Z AUTO 03017KT 10SM BKN037 OVC048 06/M01 A3027 RMK AO2 SLP223 T00611011
KRTS 280455Z AUTO 00000KT 10SM CLR 12/M03 A3020 RMK AO2
KRUE 280453Z AUTO 04006KT 10SM SCT120 15/04 A2998 RMK AO2 SLP148 T01500044
KRUQ 280455Z AUTO 00000KT 10SM SCT080 05/03 A2993 RMK AO2 T00510030
KRUT 280515Z AUTO 01006KT 10SM OVC041 06/04 A2974 RMK AO1
KRVS 280453Z 10SM -RA BKN060 OVC070 11/09 A3007 RMK AO2 SLP190 P0004 T01110089 $
KRWF 280453Z AUTO 28003KT 10SM CLR 11/M03 A3016 RMK AO2 SLP213 T01111033
KRWI 280453Z AUTO 00000KT 10SM CLR 08/04 A2992 RMK AO2 SLP131 T00780044 402110050
KRWL 280453Z AUTO 03010KT 10SM OVC021 04/01 A3033 RMK AO2 SLP247 T00440011
KRWV 280455Z AUTO 34007KT 10SM FEW031 FEW050 20/17 A2985 RMK AO2
KRXE 280453Z AUTO 05003KT 10SM CLR 08/M01 A3027 RMK AO2 SLP244 T00781006
KRYN 280246Z 31006KT 10SM 23/06 A2993
KRYT 280453Z AUTO 26006KT 10SM FEW048 OVC060 07/02 A2988 RMK AO2 SLP123 T00720022 401330050 $
KRYV 280455Z AUTO 08003KT 10SM CLR 04/01 A3013 RMK AO2 T00370011
KRYW 280455Z AUTO 35007KT 10SM CLR 18/15 A2986 RMK AO2 T01780146
KRYY 280247Z 36005KT 10SM BKN180 14/03 A2992
KRZN 280450Z AUTO 00000KT 10SM CLR 05/M03 A3014 RMK AO2 T00481026
KRZR 280455Z AUTO 00000KT 10SM CLR 09/04 A2996 RMK
KRZT 280515Z AUTO 00000KT 10SM CLR 03/01 A3008 RMK AO2
KS25 280455Z AUTO 24003KT 10SM CLR 03/02 A3030 RMK AO2
KS39 280500Z AUTO 15009KT 10SM CLR 18/M02 A3008 RMK AO2
KSAA 280455Z AUTO 25006KT 10SM OVC049 02/01 A3031 RMK AO2
KSAC 280453Z AUTO 19004KT 10SM CLR 22/09 A2992 RMK AO2 SLP131 T02170094
KSAD 280451Z AUTO 14008KT 10SM SCT095 19/04 A3002 RMK AO2 SLP132 T01940044
KSAF 280453Z AUTO 00000KT 10SM BKN100 05/00 A3023 RMK AO2 SLP198 T00500000
KSAN 280451Z 01004KT 10SM CLR 22/05 A2998 RMK AO2 SLP150 T02220050
KSAR 280455Z AUTO 06004KT 10SM CLR 09/04 A3009 RMK AO2 T00850041
KSAT 280451Z 30004KT 10SM FEW250 21/14 A2981 RMK AO2 SLP076 T02110139
KSAV 280453Z AUTO 00000KT 10SM CLR 17/15 A2988 RMK AO2 SLP119 T01720150 402390144 TSNO
KSAW 280457Z AUTO 00000KT 10SM CLR 00/M02 A3015 RMK AO2 T00001019
KSAZ 280514Z AUTO 00000KT 10SM CLR 06/M01 A3014 RMK AO2
KSBA 280453Z 13004KT 10SM CLR 19/08 A2993 RMK AO2 SLP134 T01940078
KSBD 280350Z 23008KT 10SM SKC 22/-02 A2995
KSBM 280453Z AUTO 33004KT 10SM CLR 02/M01 A3014 RMK AO2 SLP212 T00171006
KSBN 280454Z 00000KT 10SM CLR 03/00 A3011 RMK AO2 SLP201 T00280000 401280022
KSBP 280456Z AUTO 30007KT 9SM CLR 12/11 A3002 RMK AO2 SLP163 T01220106
KSBS 280515Z AUTO 10003KT 10SM OVC080 05/04 A3027 RMK AO1 T00480036
KSBY 280454Z AUTO 30008KT 10SM SCT070 10/03 A2983 RMK AO2 SLP104 T01000033 401610017
KSCD 280455Z AUTO 00000KT 10SM CLR 12/12 A2990 RMK AO2 T01180117
KSCF 272325Z AUTO 09029KT 3SM BR SCT004 BKN038 OVC055 23/21 A2963 RMK A01
KSCH 280146Z 31006KT 10SM BKN040 OVC048 11/03 A2975
KSCK 280455Z AUTO 30005KT 10SM CLR 21/11 A2994 RMK AO2 SLP138 T02110106
KSCR 280455Z AUTO 36005KT 10SM CLR 09/01 A2993 RMK AO2 T00860007
KSDA 280455Z AUTO 00000KT 10SM CLR 08/05 A3017 RMK AO2
KSDB 280448Z AUTO 35007KT 10SM CLR 16/M01 A3013 RMK AO2 SLP164 T01561006
KSDF 280456Z 01006KT 10SM CLR 10/04 A3005 RMK AO2 SLP175 T01000039 402000056
KSDL 280453Z 00000KT 10SM CLR 23/07 A2992 RMK AO2 SLP115 T02330067
KSDM 280453Z AUTO 00000KT 10SM CLR 18/06 A2998 RMK AO2 SLP147 T01830061
KSDY 280515Z AUTO 18004KT 10SM CLR 04/01 A3032 RMK AO1
KSEA 280453Z 00000KT 10SM SCT250 17/11 A2993 RMK AO2 SLP142 T01720111
KSEE 280455Z AUTO 28003KT 10SM CLR 19/03 A2999 RMK AO2
KSEG 280453Z AUTO 33006KT 10SM BKN038 OVC048 09/03 A2989 RMK AO2 SLP122 T00940028 401330044
KSEM 280515Z AUTO 03004KT 10SM CLR 15/10 A2987 RMK AO2
KSEP 280455Z AUTO 04010KT 10SM OVC009 14/12 A2995 RMK AO2 T01420117
KSET 280454Z AUTO 06005KT 10SM CLR 09/04 A3009 RMK AO2 SLP189 T00940039 $
KSEZ 280455Z AUTO 05009KT 10SM CLR 16/01 A3010 RMK AO2
KSFB 280453Z AUTO 00000KT 10SM SCT090 BKN110 21/19 A2986 RMK AO2 SLP111 T02110194 402670211
KSFF 280453Z AUTO 05003KT 10SM CLR 11/03 A3018 RMK AO2 SLP219 T01060028
KSFM 280515Z AUTO 01010G14KT 10SM FEW029 BKN035 OVC085 06/02 A2966 RMK AO1
KSFO 280456Z 27017G23KT 10SM FEW002 BKN005 12/10 A3002 RMK AO2 PK WND 27026/0427 SLP165 T01220100
KSFQ 280455Z AUTO 00000KT 10SM CLR 08/03 A2989 RMK AO2 T00790025 401860025
KSFY 280455Z AUTO 16004KT 10SM CLR 09/03 A3011 RMK AO2 T00860030
KSFZ 280515Z 02004KT 10SM BKN032 OVC039 07/02 A2963 RMK AO1
KSGF 280452Z 03005KT 10SM CLR 11/03 A3006 RMK AO2 SLP176 T01110028
KSGH 280456Z AUTO 31003KT 7SM CLR 04/02 A3009 RMK AO2 T00440016 SLP192
KSGJ 280458Z AUTO 11006KT 10SM BKN017 21/18 A2987 RMK AO2 SLP115 T02060183 402500194
KSGR 280453Z AUTO 06006KT 10SM BKN018 22/18 A2977 RMK AO2 SLP082 T02170183
KSGS 280511Z AUTO 00000KT 10SM CLR 09/00 A3014 RMK AO2 T00850002
KSGT 280515Z AUTO 05009KT 10SM CLR 15/05 A2995 RMK AO1
KSGU 280515Z AUTO 29006KT 10SM CLR 19/01 A3008 RMK AO1
KSHD 280455Z AUTO 01009KT 10SM SCT043 OVC050 08/00 A2998 RMK AO2 T00780002
KSHL 280455Z AUTO 00000KT 10SM CLR 07/M03 A3018 RMK AO2
KSHM 280456Z AUTO 35008KT 10SM OVC045 05/M01 A3035 RMK AO2 SLPNO T00541011
KSHN 280453Z AUTO 00000KT 10SM CLR 15/11 A2990 RMK AO2 SLP125 T01500111
KSHR 280453Z AUTO 22003KT 10SM CLR 03/00 A3031 RMK AO2 SLP282 T00280000
KSHV 280456Z 08012KT 10SM SCT046 BKN150 BKN250 17/08 A2983 RMK AO2 SLP098 OCNL LTGICCG DSNT W T01720083
KSIF 280455Z AUTO 00000KT 10SM CLR 02/01 A2995 RMK AO2 T00180010
KSIY 280453Z AUTO 02010KT 350V100 10SM CLR 14/07 A3003 RMK AO2 SLP171 T01390072
KSJC 280453Z 29009KT 10SM FEW150 15/11 A3001 RMK AO2 SLP162 T01500111
KSJN 280454Z AUTO 09009KT 10SM BKN100 13/03 A3013 RMK AO2 SLP149 T01280033
KSJS 280455Z AUTO 03005KT 10SM OVC060 09/03 A3003 RMK AO2 T00900025 401600052
KSJT 280451Z 29013KT 10SM CLR 13/06 A2998 RMK AO2 SLP138 T01280056
KSJX 280516Z AUTO 36003KT 10SM OVC038 05/01 A3015 RMK AO2 T00500005
KSKA 280458Z AUTO 06003KT 10SM CLR 11/01 A3017 RMK AO2 SLPNO T01140011
KSKF 280458Z AUTO 33004KT 10SM CLR 20/15 A2978 RMK AO2 SLP078 T01960154 $
KSKX 280515Z 22005KT 10SM CLR 03/M06 A3026 RMK AO1
KSLB 280455Z AUTO 00000KT 10SM CLR 12/M01 A3019 RMK AO2
KSLC 280453Z 11006KT 10SM CLR 11/04 A3022 RMK AO2 SLP215 T01060039
KSLE 280456Z AUTO 15004KT 10SM CLR 17/13 A2992 RMK AO2 SLP131 T01670133
KSLG 280515Z AUTO 36004KT 10SM OVC095 A3004 RMK AO1
KSLH 280515Z AUTO 00000KT 10SM OVC042 05/01 A3013 RMK AO2 T00530011
KSLI 280458Z AUTO 05001KT 10SM CLR 19/04 A2996 RMK AO2 SLPNO T01920042
KSLK 280500Z AUTO 02008KT 10SM BKN026 BKN033 OVC065 07/04 A2979 RMK AO2 T00720039
KSLN 280453Z AUTO 32004KT 10SM CLR 09/03 A3016 RMK AO2 SLP211 T00940028
KSLO 280455Z AUTO 00000KT 10SM CLR 10/03 A3010 RMK AO2 T01020031
KSLR 280455Z AUTO 04008KT 7SM RA OVC050 13/11 A2996 RMK AO2 P0006 T01270112
KSME 280455Z AUTO 04009KT 10SM CLR 08/03 A3001 RMK AO2
KSMF 280453Z 17007KT 10SM FEW250 23/11 A2990 RMK AO2 SLP126 T02330106 $
KSMN 280515Z AUTO 00000KT 10SM CLR 06/02 A3026 RMK AO1
KSMO 280451Z AUTO 00000KT 10SM CLR 18/11 A2995 RMK AO2 SLP139 T01780106 $
KSMQ 280453Z AUTO 32007KT 10SM FEW120 11/02 A2975 RMK AO2 SLP073 T01060022 401560011 TSNO
KSMS 280515Z AUTO 00000KT 10SM FEW033 12/08 A2993 RMK AO2
KSMX 280500Z AUTO 30003KT 6SM BR FEW005 12/11 A3003 RMK AO2 T01220106 TSNO $
KSNA 280453Z 00000KT 10SM CLR 22/M01 A2996 RMK AO2 SLP142 T02221006
KSNC 280455Z AUTO 34011G16KT 10SM CLR 09/04 A2966 RMK AO2
KSNH 280455Z AUTO 05006KT 10SM CLR 09/00 A2997 RMK
KSNK 280455Z AUTO 35021G26KT 10SM -RA BKN008 BKN015 OVC035 08/07 A3002 RMK AO2 P0003 T00810073 TSNO
KSNL 280455Z AUTO 04009KT 09/09 A3004 RMK AO2 PWINO
KSNS 280453Z 32010KT 9SM OVC005 13/10 A3002 RMK AO2 SLP175 T01280100
KSNT 280451Z AUTO 19004KT 01/M06 A3029 RMK AO1 SLP225 T00111061
KSNY 280453Z AUTO 36011KT 10SM SCT048 OVC070 08/05 A3032 RMK AO2 SLP261 T00780050
KSOA 280455Z AUTO 32009G15KT 10SM CLR 12/04 A3004 RMK AO2
KSOP 280515Z AUTO 00000KT 10SM CLR 06/01 A2993 RMK AO1
KSOW 280515Z AUTO 00000KT 10SM CLR 07/00 A3018 RMK AO2
KSPA 280515Z AUTO 00000KT 10SM CLR 12/03 A2994 RMK AO2
KSPB 280453Z AUTO 26003KT 10SM CLR 17/12 A2991 RMK AO2 SLP129 T01670122
KSPD 280456Z AUTO 36010KT 05/01 A3024 RMK AO1 SLP230 T00500006
KSPF 280455Z AUTO 20006KT 10SM CLR 02/02 A3035 RMK AO2
KSPG 280453Z AUTO 14008KT 10SM -RA FEW100 23/19 A2982 RMK AO2 RAB31 SLP096 P0000 T02330189 403000233
KSPI 280452Z AUTO 10006KT 10SM CLR 09/03 A3013 RMK AO2 SLP202 T00890033
KSPR 280455Z AUTO 10016G25KT 070V140 7SM FEW003 BKN080 OVC120 23/20 A2972 RMK A01
KSPS 280452Z AUTO 03014KT 10SM -RA FEW016 FEW095 BKN120 11/08 A2999 RMK AO2 RAE07B48 SLP152 P0000 T01060083 $
KSPW 280453Z AUTO 28003KT 10SM CLR 06/01 A3018 RMK AO2 SLP224 T00610011 TSNO
KSQE 280455Z AUTO 07031G49KT 3/4SM BR OVC004 21/20 A2971 RMK A01
KSQI 280515Z AUTO 00000KT 10SM CLR 06/02 A3012 RMK AO1
KSQL 280510Z AUTO 31007KT 10SM CLR 14/09 A3003 RMK AO2
KSRB 280455Z AUTO 22005KT 10SM CLR 05/04 A3000 RMK
KSRC 280456Z AUTO 04009KT 10SM OVC110 14/06 A3000 RMK AO2 SLP164 T01440061 401890111 TSNO
KSRQ 280453Z 09007KT 10SM CLR 23/17 A2985 RMK AO2 SLP106 T02280172 403110228
KSRR 280455Z AUTO 12008KT 6SM BR BKN002 OVC034 00/00 A3029 RMK AO2
KSSC 280458Z AUTO 04007KT 10SM CLR 12/06 A2990 RMK AO2 SLP126 T01170064 402250103 $
KSSF 280453Z AUTO 00000KT 10SM CLR 22/15 A2978 RMK AO2 SLP074 T02220150
KSSI 280453Z AUTO 12007KT 10SM CLR 19/14 A2988 RMK AO2 SLP117 T01890144 402330178
KSTC 280508Z AUTO 00000KT 6SM HZ CLR 07/01 A3013 RMK AO2 T00720011 TSNO
KSTE 280455Z AUTO 10006KT 10SM CLR 06/01 A3016 RMK AO2 T00600013
KSTF 280515Z AUTO 05003KT 10SM CLR 13/07 A2993 RMK AO2
KSTJ 280453Z AUTO 36008KT 10SM CLR 09/04 A3014 RMK AO2 SLP206 T00890039
KSTK 280510Z AUTO 01008KT 10SM OVC070 08/07 A3031 RMK AO2
KSTL 280451Z 11006KT 10SM FEW250 11/04 A3010 RMK AO2 SLP190 T01110039 $
KSTP 280453Z AUTO 00000KT 10SM CLR 09/02 A3015 RMK AO2 SLP209 T00940022
KSTS 280453Z AUTO 15004KT 10SM BKN006 11/09 A2999 RMK AO2 SLP150 T01060094
KSUA 280515Z AUTO 33003KT 10SM SCT090 22/21 A2987 RMK AO2
KSUE 280515Z AUTO 02004KT 10SM CLR 03/M01 A3018 RMK AO1
KSUN 280447Z 27005KT 10SM SKC 05/00 A3029
KSUS 280454Z AUTO 00000KT 10SM CLR 07/04 A3009 RMK AO2 SLP191 T00670044
KSUT 280455Z AUTO 36006KT 10SM CLR 13/06 A2990 RMK AO2 T01320057
KSUU 280458Z AUTO 23015KT 10SM CLR 17/10 A2991 RMK AO2 SLPNO T01700095 $
KSUW 280455Z AUTO 00000KT 10SM CLR 01/M01 A3016 RMK AO2 T00091007
KSUX 280452Z 00000KT 10SM CLR 09/M01 A3019 RMK AO2 SLP223 T00891006
KSVC 280515Z AUTO 17004KT 10SM 09/03 A3019 RMK AO2
KSVH 280455Z AUTO 00000KT 10SM CLR 06/01 A2992 RMK AO2 T00610011 402050035
KSVN 280458Z AUTO 00000KT 10SM CLR 16/16 A2986 RMK AO2 SLP114 T01630163 402390146 $
KSWF 280445Z 30010KT 10SM SCT060 09/05 A2974
KSWO 280453Z AUTO 05008KT 9SM -RA OVC060 10/08 A3009 RMK AO2 SLP185 P0003 T01000083 TSNO
KSWW 280455Z AUTO 30010KT 5SM OVC008 11/11 A3001 RMK AO2 T01100110
KSXT 280456Z AUTO 31006KT 10SM CLR 17/07 A3009 RMK AO2 SLP154 T01720072
KSYF 280455Z AUTO 26004KT 10SM CLR 06/01 A3025 RMK AO2 T00550010
KSYI 280455Z AUTO 35003KT 10SM CLR 07/06 A2997 RMK
KSYM 280510Z AUTO 05005KT 10SM FEW046 FEW050 08/02 A3007 RMK AO2
KSYN 280514Z AUTO 20003KT 10SM CLR 04/M02 A3013 RMK AO2 T00421020
KSYR 280454Z 33008KT 10SM SCT035 OVC046 08/03 A2988 RMK AO2 RAE13 SLP116 SCT V BKN P0000 T00780033 401110050
KSZL 280458Z AUTO 00000KT 10SM CLR 10/03 A3010 RMK AO2 SLP195 T00950025 CHINO RWY19 $
KSZT 280455Z AUTO 00000KT 10SM CLR 08/03 A3020 RMK AO2
KT20 280455Z AUTO 04005KT 10SM CLR 22/18 A2977 RMK AO2 T02210183
KT35 280455Z AUTO 36005KT 10SM OVC010 18/16 A2984 RMK AO2 T01780164
KT65 280455Z AUTO 00000KT 10SM CLR 21/18 A2974 RMK AO2 T02100177
KT82 280455Z AUTO 35004KT 10SM CLR 17/12 A2989 RMK AO2 T01650119
KTAD 280454Z AUTO 02008KT 10SM FEW032 BKN042 OVC055 06/03 A3031 RMK AO2 SLP252 T00610028
KTAN 280500Z AUTO 36008KT 8SM RA BKN025 OVC039 07/06 A2963 RMK AO2 P0001 T00720056
KTAZ 280455Z AUTO 08005KT 10SM CLR 08/02 A3012 RMK AO2
KTBN 280458Z AUTO 06004KT 9SM CLR 11/03 A3007 RMK AO2 SLP183 T01120026
KTBR 280455Z AUTO 00000KT 10SM 14/14 A2989 RMK AO2 T01410141
KTBX 280455Z AUTO 14007KT 10SM SCT038 03/00 A3043 RMK AO2
KTCC 280453Z AUTO 01008KT 10SM OVC075 06/03 A3021 RMK AO2 SLP221 T00610028
KTCL 280453Z AUTO 01004KT 10SM CLR 13/09 A2991 RMK AO2 SLP125 T01330089
KTCM 280458Z AUTO 00000KT 10SM CLR 15/12 A2992 RMK AO2 SLPNO T01510123 $
KTCS 280453Z AUTO 03012KT 10SM BKN060 11/00 A3021 RMK AO2 SLP188 T01060000 TSNO
KTDF 280455Z AUTO 00000KT 10SM CLR 04/03 A2995 RMK AO2
KTDR 280456Z AUTO 01008KT 7SM -SHRA BKN003 20/20 A2979 RMK AO2 LTG DSNT W RAE31SHRAB31 SLP091 T02010204 TSNO $
KTDZ 280453Z AUTO 10004KT 10SM CLR 06/02 A3009 RMK AO2 SLP192 T00560017 401060033 TSNO
KTEB 280451Z 32010KT 10SM CLR 11/02 A2972 RMK AO2 SLP063 T01060022 401610089 $
KTEW 280513Z AUTO 00000KT 10SM CLR 01/00 A3010 RMK AO2 T00111002
KTEX 280515Z AUTO 00000KT 10SM -RA SCT005 BKN010 OVC017 03/02 A3031 RMK AO2 T00250020
KTFP 280455Z AUTO 06006KT 10SM CLR 23/22 A2971 RMK AO2 T02320216
KTGI 280433Z AUTO 32025G31KT 10SM CLR 13/06 A2986 RMK AO1
KTHA 280515Z AUTO 00000KT 10SM CLR 11/03 A2998 RMK
KTHV 280453Z AUTO 28006KT 10SM BKN043 OVC050 08/02 A2987 RMK AO2 SLP119 T00830022 401440000 $
KTIF 280455Z AUTO 36011G16KT 10SM CLR 10/06 A3029 RMK AO2 T01010060
KTIK 280458Z AUTO 02010KT 10SM OVC011 09/08 A3003 RMK AO2 SLP176 T00930081 $
KTIP 280455Z AUTO 05004KT 10SM CLR 07/02 A3010 RMK AO2 T00650016
KTIW 280453Z AUTO 03004KT 10SM CLR 17/11 A2993 RMK AO2 SLP135 T01720106
KTIX 280047Z 34008KT 7SM SCT110 24/18 A2985 RMK LAST
KTKC 280510Z AUTO 25005KT 10SM CLR 10/M04 A3018 RMK AO2 T01011041
KTKI 280453Z AUTO 04014G20KT 10SM CLR 13/10 A2991 RMK AO2 SLP132 T01280100
KTKV 280455Z AUTO 00000KT 10SM CLR 00/M03 A3016 RMK AO2 T00021029
KTLH 280453Z AUTO 08006KT 10SM CLR 21/18 A2980 RMK AO2 SLP091 T02060183 402440206
KTMA 280455Z AUTO 00000KT 10SM CLR 17/17 A2985 RMK AO2 T01680165
KTMB 280453Z AUTO 09008KT 10SM SCT035 BKN060 26/23 A2985 RMK AO2 SLP108 T02610228 403500233 $
KTME 280455Z AUTO 08004KT 10SM SCT019 BKN037 19/18 A2979 RMK AO2
KTMK 280455Z AUTO 00000KT 10SM CLR 14/12 A2997 RMK AO2
KTNB 280455Z AUTO 31006KT 10SM CLR 06/M02 A2994 RMK AO2 T00591018
KTNU 280455Z AUTO 01006KT 10SM CLR 11/01 A3015 RMK AO2 PWINO
KTOA 272353Z 29014G19KT 250V310 20SM SKC 26/04 A2991
KTOB 280514Z AUTO 30003KT 10SM SCT090 09/M01 A3015 RMK AO2
KTOC 280455Z AUTO 00000KT 10SM CLR 12/07 A2992 RMK AO2 T01210069
KTOI 280453Z AUTO 04004KT 10SM CLR 16/11 A2988 RMK AO2 SLP113 T01610106
KTOL 280452Z 00000KT 10SM CLR 04/00 A3009 RMK AO2 SLP193 T00390000 401060028
KTOP 280453Z AUTO 00000KT 10SM CLR 08/04 A3014 RMK AO2 SLP204 T00830044
KTOR 280453Z AUTO 35004KT 10SM BKN033 OVC060 06/04 A3035 RMK AO2 SLP278 T00610039
KTPA 280453Z 14004KT 10SM FEW055 FEW090 SCT110 OVC250 23/18 A2984 RMK AO2 SLP102 T02280183 403000228
KTPF 280515Z AUTO 14007KT 10SM SCT120 23/20 A2984 RMK AO2
KTPH 280456Z AUTO 30003KT 10SM CLR 13/M07 A3018 RMK AO2 SLP181 T01331072
KTPL 280515Z AUTO 34016G20KT 10SM OVC009 17/13 A2986 RMK AO1
KTQE 280454Z AUTO 33006KT 10SM CLR 08/01 A3018 RMK AO2 SLP215 T00780006
KTQH 280455Z AUTO 01008KT 10SM SCT009 SCT014 BKN085 10/08 A3003 RMK AO2
KTRI 280453Z 00000KT 10SM FEW070 05/02 A2996 RMK AO2 SLP133 T00500022 401780039
KTRK 280455Z AUTO 00000KT 10SM CLR 06/M01 A3023 RMK AO2
KTRL 280453Z AUTO 04012KT 10SM CLR 14/11 A2988 RMK AO2 SLP113 T01390111
KTRM 280452Z AUTO 30004KT 10SM CLR 20/M03 A2988 RMK AO2 SLP118 T02001033 TSNO
KTSP 280515Z AUTO 00000KT 10SM CLR 12/M03 A3013 RMK AO2
KTTA 280455Z AUTO 36005KT 10SM CLR 09/02 A2992 RMK AO2 T00910016
KTTD 280453Z AUTO 09016G22KT 10SM CLR 22/07 A2992 RMK AO2 SLP133 T02170072
KTTF 280453Z AUTO 00000KT 10SM CLR 03/01 A3009 RMK AO2
KTTN 280453Z 32007KT 10SM OVC100 11/01 A2977 RMK AO2 SLP074 T01060011 401500061
KTTS 280458Z AUTO 16005KT 9SM SCT095 BKN120 22/20 A2984 RMK AO2 RAE08DZB28E39 SLP109 P0000 T02170200 402720216
KTUL 280453Z 00000KT 9SM -RA OVC075 12/09 A3005 RMK AO2 SLP175 P0005 T01170089
KTUP 280453Z AUTO 05006KT 10SM CLR 13/06 A2993 RMK AO2 SLP132 T01330056
KTUS 280453Z 34003KT 10SM CLR 22/04 A2999 RMK AO2 SLP119 T02170039
KTVC 280453Z AUTO 00000KT 10SM FEW043 04/00 A3012 RMK AO2 SLP204 T00390000 401170039
KTVF 280515Z AUTO 33007KT 10SM BKN060 OVC070 07/06 A3024 RMK AO1
KTVI 280455Z AUTO 00000KT 10SM SCT023 18/17 A2984 RMK AO2
KTVK 280455Z AUTO 31004KT 10SM CLR 08/03 A3015 RMK AO2
KTVL 280453Z AUTO 21003KT 10SM CLR 07/M01 A3023 RMK AO2 SLP207 T00671011
KTVR 280453Z AUTO 06006KT 10SM BKN050 16/11 A2987 RMK AO2 SLP122 T01610106
KTWF 280453Z AUTO 16007KT 10SM CLR 08/M02 A3024 RMK AO2 SLP217 T00781022
KTWM 280514Z AUTO 00000KT 10SM CLR 03/M01 A3013 RMK AO2
KTXK 280453Z 06010KT 10SM FEW085 15/07 A2987 RMK AO2 SLP113 T01500067
KTYQ 280455Z AUTO 04005KT 10SM CLR 06/02 A3009 RMK AO2 T00560017 401270020
KTYR 280453Z AUTO 04007KT 6SM +RA BR FEW060 BKN075 OVC095 16/14 A2989 RMK AO2 LTG DSNT E-S TSB0356E11B20E35 SLP117 P0040 T01560139
KTYS 280453Z 06003KT 10SM SCT250 11/02 A2997 RMK AO2 SLP145 T01110017 401830078
KTZR 280455Z AUTO 34003KT 10SM CLR 05/01 A3007 RMK AO2 T00450013
KU16 280258Z AUTO 14004KT 10SM CLR 12/M03 A3018 RMK AO2 SLP839 T01171028 53002 $
KU68 280455Z AUTO 08006KT 10SM CLR 08/02 A3030 RMK AO2
KUAO 280453Z AUTO 16003KT 10SM CLR 19/14 A2993 RMK AO2 SLP134 T01940144
KUBE 280455Z AUTO 00000KT 10SM CLR 06/M01 A3015 RMK AO2
KUCP 280456Z AUTO 00000KT 10SM FEW042 OVC060 05/03 A3004 RMK AO2 T00500027 SLP194
KUCY 280515Z AUTO 04004KT 10SM CLR 09/00 A3002 RMK
KUDG 280515Z AUTO 03004KT 10SM CLR 11/04 A2994 RMK AO1
KUES 280455Z AUTO 00000KT 10SM CLR 03/00 A3014 RMK AO2
KUGN 280455Z AUTO 30003KT 10SM CLR 02/00 A3011 RMK AO2 SLP201 T00220000
KUIL 280453Z AUTO 09004KT 9SM CLR 14/12 A2986 RMK AO2 SLP112 T01390117
KUIN 280454Z AUTO 02003KT 10SM CLR 09/02 A3011 RMK AO2 SLP195 T00890022 $
KUKF 280455Z AUTO 00000KT 10SM CLR 05/01 A2999 RMK AO2
KUKI 280456Z AUTO 02005KT 10SM CLR 21/06 A3000 RMK AO2 SLP151 T02110061
KUKT 280520Z AUTO 34008G14KT 10SM FEW100 SCT120 09/03 A2980 RMK AO1
KULM 280514Z AUTO 00000KT 10SM CLR 09/M06 A3016 RMK AO2
KUNI 280455Z AUTO 00000KT 10SM SCT037 06/00 A3007 RMK AO2 T00561002
KUNO 280453Z AUTO 05006KT 10SM CLR 10/02 A3005 RMK AO2 SLP172 T01000017
KUNU 280455Z AUTO 08003KT 10SM CLR 05/00 A3015 RMK AO2 T00460003
KUNV 280455Z AUTO 00000KT 10SM BKN027 OVC040 07/02 A2992 RMK AO2 T00650018
KUOX 280455Z AUTO 04004KT 10SM CLR 10/05 A2996 RMK AO2 PWINO PNO
KUSE 280455Z AUTO 00000KT 10SM CLR 03/01 A3009 RMK AO2
KUTA 280515Z AUTO 03009KT 10SM CLR 12/06 A2996 RMK AO2
KUTS 280453Z AUTO 06004KT 10SM OVC025 20/17 A2981 RMK AO2 LTG DSNT NW SLP090 T02000172
KUUU 280453Z AUTO 03010KT 10SM FEW029 SCT043 OVC055 07/05 A2962 RMK AO2 PK WND 03026/0421 RAB10E50 SLP030 P0002 T00720050 401500072
KUVA 280415Z AUTO 32009KT 10SM CLR 20/08 A2984 RMK AO2 T01970081
KUXL 280455Z AUTO 04012G18KT 10SM BKN011 BKN017 OVC022 19/18 A2978 RMK AO2 T01870175
KUYF 280515Z AUTO 01004KT 10SM CLR 03/01 A3007 RMK AO2
KUZA 280454Z AUTO 00000KT 10SM CLR 09/04 A2993 RMK AO2 SLP133 T00890044 402110050
KVAD 280458Z AUTO 04004KT 10SM CLR 17/16 A2984 RMK AO2 DZB0358E01 SLP106 P0000 T01720158 402370172 $
KVAF 280455Z AUTO 04008G14KT 4SM BR CLR 25/25 A2968 RMK A01
KVAY 280454Z AUTO 32006KT 10SM OVC080 11/01 A2978 RMK AO2 SLP083 T01060011 401500033
KVBG 280458Z AUTO 33006KT 8SM OVC004 12/11 A3003 RMK AO2 SLPNO T01220114 TSNO
KVBS 280455Z AUTO 10018KT 10SM 21/21 A2974 RMK A01
KVBT 280515Z AUTO 05007KT 10SM OVC100 A3003 RMK AO1
KVBW 280455Z AUTO 36004KT 10SM OVC050 07/00 A2996 RMK AO2 T00700004
KVCB 280453Z AUTO 23006KT 10SM CLR 23/08 A2992 RMK AO2 SLP131 T02330083
KVCT 280451Z AUTO 06008KT 10SM CLR 22/21 A2975 RMK AO2 SLP072 T02170206 TSNO
KVCV 280455Z AUTO 00000KT 10SM CLR 19/M11 A3006 RMK AO2
KVDF 280515Z AUTO 16003KT 10SM CLR 22/18 A2983 RMK AO2
KVDI 280455Z AUTO 00000KT 10SM CLR 17/14 A2988 RMK AO2
KVEL 280453Z AUTO 02009KT 10SM CLR 09/01 A3025 RMK AO2 SLP218 T00940011
KVER 280515Z AUTO 00000KT 10SM CLR 11/02 A3011 RMK AO2 T01090024
KVES 280455Z AUTO 00000KT 10SM CLR 04/02 A3008 RMK AO2
KVGT 280453Z AUTO 09009KT 10SM CLR 23/M05 A3001 RMK AO2 SLP165 T02281050 TSNO
KVIH 280453Z AUTO 05004KT 10SM CLR 09/02 A3007 RMK AO2 SLP182 T00890022
KVIS 280515Z AUTO 29003KT 10SM CLR 19/09 A2996 RMK AO1
KVJI 280455Z AUTO 00000KT 10SM CLR 06/02 A2995 RMK AO2 T00560017
KVKY 280455Z AUTO 09015KT 8SM FEW006 SCT046 BKN065 22/21 A2981 RMK A01
KVLD 280453Z AUTO 07003KT 10SM CLR 18/17 A2984 RMK AO2 SLP111 T01830172 402330183 TSNO
KVLL 280515Z AUTO 36003KT 10SM CLR 06/01 A3012 RMK AO2 T00550005
KVNC 280455Z AUTO 06009KT 10SM FEW055 SCT075 24/17 A2987 RMK AO2
KVNY 280451Z 33004KT 10SM CLR 22/02 A2995 RMK AO2 SLP133 T02170022 $
KVOA 280455Z AUTO 05006KT 4SM BR BKN041 BKN050 OVC075 24/22 A2983 RMK A01
KVOK 280458Z AUTO 00000KT 10SM CLR 05/00 A3011 RMK AO2 SLP202 T00510003
KVPC 280453Z AUTO 00000KT 10SM CLR 09/06 A2990 RMK AO2 SLP119 T00890061 402000067
KVPS 280455Z 35003KT 9SM BKN020 OVC110 19/17 A2984 RMK AO2A PRESRR SLP111 T01860170 $
KVPZ 280456Z AUTO 00000KT 10SM CLR 03/02 A3011 RMK AO2 SLP200 T00330017 TSNO
KVQQ 280455Z AUTO 06004KT 10SM BKN016 BKN080 19/18 A2985 RMK AO2
KVQT 280455Z AUTO 10022KT 9SM FEW009 FEW013 OVC033 23/22 A2971 RMK A01
KVRB 280509Z 10003KT 10SM SCT014 SCT025 24/21 A2986 RMK AO2 PRESFR T02390206
KVSF 280454Z AUTO VRB06KT 10SM SCT042 09/01 A2971 RMK AO2 SLP063 T00890011 401110056 TSNO
KVTA 280454Z AUTO 00000KT 9SM CLR 01/M01 A3006 RMK AO2 SLP185 T00061006 401280006
KVTI 280455Z AUTO 30004KT 10SM CLR 09/04 A3014 RMK AO2 T00870042
KVTN 280452Z AUTO 34011G18KT 10SM BKN080 08/04 A3032 RMK AO2 SLP268 T00830044
KVTP 280514Z AUTO 1/4SM FZFG OVC001 M02/M03 A3034 RMK AO2
KVUJ 280455Z AUTO 00000KT 10SM BKN085 06/04 A2997 RMK AO2 T00560043 402050032
KVUO 280453Z AUTO 12008KT 10SM CLR 21/08 A2992 RMK AO2 SLP132 T02110078
KVVG 280455Z AUTO 06005KT 10SM 20/20 A2972 RMK A01
KVVV 280514Z AUTO 33009KT 10SM CLR 11/04 A3020 RMK AO2
KVWU 280455Z AUTO 34006KT 10SM SCT080 OVC090 11/06 A3019 RMK AO2
KVYS 280455Z AUTO 00000KT 10SM CLR 08/02 A3013 RMK AO2 T00770022
KW13 280455Z AUTO 00000KT 10SM OVC050 06/01 A2995 RMK AO1 T00630011 401440002
KW22 280455Z AUTO 36004KT 10SM OVC037 05/M01 A3002 RMK AO2
KW29 280513Z AUTO 31010G19KT 10SM A2987 RMK AO1
KW31 280455Z AUTO 33004KT 10SM CLR 07/01 A2992 RMK AO1 T00720010 401790051
KW43 280455Z AUTO 10003KT 10SM CLR 02/01 A3034 RMK AO2
KW63 280455Z AUTO 32003KT 10SM CLR 09/01 A2992 RMK AO1
KW75 280455Z AUTO 31015G22KT 280V360 10SM SCT080 11/04 A2988 RMK AO1 T01100041 401670045
KW78 280455Z AUTO 30007KT 10SM CLR 07/01 A2993 RMK AO1 T00710005 401890018
KW81 280455Z AUTO 00000KT 10SM CLR 04/01 A2994 RMK AO1 T00400014 401850036
KW96 280455Z AUTO 30008KT 280V360 10SM CLR 09/02 A2992 RMK AO1 T00910019 401730028
KW99 280455Z AUTO 00000KT 10SM OVC042 06/M02 A3002 RMK AO2 T00581020
KWAL 280454Z AUTO 31008KT 10SM CLR 10/03 A2984 RMK AO2 SLP102 T01000033 401720044
KWDG 280455Z AUTO 10003KT 10SM -RA OVC060 09/08 A3009 RMK AO2 P0005
KWDR 280455Z AUTO 36004KT 10SM CLR 14/07 A2992 RMK AO1
KWHP 280247Z 11009KT 20SM SKC 22/01 A2995 RMK LAST
KWJF 280456Z AUTO 31005KT 10SM CLR 12/M11 A3004 RMK AO2 SLP164 T01221111
KWLD 280454Z AUTO 02006KT 10SM CLR 12/04 A3010 RMK AO2 SLP191 T01170044
KWMC 280456Z AUTO VRB05KT 10SM CLR 07/01 A3019 RMK AO2 SLP211 T00720011
KWRB 280458Z AUTO 02002KT 10SM CLR 15/11 A2987 RMK AO2 SLP116 T01480113 402370148
KWRI 280458Z AUTO 32006KT 10SM FEW048 OVC090 10/01 A2974 RMK AO2 SLP071 T01040013 401620043
KWRL 280453Z AUTO 13007KT 10SM CLR 06/02 A3031 RMK AO2 SLP274 T00560017
KWST 280453Z AUTO 33009KT 10SM SCT090 10/03 A2963 RMK AO2 SLP032 T01000033 401670094
KWVI 280510Z AUTO 12004KT 9SM OVC004 13/11 A3004 RMK AO2 T01280106
KWVL 280515Z 02017G23KT 10SM SCT033 OVC043 06/M01 A2965 RMK AO1
KWWD 280515Z AUTO 31008G14KT 280V350 10SM FEW055 11/01 A2976 RMK AO1
KWWR 280455Z AUTO 10005KT 10SM BKN070 OVC085 08/06 A3010 RMK AO2
KXBP 280455Z AUTO 05007KT 10SM SCT012 OVC048 12/11 A2996 RMK AO2 T01160105
KXIH 280455Z AUTO 07018KT 1 1/2SM BR OVC011 22/20 A2975 RMK A01
KXLL 280455Z AUTO 32010G18KT 10SM OVC031 10/03 A2983 RMK AO2
KXMR 280458Z AUTO 13002KT 10SM SCT100 22/20 A2984 RMK AO2 SLP108 T02160204 402720215 $
KXNA 280453Z AUTO 02003KT 7SM -RA OVC080 12/06 A3003 RMK AO2 RAB28 SLP166 P0004 T01220061
KXPY 280455Z AUTO 09019G26KT 4SM BR SCT010 BKN034 OVC110 22/21 A2979 RMK A01
KXSA 280455Z AUTO 28005KT 10SM CLR 10/00 A2992 RMK AO2 T00980002
KXVG 280516Z AUTO 30003KT 10SM CLR 08/02 A3014 RMK AO2
KY19 280455Z AUTO 30004KT 10SM FEW032 03/02 A3031 RMK AO2
KY23 280455Z AUTO 00000KT 10SM CLR 06/00 A3015 RMK AO2 T00550000 401951003
KY49 280455Z AUTO 29005KT 10SM CLR 11/01 A3016 RMK AO2 T01090011
KY50 280456Z AUTO 07004KT 10SM CLR 06/01 A3016 RMK AO2 TSNO T00610011 SLP214
KY51 280455Z AUTO 02005KT 10SM CLR 11/M01 A3012 RMK AO1 T01111010
KY63 280513Z AUTO 31008KT 10SM CLR 10/04 A3017 RMK AO2 T01020042
KY70 280513Z AUTO 03006KT 10SM CLR 05/01 A3009 RMK AO2 T00450012
KYIP 280453Z AUTO 01003KT 10SM CLR 04/00 A3010 RMK AO2 SLP193 T00440000 401280039 TSNO
KYKM 280453Z 28005KT 10SM CLR 13/04 A3010 RMK AO2 SLP191 T01280044
KYKN 280515Z AUTO 22003KT 10SM CLR 11/00 A3019 RMK AO1
KYNG 280451Z 31006KT 10SM OVC060 06/02 A3003 RMK AO2 SLP177 BINOVC T00560022 400720011
KZZV 280453Z AUTO 33003KT 10SM OVC050 05/01 A3006 RMK AO2 SLP184 T00500006 401110011 TSNO